Darstellungsparameter: Aktuell verwendete Einstellungen:
Skalierung der Graphiken ... ?
xyx+y,   Skalierungsfaktor:      Skalierung: Modus: x, Faktor: 1
Darstellungszeitraum ... ?
Vom - - bis: - -   Zeitraum: 15.03.2020 - 28.03.2020
Min/Max/Avg-Anzeige ... ?
Zeige MMA aktuell
Zeige MMA Monat
Zeige MMA alles
Zeige --A aktuell
Zeige --A Monat
Zeige --A alles
Keine MMA-Anzeige
MMA:
Keine MMA-Graphiken
MMA-Basis: 15.03.2020 - 28.03.2020
Quicknavigation für Darstellung... ?
Tage:      1T, 2T, 3T, 5T -1T -2T -3T -5T +1T +2T +3T +5T
Wochen: 1W, 2W, 3W -1W -2W -3W +1W +2W +3W
Monate: 1M, 3M, 6M -1M -3M -6M +1M +3M +6M
Jahre:    1J, 3J, 5J, 10J -1J -3J -5J -10J +1J +3J +5J +10J
Nutze für die Darstellung ... ?
Originaldaten oder Mittelwerte auf ...
Stundenbasis Tagesbasis Wochenbasis
Monatsbasis Jahresbasis      Datenbasis: Original-Daten
Darstellen als:
Statistik (Auto) Statistik J:M      Darstellung:
Zur Graphik,    zurück zur Übersicht aller Sensoren.
 
Tabellarische Datenbersicht: ?
 
Sensor: Nr:Datum:Temp:Feuchte:
Aussen-T/F 1 15-03-2020 00:09:18 5.9 C 39 %
2 15-03-2020 00:19:17 5.8 C 39 %
3 15-03-2020 00:29:17 6.1 C 37 %
4 15-03-2020 00:39:18 6 C 38 %
5 15-03-2020 00:49:18 5.6 C 39 %
6 15-03-2020 00:59:18 5.3 C 39 %
7 15-03-2020 01:09:17 5.1 C 40 %
8 15-03-2020 01:19:18 5.1 C 39 %
9 15-03-2020 01:29:18 5.5 C 39 %
10 15-03-2020 01:39:17 5.2 C 40 %
11 15-03-2020 01:49:17 5.2 C 40 %
12 15-03-2020 01:59:17 5.2 C 40 %
13 15-03-2020 02:09:17 5.1 C 40 %
14 15-03-2020 02:19:17 5.1 C 40 %
15 15-03-2020 02:29:17 4.8 C 40 %
16 15-03-2020 02:39:18 4.5 C 40 %
17 15-03-2020 02:49:17 4.9 C 40 %
18 15-03-2020 02:59:17 5 C 40 %
19 15-03-2020 03:09:17 4.8 C 40 %
20 15-03-2020 03:19:17 4.2 C 40 %
21 15-03-2020 03:29:17 4 C 40 %
22 15-03-2020 03:39:18 4 C 40 %
23 15-03-2020 03:49:17 3.8 C 41 %
24 15-03-2020 03:59:17 3.7 C 42 %
25 15-03-2020 04:09:18 3.7 C 41 %
Sensor: Nr:Datum:Temp:Feuchte:
Aussen-T/F 26 15-03-2020 04:19:18 3.9 C 41 %
27 15-03-2020 04:29:18 3.7 C 41 %
28 15-03-2020 04:39:18 3.8 C 41 %
29 15-03-2020 04:49:17 3.7 C 41 %
30 15-03-2020 04:59:18 3.5 C 41 %
31 15-03-2020 05:09:18 3.5 C 41 %
32 15-03-2020 05:19:17 3.3 C 41 %
33 15-03-2020 05:29:18 3.2 C 41 %
34 15-03-2020 05:39:18 3 C 41 %
35 15-03-2020 05:49:17 3.1 C 41 %
36 15-03-2020 05:59:17 3.1 C 41 %
37 15-03-2020 06:09:18 3.1 C 41 %
38 15-03-2020 06:19:17 3.1 C 41 %
39 15-03-2020 06:29:17 2.9 C 43 %
40 15-03-2020 06:39:18 3.3 C 41 %
41 15-03-2020 06:49:18 3.6 C 41 %
42 15-03-2020 06:59:18 3.3 C 41 %
43 15-03-2020 07:09:18 3 C 42 %
44 15-03-2020 07:19:18 3.1 C 42 %
45 15-03-2020 07:29:18 3.6 C 41 %
46 15-03-2020 07:39:18 3.6 C 41 %
47 15-03-2020 07:49:18 3.5 C 41 %
48 15-03-2020 07:59:18 4 C 41 %
49 15-03-2020 08:09:18 4.8 C 40 %
50 15-03-2020 08:19:18 5.4 C 39 %
Sensor: Nr:Datum:Temp:Feuchte:
Aussen-T/F 51 15-03-2020 08:29:18 5.7 C 39 %
52 15-03-2020 08:39:18 5.9 C 38 %
53 15-03-2020 08:49:17 6.4 C 38 %
54 15-03-2020 08:59:17 6.7 C 38 %
55 15-03-2020 09:09:18 6.8 C 37 %
56 15-03-2020 09:19:18 6.9 C 38 %
57 15-03-2020 09:29:18 7.1 C 37 %
58 15-03-2020 09:39:18 7.8 C 36 %
59 15-03-2020 09:49:18 9.2 C 33 %
60 15-03-2020 09:59:18 9.9 C 32 %
61 15-03-2020 10:09:18 9.9 C 31 %
62 15-03-2020 10:19:18 9.8 C 32 %
63 15-03-2020 10:29:18 10 C 32 %
64 15-03-2020 10:39:18 10.8 C 31 %
65 15-03-2020 10:49:17 11.8 C 29 %
66 15-03-2020 10:59:17 12.5 C 27 %
67 15-03-2020 11:09:17 13.4 C 25 %
68 15-03-2020 11:19:17 14.7 C 23 %
69 15-03-2020 11:29:17 16 C 20 %
70 15-03-2020 11:39:18 15.5 C 20 %
71 15-03-2020 11:49:17 14.9 C 20 %
72 15-03-2020 11:59:18 15.2 C 20 %
73 15-03-2020 12:09:18 14.5 C 20 %
74 15-03-2020 12:19:18 14.1 C 20 %
75 15-03-2020 12:29:18 14.4 C 20 %
Sensor: Nr:Datum:Temp:Feuchte:
Aussen-T/F 76 15-03-2020 12:39:18 14.7 C 20 %
77 15-03-2020 12:49:17 15.2 C 20 %
78 15-03-2020 12:59:17 15.4 C 20 %
79 15-03-2020 13:09:18 14.8 C 20 %
80 15-03-2020 13:19:17 17 C 20 %
81 15-03-2020 13:29:17 18.6 C 20 %
82 15-03-2020 13:39:18 17.4 C 20 %
83 15-03-2020 13:49:17 16.7 C 20 %
84 15-03-2020 13:59:17 16.2 C 20 %
85 15-03-2020 14:09:17 15.5 C 20 %
86 15-03-2020 14:19:17 16.5 C 20 %
87 15-03-2020 14:29:17 16.3 C 20 %
88 15-03-2020 14:39:18 16.6 C 20 %
89 15-03-2020 14:49:17 16.2 C 20 %
90 15-03-2020 14:59:17 16 C 20 %
91 15-03-2020 15:09:17 17.4 C 20 %
92 15-03-2020 15:19:17 20.3 C 20 %
93 15-03-2020 15:29:18 20.4 C 20 %
94 15-03-2020 15:39:18 19.4 C 20 %
95 15-03-2020 15:49:17 20.7 C 20 %
96 15-03-2020 15:59:17 19.9 C 20 %
97 15-03-2020 16:09:17 21.2 C 20 %
98 15-03-2020 16:19:17 20.2 C 20 %
99 15-03-2020 16:29:17 20.5 C 20 %
100 15-03-2020 16:39:17 19.7 C 20 %
Sensor: Nr:Datum:Temp:Feuchte:
Aussen-T/F 101 15-03-2020 16:49:18 18.1 C 20 %
102 15-03-2020 16:59:18 16.9 C 20 %
103 15-03-2020 17:09:18 16 C 20 %
104 15-03-2020 17:19:18 15.5 C 20 %
105 15-03-2020 17:29:18 15.5 C 20 %
106 15-03-2020 17:39:18 14.9 C 20 %
107 15-03-2020 17:49:18 13.8 C 20 %
108 15-03-2020 17:59:18 12.6 C 23 %
109 15-03-2020 18:09:18 12.1 C 25 %
110 15-03-2020 18:19:18 11.7 C 26 %
111 15-03-2020 18:29:18 11.1 C 27 %
112 15-03-2020 18:39:18 10.6 C 28 %
113 15-03-2020 18:49:17 10.4 C 28 %
114 15-03-2020 18:59:17 10 C 28 %
115 15-03-2020 19:09:18 9.6 C 30 %
116 15-03-2020 19:19:18 9.4 C 30 %
117 15-03-2020 19:29:18 9.2 C 31 %
118 15-03-2020 19:39:18 9.1 C 30 %
119 15-03-2020 19:49:17 9 C 31 %
120 15-03-2020 19:59:17 8.9 C 31 %
121 15-03-2020 20:09:18 8.6 C 31 %
122 15-03-2020 20:19:17 8.5 C 32 %
123 15-03-2020 20:29:17 8.2 C 32 %
124 15-03-2020 20:39:18 8.2 C 32 %
125 15-03-2020 20:49:18 8 C 32 %
Sensor: Nr:Datum:Temp:Feuchte:
Aussen-T/F 126 15-03-2020 20:59:18 7.4 C 34 %
127 15-03-2020 21:09:18 7.1 C 35 %
128 15-03-2020 21:19:17 7 C 35 %
129 15-03-2020 21:29:17 7.4 C 35 %
130 15-03-2020 21:39:17 7.5 C 35 %
131 15-03-2020 21:49:17 7.1 C 35 %
132 15-03-2020 21:59:17 6.3 C 36 %
133 15-03-2020 22:09:17 5.8 C 37 %
134 15-03-2020 22:19:17 5.4 C 37 %
135 15-03-2020 22:29:18 5 C 38 %
136 15-03-2020 22:39:17 4.7 C 40 %
137 15-03-2020 22:49:17 4.7 C 40 %
138 15-03-2020 22:59:17 4.7 C 40 %
139 15-03-2020 23:09:17 4.7 C 40 %
140 15-03-2020 23:19:17 4.6 C 40 %
141 15-03-2020 23:29:17 4.5 C 40 %
142 15-03-2020 23:39:17 4.5 C 40 %
143 15-03-2020 23:49:17 4.3 C 40 %
144 15-03-2020 23:59:17 4.1 C 40 %
145 16-03-2020 00:09:17 4 C 40 %
146 16-03-2020 00:19:17 3.8 C 41 %
147 16-03-2020 00:29:17 3.4 C 41 %
148 16-03-2020 00:39:17 3.4 C 42 %
149 16-03-2020 00:49:17 3.3 C 42 %
150 16-03-2020 00:59:17 3.3 C 42 %
Sensor: Nr:Datum:Temp:Feuchte:
Aussen-T/F 151 16-03-2020 01:09:18 2.9 C 43 %
152 16-03-2020 01:19:17 3 C 43 %
153 16-03-2020 01:29:17 3 C 42 %
154 16-03-2020 01:39:17 3.2 C 42 %
155 16-03-2020 01:49:18 2.8 C 43 %
156 16-03-2020 01:59:18 2.6 C 44 %
157 16-03-2020 02:09:17 2.7 C 45 %
158 16-03-2020 02:19:17 2.7 C 44 %
159 16-03-2020 02:29:17 2.4 C 44 %
160 16-03-2020 02:39:17 2.6 C 45 %
161 16-03-2020 02:49:17 2.8 C 45 %
162 16-03-2020 02:59:17 2.8 C 44 %
163 16-03-2020 03:09:18 2.2 C 44 %
164 16-03-2020 03:19:17 2.3 C 44 %
165 16-03-2020 03:29:17 2.2 C 45 %
166 16-03-2020 03:39:17 1.8 C 45 %
167 16-03-2020 03:49:18 2 C 46 %
168 16-03-2020 03:59:18 1.8 C 46 %
169 16-03-2020 04:09:18 1.6 C 46 %
170 16-03-2020 04:19:18 1.7 C 46 %
171 16-03-2020 04:29:18 2 C 46 %
172 16-03-2020 04:39:18 1.5 C 46 %
173 16-03-2020 04:49:17 1.7 C 46 %
174 16-03-2020 04:59:18 1.9 C 46 %
175 16-03-2020 05:09:18 1.7 C 46 %
Sensor: Nr:Datum:Temp:Feuchte:
Aussen-T/F 176 16-03-2020 05:19:18 1.7 C 46 %
177 16-03-2020 05:29:18 1.4 C 46 %
178 16-03-2020 05:39:18 1.3 C 46 %
179 16-03-2020 05:49:17 1.2 C 46 %
180 16-03-2020 05:59:17 1.3 C 47 %
181 16-03-2020 06:09:18 1.1 C 47 %
182 16-03-2020 06:19:17 0.6 C 48 %
183 16-03-2020 06:29:17 0.6 C 48 %
184 16-03-2020 06:39:17 0.6 C 48 %
185 16-03-2020 06:49:17 0.6 C 48 %
186 16-03-2020 06:59:17 0.9 C 49 %
187 16-03-2020 07:09:17 1.2 C 49 %
188 16-03-2020 07:19:17 1.1 C 47 %
189 16-03-2020 07:29:17 1 C 47 %
190 16-03-2020 07:39:17 1.4 C 49 %
191 16-03-2020 07:49:17 1.4 C 48 %
192 16-03-2020 07:59:17 1.7 C 48 %
193 16-03-2020 08:09:18 2 C 47 %
194 16-03-2020 08:19:17 2.3 C 47 %
195 16-03-2020 08:29:18 2.4 C 46 %
196 16-03-2020 08:39:18 2.4 C 46 %
197 16-03-2020 08:49:17 2.6 C 46 %
198 16-03-2020 08:59:17 2.9 C 47 %
199 16-03-2020 09:09:18 3.4 C 46 %
200 16-03-2020 09:19:18 3.7 C 45 %
Sensor: Nr:Datum:Temp:Feuchte:
Aussen-T/F 201 16-03-2020 09:29:18 4 C 45 %
202 16-03-2020 09:39:18 4.6 C 44 %
203 16-03-2020 09:49:18 5 C 43 %
204 16-03-2020 09:59:18 5.6 C 42 %
205 16-03-2020 10:09:18 6.6 C 41 %
206 16-03-2020 10:19:18 7.3 C 40 %
207 16-03-2020 10:29:18 8.3 C 39 %
208 16-03-2020 10:39:17 9.3 C 38 %
209 16-03-2020 10:49:18 10.4 C 37 %
210 16-03-2020 10:59:18 12.4 C 34 %
211 16-03-2020 11:09:17 13.3 C 32 %
212 16-03-2020 11:19:17 14.3 C 30 %
213 16-03-2020 11:29:17 15.4 C 27 %
214 16-03-2020 11:39:18 15.7 C 26 %
215 16-03-2020 11:49:17 15.6 C 25 %
216 16-03-2020 11:59:17 16.1 C 25 %
217 16-03-2020 12:09:17 16.5 C 25 %
218 16-03-2020 12:19:17 16.8 C 25 %
219 16-03-2020 12:29:17 16.4 C 24 %
220 16-03-2020 12:39:17 16.9 C 24 %
221 16-03-2020 12:49:17 18.3 C 21 %
222 16-03-2020 12:59:17 18.7 C 20 %
223 16-03-2020 13:09:17 22.3 C 20 %
224 16-03-2020 13:19:17 21.2 C 20 %
225 16-03-2020 13:29:17 21.1 C 20 %
Sensor: Nr:Datum:Temp:Feuchte:
Aussen-T/F 226 16-03-2020 13:39:17 20.6 C 20 %
227 16-03-2020 13:49:17 21.1 C 20 %
228 16-03-2020 13:59:17 19.7 C 20 %
229 16-03-2020 14:09:17 18.7 C 20 %
230 16-03-2020 14:19:17 19.7 C 20 %
231 16-03-2020 14:29:17 19.7 C 20 %
232 16-03-2020 14:39:17 20 C 20 %
233 16-03-2020 14:49:17 19.2 C 20 %
234 16-03-2020 14:59:17 20.8 C 20 %
235 16-03-2020 15:09:17 20 C 20 %
236 16-03-2020 15:19:17 19.1 C 20 %
237 16-03-2020 15:29:17 18.8 C 20 %
238 16-03-2020 15:39:18 18.8 C 20 %
239 16-03-2020 15:49:17 19 C 20 %
240 16-03-2020 15:59:17 19 C 20 %
241 16-03-2020 16:09:18 18.7 C 20 %
242 16-03-2020 16:19:18 19 C 20 %
243 16-03-2020 16:29:18 21.4 C 20 %
244 16-03-2020 16:39:17 20.8 C 20 %
245 16-03-2020 16:49:17 20.2 C 20 %
246 16-03-2020 16:59:17 19.4 C 20 %
247 16-03-2020 17:09:17 18.4 C 20 %
248 16-03-2020 17:19:17 17.9 C 20 %
249 16-03-2020 17:29:18 17.7 C 20 %
250 16-03-2020 17:39:18 17.5 C 20 %
Sensor: Nr:Datum:Temp:Feuchte:
Aussen-T/F 251 16-03-2020 17:49:17 16.8 C 21 %
252 16-03-2020 17:59:18 16 C 23 %
253 16-03-2020 18:09:18 15 C 26 %
254 16-03-2020 18:19:18 14.3 C 27 %
255 16-03-2020 18:29:18 13.7 C 29 %
256 16-03-2020 18:39:18 13.1 C 30 %
257 16-03-2020 18:49:18 12.7 C 31 %
258 16-03-2020 18:59:18 12.4 C 32 %
259 16-03-2020 19:09:18 12.1 C 32 %
260 16-03-2020 19:19:18 12.2 C 32 %
261 16-03-2020 19:29:18 12.2 C 32 %
262 16-03-2020 19:39:18 11.9 C 34 %
263 16-03-2020 19:49:17 11.5 C 34 %
264 16-03-2020 19:59:18 11 C 35 %
265 16-03-2020 20:09:18 10.7 C 36 %
266 16-03-2020 20:19:18 11.4 C 35 %
267 16-03-2020 20:29:18 10.8 C 36 %
268 16-03-2020 20:39:18 10.3 C 36 %
269 16-03-2020 20:49:18 9.5 C 38 %
270 16-03-2020 20:59:18 10.8 C 37 %
271 16-03-2020 21:09:18 10.1 C 37 %
272 16-03-2020 21:19:17 10.3 C 38 %
273 16-03-2020 21:29:17 9.9 C 38 %
274 16-03-2020 21:39:17 9.7 C 38 %
275 16-03-2020 21:49:18 10.2 C 37 %
Sensor: Nr:Datum:Temp:Feuchte:
Aussen-T/F 276 16-03-2020 21:59:18 9.9 C 38 %
277 16-03-2020 22:09:18 9.7 C 38 %
278 16-03-2020 22:19:18 9.5 C 38 %
279 16-03-2020 22:29:18 9.5 C 39 %
280 16-03-2020 22:39:18 9.2 C 38 %
281 16-03-2020 22:49:18 8.9 C 39 %
282 16-03-2020 22:59:18 9.1 C 39 %
283 16-03-2020 23:09:18 9.4 C 39 %
284 16-03-2020 23:19:17 9.4 C 39 %
285 16-03-2020 23:29:17 9.4 C 39 %
286 16-03-2020 23:39:17 9.5 C 39 %
287 16-03-2020 23:49:17 9.5 C 40 %
288 16-03-2020 23:59:17 9.5 C 39 %
289 17-03-2020 00:09:17 9.3 C 39 %
290 17-03-2020 00:19:17 9.7 C 40 %
291 17-03-2020 00:29:17 9.5 C 39 %
292 17-03-2020 00:39:18 9.3 C 39 %
293 17-03-2020 00:49:18 9.1 C 40 %
294 17-03-2020 00:59:18 9 C 40 %
295 17-03-2020 01:09:18 9.3 C 40 %
296 17-03-2020 01:19:17 9.2 C 40 %
297 17-03-2020 01:29:17 8.9 C 40 %
298 17-03-2020 01:39:17 8.7 C 41 %
299 17-03-2020 01:49:18 8.8 C 41 %
300 17-03-2020 01:59:18 8.8 C 41 %
Sensor: Nr:Datum:Temp:Feuchte:
Aussen-T/F 301 17-03-2020 02:09:18 8.7 C 41 %
302 17-03-2020 02:19:17 8.7 C 41 %
303 17-03-2020 02:29:17 8.7 C 41 %
304 17-03-2020 02:39:17 8.9 C 41 %
305 17-03-2020 02:49:17 8.9 C 41 %
306 17-03-2020 02:59:17 8.8 C 41 %
307 17-03-2020 03:09:18 8.6 C 41 %
308 17-03-2020 03:19:18 8.6 C 41 %
309 17-03-2020 03:29:18 8.4 C 41 %
310 17-03-2020 03:39:17 8.3 C 41 %
311 17-03-2020 03:49:18 8.1 C 42 %
312 17-03-2020 03:59:18 8 C 41 %
313 17-03-2020 04:09:18 8.9 C 42 %
314 17-03-2020 04:19:18 9.2 C 40 %
315 17-03-2020 04:29:18 9.3 C 40 %
316 17-03-2020 04:39:17 9 C 40 %
317 17-03-2020 04:49:18 9 C 40 %
318 17-03-2020 04:59:18 8.6 C 41 %
319 17-03-2020 05:09:17 8.9 C 41 %
320 17-03-2020 05:19:17 9 C 40 %
321 17-03-2020 05:29:17 8.6 C 41 %
322 17-03-2020 05:39:17 8.3 C 41 %
323 17-03-2020 05:49:17 8.2 C 41 %
324 17-03-2020 05:59:18 8.2 C 41 %
325 17-03-2020 06:09:18 8.1 C 41 %
Sensor: Nr:Datum:Temp:Feuchte:
Aussen-T/F 326 17-03-2020 06:19:18 8.1 C 41 %
327 17-03-2020 06:29:18 8 C 41 %
328 17-03-2020 06:39:18 8.2 C 41 %
329 17-03-2020 06:49:18 8.1 C 41 %
330 17-03-2020 06:59:18 8.2 C 41 %
331 17-03-2020 07:09:17 8.8 C 40 %
332 17-03-2020 07:19:17 9 C 40 %
333 17-03-2020 07:29:17 9.5 C 39 %
334 17-03-2020 07:39:17 9.6 C 39 %
335 17-03-2020 07:49:18 9.6 C 39 %
336 17-03-2020 07:59:18 9.8 C 38 %
337 17-03-2020 08:09:18 10.1 C 37 %
338 17-03-2020 08:19:17 10 C 37 %
339 17-03-2020 08:29:17 9.8 C 38 %
340 17-03-2020 08:39:17 9.9 C 38 %
341 17-03-2020 08:49:17 9.9 C 38 %
342 17-03-2020 08:59:17 10 C 37 %
343 17-03-2020 09:09:17 10.2 C 37 %
344 17-03-2020 09:19:18 10.4 C 37 %
345 17-03-2020 09:29:18 10.4 C 37 %
346 17-03-2020 09:39:18 10.6 C 37 %
347 17-03-2020 09:49:17 10.6 C 37 %
348 17-03-2020 09:59:17 10.7 C 37 %
349 17-03-2020 10:09:17 10.7 C 37 %
350 17-03-2020 10:19:17 10.9 C 36 %
Sensor: Nr:Datum:Temp:Feuchte:
Aussen-T/F 351 17-03-2020 10:29:17 11 C 35 %
352 17-03-2020 10:39:17 11.7 C 35 %
353 17-03-2020 10:49:17 12.4 C 33 %
354 17-03-2020 10:59:17 12.9 C 33 %
355 17-03-2020 11:09:17 13.1 C 32 %
356 17-03-2020 11:19:17 13.3 C 31 %
357 17-03-2020 11:29:17 13.3 C 31 %
358 17-03-2020 11:39:17 14.7 C 30 %
359 17-03-2020 11:49:17 14.1 C 29 %
360 17-03-2020 11:59:17 15.4 C 28 %
361 17-03-2020 12:09:17 14.5 C 29 %
362 17-03-2020 12:19:18 14.6 C 27 %
363 17-03-2020 12:29:18 15.2 C 26 %
364 17-03-2020 12:39:18 16.5 C 26 %
365 17-03-2020 12:49:18 16.6 C 24 %
366 17-03-2020 12:59:18 19.3 C 20 %
367 17-03-2020 13:09:17 18.8 C 20 %
368 17-03-2020 13:19:17 20.4 C 20 %
369 17-03-2020 13:29:17 19.5 C 20 %
370 17-03-2020 13:39:17 18.5 C 20 %
371 17-03-2020 13:49:18 18.8 C 20 %
372 17-03-2020 13:59:18 19.3 C 20 %
373 17-03-2020 14:09:17 18.3 C 20 %
374 17-03-2020 14:19:17 18.5 C 20 %
375 17-03-2020 14:29:17 17.9 C 20 %
Sensor: Nr:Datum:Temp:Feuchte:
Aussen-T/F 376 17-03-2020 14:39:18 17.1 C 20 %
377 17-03-2020 14:49:18 20.5 C 20 %
378 17-03-2020 14:59:18 22.2 C 20 %
379 17-03-2020 15:09:17 22.5 C 20 %
380 17-03-2020 15:19:17 22.1 C 20 %
381 17-03-2020 15:29:17 23.8 C 20 %
382 17-03-2020 15:39:18 23.6 C 20 %
383 17-03-2020 15:49:17 23.8 C 20 %
384 17-03-2020 15:59:17 23.9 C 20 %
385 17-03-2020 16:09:18 23.3 C 20 %
386 17-03-2020 16:19:18 21.8 C 20 %
387 17-03-2020 16:29:18 23.2 C 20 %
388 17-03-2020 16:39:17 21.4 C 20 %
389 17-03-2020 16:49:17 22.3 C 20 %
390 17-03-2020 16:59:17 20.1 C 20 %
391 17-03-2020 17:09:17 18.7 C 20 %
392 17-03-2020 17:19:18 17.7 C 20 %
393 17-03-2020 17:29:18 17.3 C 20 %
394 17-03-2020 17:39:18 16.8 C 20 %
395 17-03-2020 17:49:17 16.1 C 22 %
396 17-03-2020 17:59:18 15.3 C 24 %
397 17-03-2020 18:09:18 14.1 C 27 %
398 17-03-2020 18:19:17 13.5 C 28 %
399 17-03-2020 18:29:17 13.2 C 29 %
400 17-03-2020 18:39:18 12.8 C 30 %
Sensor: Nr:Datum:Temp:Feuchte:
Aussen-T/F 401 17-03-2020 18:49:18 12.4 C 31 %
402 17-03-2020 18:59:18 12 C 31 %
403 17-03-2020 19:09:18 11.9 C 32 %
404 17-03-2020 19:19:17 11.8 C 32 %
405 17-03-2020 19:29:17 11.1 C 33 %
406 17-03-2020 19:39:17 11 C 34 %
407 17-03-2020 19:49:17 10.4 C 35 %
408 17-03-2020 19:59:17 10.2 C 35 %
409 17-03-2020 20:09:17 9.9 C 36 %
410 17-03-2020 20:19:17 10.1 C 36 %
411 17-03-2020 20:29:17 10.7 C 35 %
412 17-03-2020 20:39:18 10.4 C 35 %
413 17-03-2020 20:49:18 9.6 C 37 %
414 17-03-2020 20:59:18 9.5 C 37 %
415 17-03-2020 21:09:18 9 C 37 %
416 17-03-2020 21:19:17 8.4 C 39 %
417 17-03-2020 21:29:17 8.4 C 39 %
418 17-03-2020 21:39:17 8.1 C 39 %
419 17-03-2020 21:49:18 8 C 40 %
420 17-03-2020 21:59:18 7.6 C 40 %
421 17-03-2020 22:09:18 7.3 C 40 %
422 17-03-2020 22:19:18 7.2 C 41 %
423 17-03-2020 22:29:18 7 C 41 %
424 17-03-2020 22:39:17 6.9 C 41 %
425 17-03-2020 22:49:17 6.7 C 42 %
Sensor: Nr:Datum:Temp:Feuchte:
Aussen-T/F 426 17-03-2020 22:59:17 6.5 C 42 %
427 17-03-2020 23:09:17 6.4 C 42 %
428 17-03-2020 23:19:17 6.3 C 42 %
429 17-03-2020 23:29:17 6.1 C 42 %
430 17-03-2020 23:39:18 6.1 C 42 %
431 17-03-2020 23:49:18 6.2 C 43 %
432 17-03-2020 23:59:18 6.3 C 43 %
433 18-03-2020 00:09:17 5.9 C 43 %
434 18-03-2020 00:19:17 5.8 C 44 %
435 18-03-2020 00:29:17 5.9 C 44 %
436 18-03-2020 00:39:17 5.8 C 44 %
437 18-03-2020 00:49:17 6 C 44 %
438 18-03-2020 00:59:17 6 C 43 %
439 18-03-2020 01:09:17 5.7 C 44 %
440 18-03-2020 01:19:17 5.6 C 44 %
441 18-03-2020 01:29:17 5.3 C 44 %
442 18-03-2020 01:39:17 5.6 C 45 %
443 18-03-2020 01:49:17 5.3 C 45 %
444 18-03-2020 01:59:17 5.6 C 46 %
445 18-03-2020 02:09:17 5.1 C 44 %
446 18-03-2020 02:19:17 4.8 C 45 %
447 18-03-2020 02:29:17 4.8 C 45 %
448 18-03-2020 02:39:17 4.6 C 46 %
449 18-03-2020 02:49:18 4.3 C 46 %
450 18-03-2020 02:59:18 4.3 C 46 %
Sensor: Nr:Datum:Temp:Feuchte:
Aussen-T/F 451 18-03-2020 03:09:18 4.2 C 46 %
452 18-03-2020 03:19:17 4.2 C 46 %
453 18-03-2020 03:29:17 4.1 C 46 %
454 18-03-2020 03:39:17 4 C 46 %
455 18-03-2020 03:49:17 3.8 C 47 %
456 18-03-2020 03:59:17 3.8 C 47 %
457 18-03-2020 04:09:17 3.8 C 47 %
458 18-03-2020 04:19:18 3.8 C 47 %
459 18-03-2020 04:29:18 3.7 C 47 %
460 18-03-2020 04:39:18 3.7 C 47 %
461 18-03-2020 04:49:18 3.6 C 47 %
462 18-03-2020 04:59:18 3.6 C 47 %
463 18-03-2020 05:09:18 3.7 C 48 %
464 18-03-2020 05:19:18 3.8 C 48 %
465 18-03-2020 05:29:18 3.3 C 47 %
466 18-03-2020 05:39:18 3.2 C 47 %
467 18-03-2020 05:49:18 3.3 C 47 %
468 18-03-2020 05:59:18 3.1 C 47 %
469 18-03-2020 06:09:18 2.9 C 48 %
470 18-03-2020 06:19:17 3.3 C 47 %
471 18-03-2020 06:29:18 3.1 C 47 %
472 18-03-2020 06:39:18 3.1 C 47 %
473 18-03-2020 06:49:17 3.1 C 47 %
474 18-03-2020 06:59:18 3.6 C 47 %
475 18-03-2020 07:09:18 3.5 C 47 %
Sensor: Nr:Datum:Temp:Feuchte:
Aussen-T/F 476 18-03-2020 07:19:17 3.4 C 47 %
477 18-03-2020 07:29:17 3.7 C 47 %
478 18-03-2020 07:39:17 3.9 C 47 %
479 18-03-2020 07:49:18 4 C 46 %
480 18-03-2020 07:59:18 4.9 C 46 %
481 18-03-2020 08:09:18 4.6 C 46 %
482 18-03-2020 08:19:18 4.5 C 46 %
483 18-03-2020 08:29:18 4.7 C 46 %
484 18-03-2020 08:39:17 5 C 45 %
485 18-03-2020 08:49:18 5.3 C 46 %
486 18-03-2020 08:59:18 5.6 C 46 %
487 18-03-2020 09:09:17 6.7 C 45 %
488 18-03-2020 09:19:17 7.1 C 45 %
489 18-03-2020 09:29:17 8.5 C 45 %
490 18-03-2020 09:39:17 9.7 C 41 %
491 18-03-2020 09:49:18 10.5 C 40 %
492 18-03-2020 09:59:18 11 C 38 %
493 18-03-2020 10:09:18 11.1 C 38 %
494 18-03-2020 10:19:18 11.6 C 38 %
495 18-03-2020 10:29:18 11.6 C 37 %
496 18-03-2020 10:39:18 11.7 C 38 %
497 18-03-2020 10:49:18 12 C 36 %
498 18-03-2020 10:59:18 12.2 C 35 %
499 18-03-2020 11:09:18 12.7 C 35 %
500 18-03-2020 11:19:18 12.8 C 34 %
Sensor: Nr:Datum:Temp:Feuchte:
Aussen-T/F 501 18-03-2020 11:29:18 13.3 C 34 %
502 18-03-2020 11:39:18 13.9 C 33 %
503 18-03-2020 11:49:17 14.7 C 32 %
504 18-03-2020 11:59:17 15.3 C 30 %
505 18-03-2020 12:09:18 15.8 C 30 %
506 18-03-2020 12:19:17 16.6 C 29 %
507 18-03-2020 12:29:18 17 C 27 %
508 18-03-2020 12:39:18 17.8 C 26 %
509 18-03-2020 12:49:17 19.1 C 25 %
510 18-03-2020 12:59:17 19.8 C 20 %
511 18-03-2020 13:09:17 21 C 20 %
512 18-03-2020 13:19:17 21.2 C 20 %
513 18-03-2020 13:29:17 19.5 C 20 %
514 18-03-2020 13:39:18 17.7 C 20 %
515 18-03-2020 13:49:17 16.6 C 22 %
516 18-03-2020 13:59:17 16 C 22 %
517 18-03-2020 14:09:17 17.6 C 21 %
518 18-03-2020 14:19:17 16.7 C 20 %
519 18-03-2020 14:29:17 17.9 C 20 %
520 18-03-2020 14:39:18 18.5 C 20 %
521 18-03-2020 14:49:17 17.4 C 20 %
522 18-03-2020 14:59:17 17.4 C 20 %
523 18-03-2020 15:09:17 20.6 C 20 %
524 18-03-2020 15:19:18 17.9 C 20 %
525 18-03-2020 15:29:18 18.2 C 20 %
Sensor: Nr:Datum:Temp:Feuchte:
Aussen-T/F 526 18-03-2020 15:39:18 17.7 C 20 %
527 18-03-2020 15:49:17 16.9 C 20 %
528 18-03-2020 15:59:17 16.7 C 21 %
529 18-03-2020 16:09:17 16.4 C 21 %
530 18-03-2020 16:19:17 16.4 C 22 %
531 18-03-2020 16:29:17 16.4 C 20 %
532 18-03-2020 16:39:17 16.5 C 20 %
533 18-03-2020 16:49:18 16.2 C 21 %
534 18-03-2020 16:59:18 16.1 C 21 %
535 18-03-2020 17:09:17 16 C 21 %
536 18-03-2020 17:19:17 16 C 21 %
537 18-03-2020 17:29:17 15.7 C 22 %
538 18-03-2020 17:39:18 16 C 20 %
539 18-03-2020 17:49:17 16.3 C 20 %
540 18-03-2020 17:59:17 15.8 C 22 %
541 18-03-2020 18:09:17 15.4 C 22 %
542 18-03-2020 18:19:17 14.7 C 26 %
543 18-03-2020 18:29:17 13.7 C 26 %
544 18-03-2020 18:39:17 13.3 C 28 %
545 18-03-2020 18:49:17 12.7 C 30 %
546 18-03-2020 18:59:17 12 C 31 %
547 18-03-2020 19:09:17 11.7 C 32 %
548 18-03-2020 19:19:18 11.5 C 32 %
549 18-03-2020 19:29:18 10.5 C 34 %
550 18-03-2020 19:39:18 10.9 C 34 %
Sensor: Nr:Datum:Temp:Feuchte:
Aussen-T/F 551 18-03-2020 19:49:18 11.1 C 34 %
552 18-03-2020 19:59:18 10.9 C 35 %
553 18-03-2020 20:09:18 10.6 C 35 %
554 18-03-2020 20:19:17 10.4 C 35 %
555 18-03-2020 20:29:17 10.4 C 35 %
556 18-03-2020 20:39:18 10 C 36 %
557 18-03-2020 20:49:17 9.7 C 37 %
558 18-03-2020 20:59:17 9.7 C 37 %
559 18-03-2020 21:09:18 9.7 C 37 %
560 18-03-2020 21:19:17 9.6 C 37 %
561 18-03-2020 21:29:17 9.4 C 37 %
562 18-03-2020 21:39:17 9 C 37 %
563 18-03-2020 21:49:17 8.7 C 38 %
564 18-03-2020 21:59:17 8.4 C 39 %
565 18-03-2020 22:09:17 8.2 C 39 %
566 18-03-2020 22:19:17 8.1 C 40 %
567 18-03-2020 22:29:17 8 C 40 %
568 18-03-2020 22:39:17 8 C 40 %
569 18-03-2020 22:49:17 8.1 C 40 %
570 18-03-2020 22:59:17 8.2 C 40 %
571 18-03-2020 23:09:18 8.3 C 40 %
572 18-03-2020 23:19:17 8.1 C 40 %
573 18-03-2020 23:29:17 8 C 40 %
574 18-03-2020 23:39:18 8 C 40 %
575 18-03-2020 23:49:18 8.4 C 40 %
Sensor: Nr:Datum:Temp:Feuchte:
Aussen-T/F 576 18-03-2020 23:59:18 8.9 C 40 %
577 19-03-2020 00:09:17 8.9 C 39 %
578 19-03-2020 00:19:18 8.9 C 38 %
579 19-03-2020 00:29:18 9 C 38 %
580 19-03-2020 00:39:18 9 C 38 %
581 19-03-2020 00:49:17 9.1 C 38 %
582 19-03-2020 00:59:17 9.1 C 38 %
583 19-03-2020 01:09:18 9 C 38 %
584 19-03-2020 01:19:17 9.1 C 38 %
585 19-03-2020 01:29:17 9 C 38 %
586 19-03-2020 01:39:17 9 C 38 %
587 19-03-2020 01:49:17 8.9 C 38 %
588 19-03-2020 01:59:17 8.8 C 39 %
589 19-03-2020 02:09:18 8.7 C 39 %
590 19-03-2020 02:19:17 8.7 C 39 %
591 19-03-2020 02:29:17 8.6 C 39 %
592 19-03-2020 02:39:17 8.5 C 39 %
593 19-03-2020 02:49:18 8.5 C 39 %
594 19-03-2020 02:59:18 8.5 C 39 %
595 19-03-2020 03:09:18 8.5 C 39 %
596 19-03-2020 03:19:18 8.6 C 39 %
597 19-03-2020 03:29:18 8.5 C 39 %
598 19-03-2020 03:39:17 8.5 C 39 %
599 19-03-2020 03:49:18 8.4 C 39 %
600 19-03-2020 03:59:18 8.4 C 40 %
Sensor: Nr:Datum:Temp:Feuchte:
Aussen-T/F 601 19-03-2020 04:09:18 8.4 C 40 %
602 19-03-2020 04:19:17 8.5 C 40 %
603 19-03-2020 04:29:17 8.5 C 39 %
604 19-03-2020 04:39:17 8.5 C 39 %
605 19-03-2020 04:49:18 8.5 C 39 %
606 19-03-2020 04:59:18 8.5 C 39 %
607 19-03-2020 05:09:18 8.6 C 39 %
608 19-03-2020 05:19:18 8.9 C 38 %
609 19-03-2020 05:29:18 8.7 C 39 %
610 19-03-2020 05:39:18 8.6 C 39 %
611 19-03-2020 05:49:17 8.5 C 39 %
612 19-03-2020 05:59:18 8.4 C 39 %
613 19-03-2020 06:09:18 8.4 C 39 %
614 19-03-2020 06:19:17 8.3 C 40 %
615 19-03-2020 06:29:17 8.2 C 39 %
616 19-03-2020 06:39:17 8.1 C 40 %
617 19-03-2020 06:49:17 8.1 C 40 %
618 19-03-2020 06:59:17 8.2 C 40 %
619 19-03-2020 07:09:17 8.2 C 40 %
620 19-03-2020 07:19:17 8.5 C 40 %
621 19-03-2020 07:29:17 8.7 C 39 %
622 19-03-2020 07:39:18 8.9 C 39 %
623 19-03-2020 07:49:18 9.1 C 38 %
624 19-03-2020 07:59:18 9.4 C 38 %
625 19-03-2020 08:09:18 9.7 C 38 %
Sensor: Nr:Datum:Temp:Feuchte:
Aussen-T/F 626 19-03-2020 08:19:17 9.9 C 37 %
627 19-03-2020 08:29:17 9.9 C 37 %
628 19-03-2020 08:39:17 10.5 C 36 %
629 19-03-2020 08:49:18 10.4 C 36 %
630 19-03-2020 08:59:18 10.2 C 36 %
631 19-03-2020 09:09:17 11.2 C 35 %
632 19-03-2020 09:19:17 11.7 C 35 %
633 19-03-2020 09:29:17 11.5 C 35 %
634 19-03-2020 09:39:18 11.8 C 35 %
635 19-03-2020 09:49:17 11.6 C 35 %
636 19-03-2020 09:59:17 12.4 C 33 %
637 19-03-2020 10:09:18 12.3 C 32 %
638 19-03-2020 10:19:18 13.1 C 31 %
639 19-03-2020 10:29:18 13.5 C 30 %
640 19-03-2020 10:39:17 13.9 C 31 %
641 19-03-2020 10:49:17 14.2 C 30 %
642 19-03-2020 10:59:17 15.4 C 29 %
643 19-03-2020 11:09:17 15.5 C 29 %
644 19-03-2020 11:19:17 16.4 C 26 %
645 19-03-2020 11:29:17 17.7 C 26 %
646 19-03-2020 11:39:17 18.5 C 24 %
647 19-03-2020 11:49:17 15.8 C 26 %
648 19-03-2020 11:59:17 15 C 28 %
649 19-03-2020 12:09:17 15.2 C 28 %
650 19-03-2020 12:19:17 15.5 C 28 %
Sensor: Nr:Datum:Temp:Feuchte:
Aussen-T/F 651 19-03-2020 12:29:17 16.8 C 26 %
652 19-03-2020 12:39:18 18.1 C 22 %
653 19-03-2020 12:49:17 18.6 C 20 %
654 19-03-2020 12:59:17 17.9 C 20 %
655 19-03-2020 13:09:18 20.4 C 20 %
656 19-03-2020 13:19:18 25.8 C 20 %
657 19-03-2020 13:29:18 25.6 C 20 %
658 19-03-2020 13:39:18 19.7 C 20 %
659 19-03-2020 13:49:17 18.8 C 20 %
660 19-03-2020 13:59:17 18.2 C 20 %
661 19-03-2020 14:09:17 18.7 C 20 %
662 19-03-2020 14:19:17 18.9 C 20 %
663 19-03-2020 14:29:17 18.8 C 20 %
664 19-03-2020 14:39:17 18.9 C 20 %
665 19-03-2020 14:49:17 19.3 C 20 %
666 19-03-2020 14:59:17 19.1 C 20 %
667 19-03-2020 15:09:18 18.5 C 20 %
668 19-03-2020 15:19:18 19.1 C 20 %
669 19-03-2020 15:29:18 19.3 C 20 %
670 19-03-2020 15:39:18 19.8 C 20 %
671 19-03-2020 15:49:17 21.8 C 20 %
672 19-03-2020 15:59:18 19.5 C 20 %
673 19-03-2020 16:09:18 19.1 C 20 %
674 19-03-2020 16:20:17 19.1 C 20 %
675 19-03-2020 16:29:17 19.1 C 20 %
Sensor: Nr:Datum:Temp:Feuchte:
Aussen-T/F 676 19-03-2020 16:39:17 19.1 C 20 %
677 19-03-2020 16:49:17 19.1 C 20 %
678 19-03-2020 16:59:17 18.4 C 20 %
679 19-03-2020 17:09:18 17.6 C 20 %
680 19-03-2020 17:19:18 17.3 C 20 %
681 19-03-2020 17:29:18 17 C 20 %
682 19-03-2020 17:39:18 16.8 C 20 %
683 19-03-2020 17:49:18 16.9 C 20 %
684 19-03-2020 17:59:18 16.7 C 20 %
685 19-03-2020 18:09:18 16.3 C 20 %
686 19-03-2020 18:20:17 15.7 C 23 %
687 19-03-2020 18:30:17 13.9 C 29 %
688 19-03-2020 18:40:17 13.5 C 30 %
689 19-03-2020 18:50:17 12.8 C 31 %
690 19-03-2020 18:59:18 12.7 C 31 %
691 19-03-2020 19:09:18 12.3 C 31 %
692 19-03-2020 19:20:17 12.2 C 31 %
693 19-03-2020 19:30:17 11.9 C 32 %
694 19-03-2020 19:40:17 11.7 C 32 %
695 19-03-2020 19:50:17 11.7 C 33 %
696 19-03-2020 19:59:17 11.7 C 33 %
697 19-03-2020 20:09:17 11.7 C 33 %
698 19-03-2020 20:29:17 11.5 C 34 %
699 19-03-2020 20:29:17 11.6 C 34 %
700 19-03-2020 20:39:17 12 C 33 %
Sensor: Nr:Datum:Temp:Feuchte:
Aussen-T/F 701 19-03-2020 20:49:17 11.8 C 34 %
702 19-03-2020 20:59:17 11.5 C 35 %
703 19-03-2020 21:09:18 12 C 33 %
704 19-03-2020 21:20:17 11.4 C 35 %
705 19-03-2020 21:30:17 11.3 C 35 %
706 19-03-2020 21:40:17 10.3 C 36 %
707 19-03-2020 21:50:17 10.7 C 36 %
708 19-03-2020 21:59:18 10.6 C 36 %
709 19-03-2020 22:09:18 10.1 C 37 %
710 19-03-2020 22:19:18 9.7 C 38 %
711 19-03-2020 22:29:18 9.8 C 38 %
712 19-03-2020 22:39:18 9.5 C 39 %
713 19-03-2020 22:49:18 9.4 C 39 %
714 19-03-2020 22:59:18 9.5 C 38 %
715 19-03-2020 23:09:18 9.5 C 38 %
716 19-03-2020 23:20:17 9.4 C 39 %
717 19-03-2020 23:30:17 9.2 C 39 %
718 19-03-2020 23:40:17 9.6 C 38 %
719 19-03-2020 23:50:17 9.1 C 39 %
720 19-03-2020 23:59:18 8.7 C 40 %
721 20-03-2020 00:09:18 8.6 C 40 %
722 20-03-2020 00:19:18 9.3 C 39 %
723 20-03-2020 00:29:18 9.1 C 39 %
724 20-03-2020 00:39:18 9 C 39 %
725 20-03-2020 00:59:17 8.8 C 40 %
Sensor: Nr:Datum:Temp:Feuchte:
Aussen-T/F 726 20-03-2020 01:00:18 8.8 C 40 %
727 20-03-2020 01:10:18 8.7 C 40 %
728 20-03-2020 01:20:17 8.7 C 40 %
729 20-03-2020 01:30:18 8.6 C 40 %
730 20-03-2020 01:40:18 8.4 C 40 %
731 20-03-2020 01:50:17 8.5 C 40 %
732 20-03-2020 02:00:18 8.3 C 40 %
733 20-03-2020 02:10:18 7.9 C 40 %
734 20-03-2020 02:20:17 7.6 C 41 %
735 20-03-2020 02:30:17 7.4 C 41 %
736 20-03-2020 02:40:17 7.4 C 41 %
737 20-03-2020 02:50:17 7.1 C 41 %
738 20-03-2020 03:00:17 7.1 C 42 %
739 20-03-2020 03:10:17 7.1 C 42 %
740 20-03-2020 03:20:17 7.1 C 42 %
741 20-03-2020 03:30:18 7.2 C 42 %
742 20-03-2020 03:40:18 7.3 C 42 %
743 20-03-2020 03:50:17 7.5 C 42 %
744 20-03-2020 04:00:18 7.5 C 42 %
745 20-03-2020 04:10:18 7.7 C 42 %
746 20-03-2020 04:20:18 7.6 C 41 %
747 20-03-2020 04:30:18 7.4 C 42 %
748 20-03-2020 04:40:18 7.2 C 42 %
749 20-03-2020 04:50:17 7 C 42 %
750 20-03-2020 05:00:18 6.9 C 43 %
Sensor: Nr:Datum:Temp:Feuchte:
Aussen-T/F 751 20-03-2020 05:10:18 6.8 C 43 %
752 20-03-2020 05:20:17 6.5 C 43 %
753 20-03-2020 05:30:17 6.2 C 43 %
754 20-03-2020 05:40:17 5.9 C 44 %
755 20-03-2020 05:50:17 5.6 C 44 %
756 20-03-2020 06:00:17 5.4 C 45 %
757 20-03-2020 06:10:17 5.2 C 45 %
758 20-03-2020 06:20:17 5 C 45 %
759 20-03-2020 06:30:17 5.1 C 46 %
760 20-03-2020 06:40:17 5 C 46 %
761 20-03-2020 06:50:17 5 C 46 %
762 20-03-2020 07:00:17 5.1 C 46 %
763 20-03-2020 07:10:17 5.3 C 46 %
764 20-03-2020 07:20:17 5.5 C 46 %
765 20-03-2020 07:30:17 5.6 C 46 %
766 20-03-2020 07:40:17 5.7 C 46 %
767 20-03-2020 07:50:18 5.8 C 46 %
768 20-03-2020 08:00:17 6.3 C 46 %
769 20-03-2020 08:10:17 6.9 C 45 %
770 20-03-2020 08:20:17 7.2 C 43 %
771 20-03-2020 08:30:17 7.1 C 43 %
772 20-03-2020 08:40:17 7.1 C 43 %
773 20-03-2020 08:50:17 7.3 C 43 %
774 20-03-2020 09:00:17 8 C 43 %
775 20-03-2020 09:10:17 8.2 C 42 %
Sensor: Nr:Datum:Temp:Feuchte:
Aussen-T/F 776 20-03-2020 09:20:17 9.6 C 42 %
777 20-03-2020 09:30:17 10 C 40 %
778 20-03-2020 09:40:17 10.2 C 40 %
779 20-03-2020 09:50:17 10.5 C 39 %
780 20-03-2020 10:00:18 10.8 C 39 %
781 20-03-2020 10:10:18 11.2 C 38 %
782 20-03-2020 10:20:18 11.1 C 37 %
783 20-03-2020 10:30:18 11 C 37 %
784 20-03-2020 10:40:18 11.5 C 37 %
785 20-03-2020 10:50:18 12.6 C 36 %
786 20-03-2020 11:00:17 13.1 C 35 %
787 20-03-2020 11:10:18 13.1 C 35 %
788 20-03-2020 11:20:18 14.2 C 33 %
789 20-03-2020 11:30:18 14.5 C 32 %
790 20-03-2020 11:40:18 15.3 C 31 %
791 20-03-2020 11:50:18 14.6 C 32 %
792 20-03-2020 12:00:17 15.6 C 31 %
793 20-03-2020 12:10:17 15.4 C 30 %
794 20-03-2020 12:20:17 15.6 C 30 %
795 20-03-2020 12:30:18 14.4 C 31 %
796 20-03-2020 12:40:18 14.9 C 31 %
797 20-03-2020 12:50:18 14.9 C 31 %
798 20-03-2020 13:00:18 14.9 C 31 %
799 20-03-2020 13:10:18 14.9 C 31 %
800 20-03-2020 13:20:18 14.9 C 31 %
Sensor: Nr:Datum:Temp:Feuchte:
Aussen-T/F 801 20-03-2020 13:30:18 14.9 C 31 %
802 20-03-2020 13:40:18 14.9 C 31 %
803 20-03-2020 13:50:17 16.4 C 26 %
804 20-03-2020 14:00:17 16.2 C 27 %
805 20-03-2020 14:10:17 16.6 C 26 %
806 20-03-2020 14:20:17 16.2 C 27 %
807 20-03-2020 14:30:18 17.4 C 26 %
808 20-03-2020 14:40:18 17.3 C 26 %
809 20-03-2020 14:50:18 17.9 C 25 %
810 20-03-2020 15:00:17 17.9 C 25 %
811 20-03-2020 15:10:17 18.1 C 25 %
812 20-03-2020 15:20:17 17 C 25 %
813 20-03-2020 15:30:18 17.9 C 25 %
814 20-03-2020 15:40:18 18.5 C 25 %
815 20-03-2020 15:50:18 17 C 25 %
816 20-03-2020 16:00:17 16.2 C 26 %
817 20-03-2020 16:10:17 16.1 C 26 %
818 20-03-2020 16:20:17 15.5 C 26 %
819 20-03-2020 16:30:18 15.8 C 26 %
820 20-03-2020 16:40:18 15.3 C 26 %
821 20-03-2020 16:50:18 17 C 25 %
822 20-03-2020 17:00:18 16.1 C 26 %
823 20-03-2020 17:10:18 15.2 C 27 %
824 20-03-2020 17:20:18 14.3 C 28 %
825 20-03-2020 17:30:18 13.9 C 30 %
Sensor: Nr:Datum:Temp:Feuchte:
Aussen-T/F 826 20-03-2020 17:40:18 12.8 C 31 %
827 20-03-2020 17:50:17 12.5 C 31 %
828 20-03-2020 18:00:17 12.4 C 32 %
829 20-03-2020 18:10:17 11.9 C 33 %
830 20-03-2020 18:20:17 11.8 C 34 %
831 20-03-2020 18:30:17 11.6 C 34 %
832 20-03-2020 18:40:17 11.6 C 34 %
833 20-03-2020 18:50:18 11.5 C 34 %
834 20-03-2020 19:00:17 11.5 C 34 %
835 20-03-2020 19:10:17 11.3 C 34 %
836 20-03-2020 19:20:17 11.1 C 34 %
837 20-03-2020 19:30:17 11 C 35 %
838 20-03-2020 19:40:17 10.7 C 35 %
839 20-03-2020 19:50:17 10.6 C 35 %
840 20-03-2020 20:00:17 10.4 C 35 %
841 20-03-2020 20:10:17 10.2 C 35 %
842 20-03-2020 20:20:17 10.3 C 35 %
843 20-03-2020 20:30:17 10.3 C 35 %
844 20-03-2020 20:40:17 10.2 C 35 %
845 20-03-2020 20:50:18 10.3 C 35 %
846 20-03-2020 21:00:18 10.1 C 35 %
847 20-03-2020 21:10:18 9.9 C 35 %
848 20-03-2020 21:20:17 9.5 C 35 %
849 20-03-2020 21:30:17 9.2 C 35 %
850 20-03-2020 21:40:17 9.1 C 35 %
Sensor: Nr:Datum:Temp:Feuchte:
Aussen-T/F 851 20-03-2020 21:50:17 8.7 C 36 %
852 20-03-2020 22:00:17 8.5 C 36 %
853 20-03-2020 22:10:17 8.4 C 36 %
854 20-03-2020 22:20:18 8.3 C 36 %
855 20-03-2020 22:30:17 8.2 C 36 %
856 20-03-2020 22:40:18 8.1 C 36 %
857 20-03-2020 22:50:17 8.1 C 36 %
858 20-03-2020 23:00:18 8 C 35 %
859 20-03-2020 23:10:18 7.9 C 36 %
860 20-03-2020 23:20:17 7.9 C 36 %
861 20-03-2020 23:30:18 7.9 C 35 %
862 20-03-2020 23:40:18 7.8 C 35 %
863 20-03-2020 23:50:18 7.7 C 35 %
864 21-03-2020 00:00:17 7.6 C 34 %
865 21-03-2020 00:10:17 7.6 C 34 %
866 21-03-2020 00:20:17 7.4 C 34 %
867 21-03-2020 00:30:17 7.3 C 34 %
868 21-03-2020 00:40:17 7.3 C 34 %
869 21-03-2020 00:50:17 7.3 C 34 %
870 21-03-2020 01:00:17 7.2 C 33 %
871 21-03-2020 01:10:17 7.1 C 33 %
872 21-03-2020 01:20:17 6.8 C 35 %
873 21-03-2020 01:30:18 6.5 C 35 %
874 21-03-2020 01:40:18 6.2 C 36 %
875 21-03-2020 01:50:17 5.9 C 38 %
Sensor: Nr:Datum:Temp:Feuchte:
Aussen-T/F 876 21-03-2020 02:00:18 5.6 C 39 %
877 21-03-2020 02:10:18 5.3 C 40 %
878 21-03-2020 02:20:17 5.1 C 41 %
879 21-03-2020 02:30:18 4.9 C 43 %
880 21-03-2020 02:40:18 4.9 C 43 %
881 21-03-2020 02:50:18 4.6 C 43 %
882 21-03-2020 03:00:17 4.5 C 43 %
883 21-03-2020 03:10:17 4.4 C 44 %
884 21-03-2020 03:20:17 4.5 C 45 %
885 21-03-2020 03:30:18 4.5 C 45 %
886 21-03-2020 03:40:18 4.4 C 45 %
887 21-03-2020 03:50:17 4.4 C 45 %
888 21-03-2020 04:00:18 4.3 C 45 %
889 21-03-2020 04:10:18 4.2 C 45 %
890 21-03-2020 04:20:17 4.1 C 45 %
891 21-03-2020 04:30:18 4.1 C 45 %
892 21-03-2020 04:40:18 4 C 45 %
893 21-03-2020 04:50:18 3.9 C 46 %
894 21-03-2020 05:00:18 3.9 C 46 %
895 21-03-2020 05:10:18 4 C 46 %
896 21-03-2020 05:20:18 3.9 C 47 %
897 21-03-2020 05:30:18 3.9 C 47 %
898 21-03-2020 05:40:18 3.9 C 47 %
899 21-03-2020 05:50:17 4 C 46 %
900 21-03-2020 06:00:18 4 C 47 %
Sensor: Nr:Datum:Temp:Feuchte:
Aussen-T/F 901 21-03-2020 06:10:18 3.9 C 47 %
902 21-03-2020 06:20:17 4 C 47 %
903 21-03-2020 06:30:18 4 C 47 %
904 21-03-2020 06:40:18 4 C 47 %
905 21-03-2020 06:50:17 4 C 47 %
906 21-03-2020 07:00:17 4.1 C 47 %
907 21-03-2020 07:10:18 4.1 C 47 %
908 21-03-2020 07:20:18 4.1 C 47 %
909 21-03-2020 07:30:18 4.2 C 47 %
910 21-03-2020 07:40:18 4.3 C 47 %
911 21-03-2020 07:50:17 4.3 C 47 %
912 21-03-2020 08:00:18 4.4 C 47 %
913 21-03-2020 08:10:18 4.5 C 47 %
914 21-03-2020 08:20:17 4.5 C 46 %
915 21-03-2020 08:30:17 4.6 C 46 %
916 21-03-2020 08:40:17 4.7 C 46 %
917 21-03-2020 08:50:18 4.8 C 46 %
918 21-03-2020 09:00:18 4.7 C 46 %
919 21-03-2020 09:10:18 4.6 C 45 %
920 21-03-2020 09:20:18 5.2 C 43 %
921 21-03-2020 09:30:18 5.6 C 42 %
922 21-03-2020 09:40:18 5.8 C 41 %
923 21-03-2020 09:50:17 6 C 41 %
924 21-03-2020 10:00:17 6.2 C 41 %
925 21-03-2020 10:10:18 6.4 C 39 %
Sensor: Nr:Datum:Temp:Feuchte:
Aussen-T/F 926 21-03-2020 10:20:18 6.5 C 40 %
927 21-03-2020 10:30:18 6.7 C 39 %
928 21-03-2020 10:40:18 6.7 C 38 %
929 21-03-2020 10:50:17 6.4 C 39 %
930 21-03-2020 11:00:17 6.5 C 37 %
931 21-03-2020 11:10:18 7.1 C 36 %
932 21-03-2020 11:20:18 7.3 C 36 %
933 21-03-2020 11:30:18 8.1 C 34 %
934 21-03-2020 11:40:18 8 C 34 %
935 21-03-2020 11:50:18 8.3 C 32 %
936 21-03-2020 12:00:18 7.8 C 32 %
937 21-03-2020 12:10:18 7.6 C 33 %
938 21-03-2020 12:20:17 7.9 C 31 %
939 21-03-2020 12:30:17 8.7 C 32 %
940 21-03-2020 12:40:17 8.2 C 30 %
941 21-03-2020 12:50:17 7.8 C 31 %
942 21-03-2020 13:00:17 7.9 C 30 %
943 21-03-2020 13:10:17 8.7 C 30 %
944 21-03-2020 13:20:18 8.9 C 28 %
945 21-03-2020 13:30:18 8.5 C 28 %
946 21-03-2020 13:40:18 8.2 C 27 %
947 21-03-2020 13:50:17 8.4 C 27 %
948 21-03-2020 14:00:18 8.6 C 27 %
949 21-03-2020 14:10:18 9.1 C 26 %
950 21-03-2020 14:20:18 8.7 C 27 %
Sensor: Nr:Datum:Temp:Feuchte:
Aussen-T/F 951 21-03-2020 14:30:18 9.1 C 25 %
952 21-03-2020 14:40:18 11.1 C 24 %
953 21-03-2020 14:50:17 9.8 C 23 %
954 21-03-2020 15:00:18 11 C 20 %
955 21-03-2020 15:10:18 10.1 C 20 %
956 21-03-2020 15:20:17 11.2 C 20 %
957 21-03-2020 15:30:17 11.7 C 20 %
958 21-03-2020 15:40:17 9.4 C 20 %
959 21-03-2020 15:50:17 8.6 C 20 %
960 21-03-2020 16:00:18 9.4 C 20 %
961 21-03-2020 16:10:18 9.5 C 20 %
962 21-03-2020 16:20:17 12.1 C 20 %
963 21-03-2020 16:30:17 12 C 20 %
964 21-03-2020 16:40:17 13.3 C 20 %
965 21-03-2020 16:50:17 10.9 C 20 %
966 21-03-2020 17:00:17 9.2 C 20 %
967 21-03-2020 17:10:17 8.9 C 20 %
968 21-03-2020 17:20:17 8.3 C 20 %
969 21-03-2020 17:30:18 7.8 C 20 %
970 21-03-2020 17:40:18 7.8 C 20 %
971 21-03-2020 17:50:17 7.5 C 20 %
972 21-03-2020 18:00:17 7 C 20 %
973 21-03-2020 18:10:17 6.9 C 20 %
974 21-03-2020 18:20:17 6.6 C 21 %
975 21-03-2020 18:30:17 6.4 C 23 %
Sensor: Nr:Datum:Temp:Feuchte:
Aussen-T/F 976 21-03-2020 18:40:17 5.9 C 25 %
977 21-03-2020 18:50:17 5.5 C 27 %
978 21-03-2020 19:00:17 5.5 C 26 %
979 21-03-2020 19:10:17 5.1 C 28 %
980 21-03-2020 19:20:17 4.7 C 30 %
981 21-03-2020 19:30:18 4.4 C 31 %
982 21-03-2020 19:40:18 4.5 C 30 %
983 21-03-2020 19:50:17 4.4 C 29 %
984 21-03-2020 20:00:18 4.1 C 30 %
985 21-03-2020 20:10:18 3.7 C 31 %
986 21-03-2020 20:20:18 3.2 C 33 %
987 21-03-2020 20:30:18 3.7 C 32 %
988 21-03-2020 20:40:18 3.9 C 30 %
989 21-03-2020 20:50:17 3.6 C 31 %
990 21-03-2020 21:00:18 3.3 C 32 %
991 21-03-2020 21:10:18 3 C 32 %
992 21-03-2020 21:20:18 3.4 C 32 %
993 21-03-2020 21:30:18 3.1 C 31 %
994 21-03-2020 21:40:18 2.9 C 32 %
995 21-03-2020 21:50:17 2.6 C 33 %
996 21-03-2020 22:00:17 1.9 C 36 %
997 21-03-2020 22:10:17 2.3 C 34 %
998 21-03-2020 22:20:17 3 C 32 %
999 21-03-2020 22:30:18 2.7 C 32 %
1000 21-03-2020 22:40:18 2.3 C 33 %
Sensor: Nr:Datum:Temp:Feuchte:
Aussen-T/F 1001 21-03-2020 22:50:18 2.7 C 32 %
1002 21-03-2020 23:00:18 2 C 34 %
1003 21-03-2020 23:10:18 2.2 C 33 %
1004 21-03-2020 23:20:18 1.6 C 35 %
1005 21-03-2020 23:30:18 1.7 C 35 %
1006 21-03-2020 23:40:18 1.8 C 35 %
1007 21-03-2020 23:50:17 1.7 C 35 %
1008 22-03-2020 00:00:18 1.4 C 35 %
1009 22-03-2020 00:10:18 1.5 C 35 %
1010 22-03-2020 00:20:17 0.9 C 37 %
1011 22-03-2020 00:30:17 0.7 C 38 %
1012 22-03-2020 00:40:17 1.2 C 36 %
1013 22-03-2020 00:50:17 0.9 C 37 %
1014 22-03-2020 01:00:18 1.5 C 35 %
1015 22-03-2020 01:10:18 1.5 C 35 %
1016 22-03-2020 01:20:18 1.1 C 35 %
1017 22-03-2020 01:30:18 1.1 C 35 %
1018 22-03-2020 01:40:18 0.9 C 36 %
1019 22-03-2020 01:50:18 1 C 35 %
1020 22-03-2020 02:00:18 1 C 35 %
1021 22-03-2020 02:10:18 0.1 C 38 %
1022 22-03-2020 02:20:17 0.3 C 38 %
1023 22-03-2020 02:30:18 0.5 C 37 %
1024 22-03-2020 02:40:18 0.5 C 37 %
1025 22-03-2020 02:50:18 0.4 C 37 %
Sensor: Nr:Datum:Temp:Feuchte:
Aussen-T/F 1026 22-03-2020 03:00:18 0.2 C 37 %
1027 22-03-2020 03:10:18 0.7 C 37 %
1028 22-03-2020 03:20:18 -0.4 C 38 %
1029 22-03-2020 03:30:18 -0.1 C 38 %
1030 22-03-2020 03:40:18 -0.4 C 39 %
1031 22-03-2020 03:50:17 -0.3 C 39 %
1032 22-03-2020 04:00:17 -0.2 C 38 %
1033 22-03-2020 04:10:17 0 C 37 %
1034 22-03-2020 04:20:17 -0.4 C 38 %
1035 22-03-2020 04:30:17 0.3 C 37 %
1036 22-03-2020 04:40:17 0.1 C 37 %
1037 22-03-2020 04:50:17 -0.2 C 38 %
1038 22-03-2020 05:00:18 0.1 C 37 %
1039 22-03-2020 05:10:18 -0.3 C 37 %
1040 22-03-2020 05:20:17 -0.4 C 37 %
1041 22-03-2020 05:30:18 -0.5 C 38 %
1042 22-03-2020 05:40:18 -0.7 C 38 %
1043 22-03-2020 05:50:17 -1 C 39 %
1044 22-03-2020 06:00:17 -1.1 C 39 %
1045 22-03-2020 06:10:17 -0.8 C 39 %
1046 22-03-2020 06:20:17 0.1 C 37 %
1047 22-03-2020 06:30:17 -0.3 C 37 %
1048 22-03-2020 06:40:17 -0.4 C 37 %
1049 22-03-2020 06:50:18 0 C 36 %
1050 22-03-2020 07:00:18 -0.3 C 37 %
Sensor: Nr:Datum:Temp:Feuchte:
Aussen-T/F 1051 22-03-2020 07:10:18 -0.2 C 37 %
1052 22-03-2020 07:20:18 -0.4 C 37 %
1053 22-03-2020 07:30:18 -0.1 C 36 %
1054 22-03-2020 07:40:18 -0.2 C 37 %
1055 22-03-2020 07:50:17 -0.1 C 36 %
1056 22-03-2020 08:00:18 -0.1 C 36 %
1057 22-03-2020 08:10:18 0.3 C 36 %
1058 22-03-2020 08:20:18 0.3 C 35 %
1059 22-03-2020 08:30:18 0.5 C 35 %
1060 22-03-2020 08:40:18 0.8 C 35 %
1061 22-03-2020 08:50:18 0.4 C 35 %
1062 22-03-2020 09:00:18 0.8 C 35 %
1063 22-03-2020 09:10:18 1.2 C 32 %
1064 22-03-2020 09:20:18 1.6 C 32 %
1065 22-03-2020 09:30:18 2.2 C 30 %
1066 22-03-2020 09:40:18 2.5 C 27 %
1067 22-03-2020 09:50:17 2.8 C 26 %
1068 22-03-2020 10:00:18 3.3 C 25 %
1069 22-03-2020 10:10:18 3.6 C 25 %
1070 22-03-2020 10:20:18 3.9 C 20 %
1071 22-03-2020 10:30:18 4.4 C 20 %
1072 22-03-2020 10:40:18 4.6 C 20 %
1073 22-03-2020 10:50:17 5.2 C 20 %
1074 22-03-2020 11:00:18 5.5 C 20 %
1075 22-03-2020 11:10:18 6.3 C 20 %
Sensor: Nr:Datum:Temp:Feuchte:
Aussen-T/F 1076 22-03-2020 11:20:17 6.5 C 20 %
1077 22-03-2020 11:30:18 6.7 C 20 %
1078 22-03-2020 11:40:18 6.7 C 20 %
1079 22-03-2020 11:50:17 6.5 C 20 %
1080 22-03-2020 12:00:18 7 C 20 %
1081 22-03-2020 12:10:18 7.4 C 20 %
1082 22-03-2020 12:20:18 7.3 C 20 %
1083 22-03-2020 12:30:17 6.9 C 20 %
1084 22-03-2020 12:40:17 8 C 20 %
1085 22-03-2020 12:50:18 8.5 C 20 %
1086 22-03-2020 13:00:18 10.1 C 20 %
1087 22-03-2020 13:10:18 11.1 C 20 %
1088 22-03-2020 13:20:17 11.9 C 20 %
1089 22-03-2020 13:30:18 11.6 C 20 %
1090 22-03-2020 13:40:18 10.9 C 20 %
1091 22-03-2020 13:50:18 10.3 C 20 %
1092 22-03-2020 14:00:17 9.6 C 20 %
1093 22-03-2020 14:10:17 10.2 C 20 %
1094 22-03-2020 14:20:17 12.2 C 20 %
1095 22-03-2020 14:30:17 12.6 C 20 %
1096 22-03-2020 14:40:17 14.4 C 20 %
1097 22-03-2020 14:50:17 14.4 C 20 %
1098 22-03-2020 15:00:18 15 C 20 %
1099 22-03-2020 15:10:18 14.4 C 20 %
1100 22-03-2020 15:20:17 14.7 C 20 %
Sensor: Nr:Datum:Temp:Feuchte:
Aussen-T/F 1101 22-03-2020 15:30:17 13.6 C 20 %
1102 22-03-2020 15:40:17 13.7 C 20 %
1103 22-03-2020 15:50:18 15.4 C 20 %
1104 22-03-2020 16:00:18 16.2 C 20 %
1105 22-03-2020 16:10:18 14.9 C 20 %
1106 22-03-2020 16:20:18 14.1 C 20 %
1107 22-03-2020 16:30:18 13.3 C 20 %
1108 22-03-2020 16:40:18 13.2 C 20 %
1109 22-03-2020 16:50:17 11.7 C 20 %
1110 22-03-2020 17:00:17 10.7 C 20 %
1111 22-03-2020 17:10:17 9.9 C 20 %
1112 22-03-2020 17:20:17 9.7 C 20 %
1113 22-03-2020 17:30:17 9.8 C 20 %
1114 22-03-2020 17:40:17 9.5 C 20 %
1115 22-03-2020 17:50:17 8.9 C 20 %
1116 22-03-2020 18:00:18 8.6 C 20 %
1117 22-03-2020 18:10:18 8.4 C 20 %
1118 22-03-2020 18:20:17 7.9 C 20 %
1119 22-03-2020 18:30:17 7.5 C 20 %
1120 22-03-2020 18:40:17 7 C 20 %
1121 22-03-2020 18:50:17 6.5 C 20 %
1122 22-03-2020 19:00:17 5.6 C 20 %
1123 22-03-2020 19:10:17 4.9 C 21 %
1124 22-03-2020 19:20:17 5.2 C 20 %
1125 22-03-2020 19:30:17 4.3 C 26 %
Sensor: Nr:Datum:Temp:Feuchte:
Aussen-T/F 1126 22-03-2020 19:40:17 3.8 C 27 %
1127 22-03-2020 19:50:18 3.7 C 28 %
1128 22-03-2020 20:00:18 3.6 C 28 %
1129 22-03-2020 20:10:18 3.6 C 27 %
1130 22-03-2020 20:20:17 3.6 C 26 %
1131 22-03-2020 20:30:17 3.2 C 26 %
1132 22-03-2020 20:40:17 3 C 26 %
1133 22-03-2020 20:50:17 2.5 C 30 %
1134 22-03-2020 21:00:17 2.9 C 26 %
1135 22-03-2020 21:10:17 2.7 C 27 %
1136 22-03-2020 21:20:17 2.3 C 30 %
1137 22-03-2020 21:30:17 2.2 C 29 %
1138 22-03-2020 21:40:17 1.8 C 30 %
1139 22-03-2020 21:50:18 1.5 C 31 %
1140 22-03-2020 22:00:18 2 C 30 %
1141 22-03-2020 22:10:18 2.5 C 26 %
1142 22-03-2020 22:20:17 1.8 C 30 %
1143 22-03-2020 22:30:17 1.5 C 29 %
1144 22-03-2020 22:40:17 1.3 C 31 %
1145 22-03-2020 22:50:17 1.4 C 30 %
1146 22-03-2020 23:00:17 0.7 C 33 %
1147 22-03-2020 23:10:17 1.1 C 30 %
1148 22-03-2020 23:20:17 0.8 C 32 %
1149 22-03-2020 23:30:18 0.3 C 33 %
1150 22-03-2020 23:40:18 0.3 C 34 %
Sensor: Nr:Datum:Temp:Feuchte:
Aussen-T/F 1151 22-03-2020 23:50:18 0.6 C 33 %
1152 23-03-2020 00:00:18 0.4 C 34 %
1153 23-03-2020 00:10:18 0 C 33 %
1154 23-03-2020 00:20:17 -0.2 C 33 %
1155 23-03-2020 00:30:17 -0.5 C 35 %
1156 23-03-2020 00:40:17 -0.7 C 36 %
1157 23-03-2020 00:50:18 -1.1 C 36 %
1158 23-03-2020 01:00:17 -0.6 C 35 %
1159 23-03-2020 01:10:17 -0.7 C 36 %
1160 23-03-2020 01:20:17 -0.9 C 35 %
1161 23-03-2020 01:30:18 -0.8 C 35 %
1162 23-03-2020 01:40:18 -1.1 C 35 %
1163 23-03-2020 01:50:18 -0.8 C 35 %
1164 23-03-2020 02:00:18 -1.1 C 35 %
1165 23-03-2020 02:10:18 -1.4 C 35 %
1166 23-03-2020 02:20:17 -1.2 C 35 %
1167 23-03-2020 02:30:17 -1.2 C 35 %
1168 23-03-2020 02:40:17 -1.2 C 35 %
1169 23-03-2020 02:50:17 -1.3 C 35 %
1170 23-03-2020 03:00:17 -1.6 C 35 %
1171 23-03-2020 03:10:18 -1.9 C 35 %
1172 23-03-2020 03:20:18 -1.6 C 35 %
1173 23-03-2020 03:30:18 -1.7 C 35 %
1174 23-03-2020 03:40:18 -1.9 C 35 %
1175 23-03-2020 03:50:18 -1.8 C 35 %
Sensor: Nr:Datum:Temp:Feuchte:
Aussen-T/F 1176 23-03-2020 04:00:18 -1.8 C 35 %
1177 23-03-2020 04:10:18 -2.1 C 35 %
1178 23-03-2020 04:20:17 -1.9 C 35 %
1179 23-03-2020 04:30:17 -2 C 35 %
1180 23-03-2020 04:40:17 -2.1 C 35 %
1181 23-03-2020 04:50:17 -2.7 C 36 %
1182 23-03-2020 05:00:18 -2.5 C 36 %
1183 23-03-2020 05:10:18 -2.4 C 36 %
1184 23-03-2020 05:20:17 -2.3 C 36 %
1185 23-03-2020 05:30:18 -2.4 C 35 %
1186 23-03-2020 05:40:18 -2.7 C 36 %
1187 23-03-2020 05:50:17 -2.7 C 36 %
1188 23-03-2020 06:00:18 -2.6 C 36 %
1189 23-03-2020 06:10:18 -2.9 C 36 %
1190 23-03-2020 06:20:17 -2.6 C 36 %
1191 23-03-2020 06:30:18 -2.8 C 36 %
1192 23-03-2020 06:40:18 -3.2 C 36 %
1193 23-03-2020 06:50:18 -3 C 36 %
1194 23-03-2020 07:00:18 -3 C 36 %
1195 23-03-2020 07:10:18 -3.1 C 36 %
1196 23-03-2020 07:20:18 -2.5 C 35 %
1197 23-03-2020 07:30:18 -2.7 C 36 %
1198 23-03-2020 07:40:18 -2.6 C 36 %
1199 23-03-2020 07:50:18 -1.9 C 34 %
1200 23-03-2020 08:00:18 -2 C 35 %
Sensor: Nr:Datum:Temp:Feuchte:
Aussen-T/F 1201 23-03-2020 08:10:18 -1.4 C 32 %
1202 23-03-2020 08:20:17 -1.1 C 31 %
1203 23-03-2020 08:30:18 -0.2 C 27 %
1204 23-03-2020 08:40:18 -0.2 C 26 %
1205 23-03-2020 08:50:18 -0.3 C 25 %
1206 23-03-2020 09:00:18 0 C 23 %
1207 23-03-2020 09:10:18 0.2 C 23 %
1208 23-03-2020 09:20:18 0.5 C 20 %
1209 23-03-2020 09:30:17 0.7 C 20 %
1210 23-03-2020 09:40:17 1.5 C 20 %
1211 23-03-2020 09:50:18 1.8 C 20 %
1212 23-03-2020 10:00:18 2.4 C 20 %
1213 23-03-2020 10:10:18 2.7 C 20 %
1214 23-03-2020 10:20:18 3 C 20 %
1215 23-03-2020 10:30:17 3.8 C 20 %
1216 23-03-2020 10:40:17 4.1 C 20 %
1217 23-03-2020 10:50:17 4.7 C 20 %
1218 23-03-2020 11:00:17 5.5 C 20 %
1219 23-03-2020 11:10:17 5.5 C 20 %
1220 23-03-2020 11:20:17 6 C 20 %
1221 23-03-2020 11:30:18 6.7 C 20 %
1222 23-03-2020 11:40:18 6.2 C 20 %
1223 23-03-2020 11:50:17 6.3 C 20 %
1224 23-03-2020 12:00:18 7 C 20 %
1225 23-03-2020 12:10:18 7.4 C 20 %
Sensor: Nr:Datum:Temp:Feuchte:
Aussen-T/F 1226 23-03-2020 12:20:18 7.8 C 20 %
1227 23-03-2020 12:30:18 7.5 C 20 %
1228 23-03-2020 12:40:18 8.1 C 20 %
1229 23-03-2020 12:50:18 8.7 C 20 %
1230 23-03-2020 13:00:17 10.4 C 20 %
1231 23-03-2020 13:10:17 10.7 C 20 %
1232 23-03-2020 13:20:17 11.9 C 20 %
1233 23-03-2020 13:30:17 11.4 C 20 %
1234 23-03-2020 13:40:17 10 C 20 %
1235 23-03-2020 13:50:17 9.8 C 20 %
1236 23-03-2020 14:00:18 9.2 C 20 %
1237 23-03-2020 14:10:18 10.5 C 20 %
1238 23-03-2020 14:20:18 12.9 C 20 %
1239 23-03-2020 14:30:18 13 C 20 %
1240 23-03-2020 14:40:18 14.2 C 20 %
1241 23-03-2020 14:50:18 14.3 C 20 %
1242 23-03-2020 15:00:18 14.3 C 20 %
1243 23-03-2020 15:10:18 14.4 C 20 %
1244 23-03-2020 15:20:17 14.7 C 20 %
1245 23-03-2020 15:30:17 13.5 C 20 %
1246 23-03-2020 15:40:17 14.4 C 20 %
1247 23-03-2020 15:50:17 14.1 C 20 %
1248 23-03-2020 16:00:17 13.8 C 20 %
1249 23-03-2020 16:10:17 14.7 C 20 %
1250 23-03-2020 16:20:17 15.3 C 20 %
Sensor: Nr:Datum:Temp:Feuchte:
Aussen-T/F 1251 23-03-2020 16:30:18 14.7 C 20 %
1252 23-03-2020 16:40:18 14.8 C 20 %
1253 23-03-2020 16:50:17 11.4 C 20 %
1254 23-03-2020 17:00:18 10.1 C 20 %
1255 23-03-2020 17:10:18 9.7 C 20 %
1256 23-03-2020 17:20:18 9.4 C 20 %
1257 23-03-2020 17:30:18 9 C 20 %
1258 23-03-2020 17:40:18 9 C 20 %
1259 23-03-2020 17:50:17 8.6 C 20 %
1260 23-03-2020 18:00:18 8.3 C 20 %
1261 23-03-2020 18:10:18 7.6 C 20 %
1262 23-03-2020 18:20:17 7.4 C 20 %
1263 23-03-2020 18:30:18 7 C 20 %
1264 23-03-2020 18:40:18 5.3 C 20 %
1265 23-03-2020 18:50:18 4.4 C 20 %
1266 23-03-2020 19:00:18 4.2 C 20 %
1267 23-03-2020 19:10:18 4.1 C 20 %
1268 23-03-2020 19:20:17 3.7 C 20 %
1269 23-03-2020 19:30:18 3.6 C 20 %
1270 23-03-2020 19:40:18 3.4 C 20 %
1271 23-03-2020 19:50:18 2.7 C 20 %
1272 23-03-2020 20:00:17 2.9 C 20 %
1273 23-03-2020 20:10:17 2.6 C 20 %
1274 23-03-2020 20:20:17 2.5 C 20 %
1275 23-03-2020 20:30:18 2.3 C 20 %
Sensor: Nr:Datum:Temp:Feuchte:
Aussen-T/F 1276 23-03-2020 20:40:18 2.4 C 20 %
1277 23-03-2020 20:50:18 2.3 C 20 %
1278 23-03-2020 21:00:18 2.1 C 20 %
1279 23-03-2020 21:10:18 0.9 C 27 %
1280 23-03-2020 21:20:17 1 C 26 %
1281 23-03-2020 21:30:18 1.1 C 28 %
1282 23-03-2020 21:40:18 0.7 C 29 %
1283 23-03-2020 21:50:18 0.2 C 30 %
1284 23-03-2020 22:00:17 -0.4 C 31 %
1285 23-03-2020 22:10:18 -0.9 C 35 %
1286 23-03-2020 22:20:18 -0.2 C 34 %
1287 23-03-2020 22:30:18 -0.9 C 35 %
1288 23-03-2020 22:40:18 -0.9 C 35 %
1289 23-03-2020 22:50:18 -1.3 C 35 %
1290 23-03-2020 23:00:18 -1.4 C 36 %
1291 23-03-2020 23:10:18 -1.6 C 36 %
1292 23-03-2020 23:20:17 -1.7 C 36 %
1293 23-03-2020 23:30:17 -1.7 C 37 %
1294 23-03-2020 23:40:17 -1.9 C 37 %
1295 23-03-2020 23:50:18 -1.8 C 37 %
1296 24-03-2020 00:00:18 -1.9 C 36 %
1297 24-03-2020 00:10:18 -2 C 36 %
1298 24-03-2020 00:20:17 -2.2 C 36 %
1299 24-03-2020 00:30:18 -2.4 C 37 %
1300 24-03-2020 00:40:18 -2.4 C 38 %
Sensor: Nr:Datum:Temp:Feuchte:
Aussen-T/F 1301 24-03-2020 00:50:18 -2.5 C 38 %
1302 24-03-2020 01:00:18 -2.3 C 37 %
1303 24-03-2020 01:10:18 -2.6 C 37 %
1304 24-03-2020 01:20:18 -2.7 C 38 %
1305 24-03-2020 01:30:18 -2.7 C 38 %
1306 24-03-2020 01:40:18 -3 C 38 %
1307 24-03-2020 01:50:18 -2.5 C 37 %
1308 24-03-2020 02:00:18 -2.6 C 38 %
1309 24-03-2020 02:10:18 -2.8 C 38 %
1310 24-03-2020 02:20:17 -3.1 C 38 %
1311 24-03-2020 02:30:17 -3.2 C 38 %
1312 24-03-2020 02:40:17 -3.3 C 38 %
1313 24-03-2020 02:50:17 -3.2 C 38 %
1314 24-03-2020 03:00:17 -3.4 C 38 %
1315 24-03-2020 03:10:17 -3.5 C 38 %
1316 24-03-2020 03:20:17 -3.6 C 39 %
1317 24-03-2020 03:30:17 -3.6 C 38 %
1318 24-03-2020 03:40:17 -3.7 C 38 %
1319 24-03-2020 03:50:17 -3.9 C 39 %
1320 24-03-2020 04:00:18 -3.7 C 39 %
1321 24-03-2020 04:10:18 -3.9 C 38 %
1322 24-03-2020 04:20:18 -4 C 38 %
1323 24-03-2020 04:30:18 -4 C 38 %
1324 24-03-2020 04:40:18 -4 C 38 %
1325 24-03-2020 04:50:17 -3.9 C 38 %
Sensor: Nr:Datum:Temp:Feuchte:
Aussen-T/F 1326 24-03-2020 05:00:17 -4.2 C 38 %
1327 24-03-2020 05:10:17 -4.3 C 39 %
1328 24-03-2020 05:20:17 -4.2 C 38 %
1329 24-03-2020 05:30:18 -4.3 C 38 %
1330 24-03-2020 05:40:18 -4.4 C 38 %
1331 24-03-2020 05:50:18 -4.6 C 39 %
1332 24-03-2020 06:00:17 -4.7 C 39 %
1333 24-03-2020 06:10:18 -4.7 C 38 %
1334 24-03-2020 06:20:17 -4.7 C 39 %
1335 24-03-2020 06:30:18 -4.7 C 38 %
1336 24-03-2020 06:40:18 -4.6 C 39 %
1337 24-03-2020 06:50:18 -4.4 C 38 %
1338 24-03-2020 07:00:18 -4.5 C 39 %
1339 24-03-2020 07:10:18 -4.4 C 39 %
1340 24-03-2020 07:20:18 -4.3 C 39 %
1341 24-03-2020 07:30:18 -4.2 C 39 %
1342 24-03-2020 07:40:18 -4 C 39 %
1343 24-03-2020 07:50:17 -3.8 C 39 %
1344 24-03-2020 08:00:17 -3.7 C 39 %
1345 24-03-2020 08:10:17 -3.5 C 38 %
1346 24-03-2020 08:20:17 -3.3 C 38 %
1347 24-03-2020 08:30:17 -2.5 C 38 %
1348 24-03-2020 08:40:17 -2.4 C 37 %
1349 24-03-2020 08:50:17 -2 C 37 %
1350 24-03-2020 09:00:17 -1.6 C 36 %
Sensor: Nr:Datum:Temp:Feuchte:
Aussen-T/F 1351 24-03-2020 09:10:17 -0.7 C 35 %
1352 24-03-2020 09:20:17 -0.2 C 34 %
1353 24-03-2020 09:30:17 0.4 C 30 %
1354 24-03-2020 09:40:17 1 C 27 %
1355 24-03-2020 09:50:18 1.7 C 23 %
1356 24-03-2020 10:00:18 3 C 20 %
1357 24-03-2020 10:10:18 3.3 C 20 %
1358 24-03-2020 10:20:17 3.9 C 20 %
1359 24-03-2020 10:30:17 4.3 C 20 %
1360 24-03-2020 10:40:17 4.7 C 20 %
1361 24-03-2020 10:50:17 5.7 C 20 %
1362 24-03-2020 11:00:18 5.7 C 20 %
1363 24-03-2020 11:10:18 6.4 C 20 %
1364 24-03-2020 11:20:17 6.9 C 20 %
1365 24-03-2020 11:30:17 7.9 C 20 %
1366 24-03-2020 11:40:17 7.2 C 20 %
1367 24-03-2020 11:50:18 6.8 C 20 %
1368 24-03-2020 12:00:18 7.8 C 20 %
1369 24-03-2020 12:10:18 8.6 C 20 %
1370 24-03-2020 12:20:17 8.2 C 20 %
1371 24-03-2020 12:30:17 8.2 C 20 %
1372 24-03-2020 12:40:17 9 C 20 %
1373 24-03-2020 12:50:17 9.2 C 20 %
1374 24-03-2020 13:00:18 10.4 C 20 %
1375 24-03-2020 13:10:18 11.7 C 20 %
Sensor: Nr:Datum:Temp:Feuchte:
Aussen-T/F 1376 24-03-2020 13:20:17 12.5 C 20 %
1377 24-03-2020 13:30:17 13 C 20 %
1378 24-03-2020 13:40:17 11.9 C 20 %
1379 24-03-2020 13:50:18 11 C 20 %
1380 24-03-2020 14:00:17 10.8 C 20 %
1381 24-03-2020 14:10:17 11.3 C 20 %
1382 24-03-2020 14:20:17 13.7 C 20 %
1383 24-03-2020 14:30:17 12.2 C 20 %
1384 24-03-2020 14:40:17 14.4 C 20 %
1385 24-03-2020 14:50:18 13.4 C 20 %
1386 24-03-2020 15:00:18 13.5 C 20 %
1387 24-03-2020 15:10:18 14.1 C 20 %
1388 24-03-2020 15:20:18 15.3 C 20 %
1389 24-03-2020 15:30:18 14.1 C 20 %
1390 24-03-2020 15:40:18 15.4 C 20 %
1391 24-03-2020 15:50:18 14.9 C 20 %
1392 24-03-2020 16:00:18 14.8 C 20 %
1393 24-03-2020 16:10:18 14.8 C 20 %
1394 24-03-2020 16:20:18 14.1 C 20 %
1395 24-03-2020 16:30:18 13.6 C 20 %
1396 24-03-2020 16:40:18 14.3 C 20 %
1397 24-03-2020 16:50:18 11.4 C 20 %
1398 24-03-2020 17:00:18 10.8 C 20 %
1399 24-03-2020 17:10:18 10.4 C 20 %
1400 24-03-2020 17:20:18 10.1 C 20 %
Sensor: Nr:Datum:Temp:Feuchte:
Aussen-T/F 1401 24-03-2020 17:30:18 9.9 C 20 %
1402 24-03-2020 17:40:18 9.6 C 20 %
1403 24-03-2020 17:50:17 9.3 C 20 %
1404 24-03-2020 18:00:17 9 C 20 %
1405 24-03-2020 18:10:17 8.6 C 20 %
1406 24-03-2020 18:20:17 8.4 C 20 %
1407 24-03-2020 18:30:17 7.6 C 20 %
1408 24-03-2020 18:40:18 6.4 C 20 %
1409 24-03-2020 18:50:17 5.4 C 20 %
1410 24-03-2020 19:00:18 4.9 C 20 %
1411 24-03-2020 19:10:18 4.6 C 20 %
1412 24-03-2020 19:20:18 4.5 C 20 %
1413 24-03-2020 19:30:18 4.1 C 20 %
1414 24-03-2020 19:40:18 3.9 C 20 %
1415 24-03-2020 19:50:17 3.6 C 20 %
1416 24-03-2020 20:00:18 3.6 C 20 %
1417 24-03-2020 20:10:18 3.5 C 20 %
1418 24-03-2020 20:20:17 3.4 C 20 %
1419 24-03-2020 20:30:18 3.4 C 20 %
1420 24-03-2020 20:40:18 2.9 C 20 %
1421 24-03-2020 20:50:18 2.7 C 20 %
1422 24-03-2020 21:00:18 2.7 C 20 %
1423 24-03-2020 21:10:18 2.6 C 20 %
1424 24-03-2020 21:20:17 2.3 C 20 %
1425 24-03-2020 21:30:17 2.3 C 20 %
Sensor: Nr:Datum:Temp:Feuchte:
Aussen-T/F 1426 24-03-2020 21:40:17 2.2 C 20 %
1427 24-03-2020 21:50:17 2.2 C 20 %
1428 24-03-2020 22:00:18 1.7 C 20 %
1429 24-03-2020 22:10:18 1.6 C 20 %
1430 24-03-2020 22:20:17 1.6 C 20 %
1431 24-03-2020 22:30:18 0.3 C 25 %
1432 24-03-2020 22:40:18 -0.2 C 30 %
1433 24-03-2020 22:50:17 -0.7 C 30 %
1434 24-03-2020 23:00:18 -1.2 C 32 %
1435 24-03-2020 23:10:18 -1.1 C 31 %
1436 24-03-2020 23:20:17 -1.4 C 31 %
1437 24-03-2020 23:30:18 -1.7 C 30 %
1438 24-03-2020 23:40:18 -0.9 C 30 %
1439 24-03-2020 23:50:18 -1.2 C 30 %
1440 25-03-2020 00:00:17 -1.6 C 30 %
1441 25-03-2020 00:10:17 -1.6 C 31 %
1442 25-03-2020 00:20:17 -1.8 C 32 %
1443 25-03-2020 00:30:17 -1.8 C 30 %
1444 25-03-2020 00:40:18 -1.9 C 31 %
1445 25-03-2020 00:50:17 -1.8 C 32 %
1446 25-03-2020 01:00:17 -1.6 C 32 %
1447 25-03-2020 01:10:18 -1.3 C 31 %
1448 25-03-2020 01:20:17 -1.1 C 30 %
1449 25-03-2020 01:30:18 -1.1 C 29 %
1450 25-03-2020 01:40:18 -0.9 C 28 %
Sensor: Nr:Datum:Temp:Feuchte:
Aussen-T/F 1451 25-03-2020 01:50:17 -1.1 C 28 %
1452 25-03-2020 02:00:17 -1.1 C 28 %
1453 25-03-2020 02:10:18 -1.3 C 27 %
1454 25-03-2020 02:20:18 -1.4 C 29 %
1455 25-03-2020 02:30:18 -1.6 C 27 %
1456 25-03-2020 02:40:18 -1.5 C 27 %
1457 25-03-2020 02:50:18 -1.4 C 27 %
1458 25-03-2020 03:00:18 -1.4 C 26 %
1459 25-03-2020 03:10:18 -1.4 C 26 %
1460 25-03-2020 03:20:17 -1.5 C 27 %
1461 25-03-2020 03:30:17 -2.3 C 30 %
1462 25-03-2020 03:40:17 -2.6 C 31 %
1463 25-03-2020 03:50:17 -2.8 C 32 %
1464 25-03-2020 04:00:17 -3.1 C 33 %
1465 25-03-2020 04:10:17 -3.2 C 34 %
1466 25-03-2020 04:20:17 -3.3 C 34 %
1467 25-03-2020 04:30:18 -3.3 C 34 %
1468 25-03-2020 04:40:18 -3 C 33 %
1469 25-03-2020 04:50:17 -3.2 C 33 %
1470 25-03-2020 05:00:18 -3 C 32 %
1471 25-03-2020 05:10:18 -2.6 C 32 %
1472 25-03-2020 05:20:17 -2.3 C 30 %
1473 25-03-2020 05:30:17 -2.5 C 30 %
1474 25-03-2020 05:40:17 -3.4 C 33 %
1475 25-03-2020 05:50:17 -4 C 35 %
Sensor: Nr:Datum:Temp:Feuchte:
Aussen-T/F 1476 25-03-2020 06:00:17 -4.4 C 36 %
1477 25-03-2020 06:10:17 -4.2 C 36 %
1478 25-03-2020 06:20:17 -4.2 C 36 %
1479 25-03-2020 06:30:17 -4.4 C 36 %
1480 25-03-2020 06:40:17 -4.3 C 36 %
1481 25-03-2020 06:50:17 -4.3 C 36 %
1482 25-03-2020 07:00:17 -4.3 C 37 %
1483 25-03-2020 07:10:17 -4.3 C 37 %
1484 25-03-2020 07:20:17 -4.1 C 37 %
1485 25-03-2020 07:30:17 -4 C 37 %
1486 25-03-2020 07:40:17 -3.8 C 37 %
1487 25-03-2020 07:50:17 -3.2 C 36 %
1488 25-03-2020 08:00:17 -2.6 C 35 %
1489 25-03-2020 08:10:17 -2 C 32 %
1490 25-03-2020 08:20:17 -2.7 C 35 %
1491 25-03-2020 08:30:17 -2 C 34 %
1492 25-03-2020 08:40:17 -1.9 C 34 %
1493 25-03-2020 08:50:17 -1.6 C 34 %
1494 25-03-2020 09:00:17 -1.5 C 34 %
1495 25-03-2020 09:10:17 -1.3 C 35 %
1496 25-03-2020 09:20:17 -1 C 35 %
1497 25-03-2020 09:30:17 -0.2 C 32 %
1498 25-03-2020 09:40:18 0.7 C 29 %
1499 25-03-2020 09:50:17 2.1 C 20 %
1500 25-03-2020 10:00:18 2.8 C 20 %
Sensor: Nr:Datum:Temp:Feuchte:
Aussen-T/F 1501 25-03-2020 10:10:18 3.2 C 20 %
1502 25-03-2020 10:20:17 3.6 C 20 %
1503 25-03-2020 10:30:17 4.1 C 20 %
1504 25-03-2020 10:40:17 4.7 C 20 %
1505 25-03-2020 10:50:17 5.1 C 20 %
1506 25-03-2020 11:00:17 5.3 C 20 %
1507 25-03-2020 11:10:17 5.7 C 20 %
1508 25-03-2020 11:20:17 7.2 C 20 %
1509 25-03-2020 11:30:18 7.7 C 20 %
1510 25-03-2020 11:40:18 7.3 C 20 %
1511 25-03-2020 11:50:17 6.8 C 20 %
1512 25-03-2020 12:00:17 7.8 C 20 %
1513 25-03-2020 12:10:17 8.3 C 20 %
1514 25-03-2020 12:20:17 8.4 C 20 %
1515 25-03-2020 12:30:17 8.4 C 20 %
1516 25-03-2020 12:40:17 8.6 C 20 %
1517 25-03-2020 12:50:17 10.3 C 20 %
1518 25-03-2020 13:00:17 11.2 C 20 %
1519 25-03-2020 13:10:17 12.2 C 20 %
1520 25-03-2020 13:20:18 13.8 C 20 %
1521 25-03-2020 13:30:18 14.5 C 20 %
1522 25-03-2020 13:40:18 12.4 C 20 %
1523 25-03-2020 13:50:18 12 C 20 %
1524 25-03-2020 14:00:18 11.3 C 20 %
1525 25-03-2020 14:10:18 11.1 C 20 %
Sensor: Nr:Datum:Temp:Feuchte:
Aussen-T/F 1526 25-03-2020 14:20:17 13.2 C 20 %
1527 25-03-2020 14:30:17 13.5 C 20 %
1528 25-03-2020 14:40:17 12.7 C 20 %
1529 25-03-2020 14:50:17 13.5 C 20 %
1530 25-03-2020 15:00:17 13.8 C 20 %
1531 25-03-2020 15:10:17 14.1 C 20 %
1532 25-03-2020 15:20:18 14.9 C 20 %
1533 25-03-2020 15:30:18 14.4 C 20 %
1534 25-03-2020 15:40:18 14.4 C 20 %
1535 25-03-2020 15:50:17 15 C 20 %
1536 25-03-2020 16:00:18 15.3 C 20 %
1537 25-03-2020 16:10:18 14.5 C 20 %
1538 25-03-2020 16:20:17 15.7 C 20 %
1539 25-03-2020 16:30:17 13.8 C 20 %
1540 25-03-2020 16:40:17 12.9 C 20 %
1541 25-03-2020 16:50:18 12.2 C 20 %
1542 25-03-2020 17:00:18 11.9 C 20 %
1543 25-03-2020 17:10:18 11.5 C 20 %
1544 25-03-2020 17:20:17 11.1 C 20 %
1545 25-03-2020 17:30:17 11 C 20 %
1546 25-03-2020 17:40:17 10.7 C 20 %
1547 25-03-2020 17:50:17 10.5 C 20 %
1548 25-03-2020 18:00:18 10.5 C 20 %
1549 25-03-2020 18:10:18 10.1 C 20 %
1550 25-03-2020 18:20:17 9.6 C 20 %
Sensor: Nr:Datum:Temp:Feuchte:
Aussen-T/F 1551 25-03-2020 18:30:18 8.8 C 20 %
1552 25-03-2020 18:40:18 7.7 C 20 %
1553 25-03-2020 18:50:18 7 C 20 %
1554 25-03-2020 19:00:18 6.3 C 20 %
1555 25-03-2020 19:10:18 6.1 C 20 %
1556 25-03-2020 19:20:17 5.4 C 20 %
1557 25-03-2020 19:30:18 5.8 C 20 %
1558 25-03-2020 19:40:18 5.1 C 20 %
1559 25-03-2020 19:50:17 4.6 C 20 %
1560 25-03-2020 20:00:17 4.5 C 20 %
1561 25-03-2020 20:10:17 4.1 C 20 %
1562 25-03-2020 20:20:17 4 C 20 %
1563 25-03-2020 20:30:18 4.7 C 20 %
1564 25-03-2020 20:40:18 4.3 C 20 %
1565 25-03-2020 20:50:17 3.8 C 20 %
1566 25-03-2020 21:00:18 4.6 C 20 %
1567 25-03-2020 21:10:18 4.6 C 20 %
1568 25-03-2020 21:20:17 4.3 C 20 %
1569 25-03-2020 21:30:17 4.3 C 20 %
1570 25-03-2020 21:40:17 4 C 20 %
1571 25-03-2020 21:50:17 3.6 C 20 %
1572 25-03-2020 22:00:17 2.8 C 20 %
1573 25-03-2020 22:10:17 2.6 C 20 %
1574 25-03-2020 22:20:17 2.6 C 20 %
1575 25-03-2020 22:30:18 2.1 C 20 %
Sensor: Nr:Datum:Temp:Feuchte:
Aussen-T/F 1576 25-03-2020 22:40:18 2.3 C 20 %
1577 25-03-2020 22:50:18 2.1 C 20 %
1578 25-03-2020 23:00:18 1.7 C 20 %
1579 25-03-2020 23:10:18 1.7 C 23 %
1580 25-03-2020 23:20:17 1.6 C 23 %
1581 25-03-2020 23:30:18 1.5 C 21 %
1582 25-03-2020 23:40:18 1.8 C 20 %
1583 25-03-2020 23:50:18 1.8 C 20 %
1584 26-03-2020 00:00:18 1.4 C 21 %
1585 26-03-2020 00:10:18 1.2 C 21 %
1586 26-03-2020 00:20:18 1.3 C 21 %
1587 26-03-2020 00:30:18 0.9 C 23 %
1588 26-03-2020 00:40:18 0.9 C 25 %
1589 26-03-2020 00:50:18 1 C 23 %
1590 26-03-2020 01:00:18 0.7 C 25 %
1591 26-03-2020 01:10:18 0.4 C 25 %
1592 26-03-2020 01:20:17 0.5 C 25 %
1593 26-03-2020 01:30:17 0.7 C 25 %
1594 26-03-2020 01:40:17 0.7 C 23 %
1595 26-03-2020 01:50:17 0.7 C 21 %
1596 26-03-2020 02:00:17 0.6 C 23 %
1597 26-03-2020 02:10:17 0.7 C 21 %
1598 26-03-2020 02:20:17 0.7 C 21 %
1599 26-03-2020 02:30:17 0.6 C 21 %
1600 26-03-2020 02:40:18 0.4 C 21 %
Sensor: Nr:Datum:Temp:Feuchte:
Aussen-T/F 1601 26-03-2020 02:50:17 0.3 C 23 %
1602 26-03-2020 03:00:17 0 C 23 %
1603 26-03-2020 03:10:18 0.1 C 23 %
1604 26-03-2020 03:20:18 0 C 23 %
1605 26-03-2020 03:30:18 -0.3 C 25 %
1606 26-03-2020 03:40:18 -0.3 C 27 %
1607 26-03-2020 03:50:17 -0.4 C 27 %
1608 26-03-2020 04:00:17 -0.1 C 26 %
1609 26-03-2020 04:10:17 -0.3 C 25 %
1610 26-03-2020 04:20:17 -0.3 C 26 %
1611 26-03-2020 04:30:18 -0.4 C 26 %
1612 26-03-2020 04:40:18 -0.4 C 26 %
1613 26-03-2020 04:50:17 -0.5 C 26 %
1614 26-03-2020 05:00:18 -0.5 C 27 %
1615 26-03-2020 05:10:18 -0.6 C 27 %
1616 26-03-2020 05:20:17 -0.6 C 28 %
1617 26-03-2020 05:30:17 -0.7 C 28 %
1618 26-03-2020 05:40:18 -0.5 C 28 %
1619 26-03-2020 05:50:17 -0.6 C 28 %
1620 26-03-2020 06:00:18 -0.7 C 29 %
1621 26-03-2020 06:10:18 -0.8 C 28 %
1622 26-03-2020 06:20:18 -0.9 C 28 %
1623 26-03-2020 06:30:18 -1 C 28 %
1624 26-03-2020 06:40:18 -0.9 C 30 %
1625 26-03-2020 06:50:18 -1.1 C 30 %
Sensor: Nr:Datum:Temp:Feuchte:
Aussen-T/F 1626 26-03-2020 07:00:18 -0.8 C 30 %
1627 26-03-2020 07:10:18 -1.1 C 30 %
1628 26-03-2020 07:20:18 -0.6 C 30 %
1629 26-03-2020 07:30:18 -0.4 C 30 %
1630 26-03-2020 07:40:18 0.2 C 27 %
1631 26-03-2020 07:50:17 0.5 C 25 %
1632 26-03-2020 08:00:18 0.3 C 28 %
1633 26-03-2020 08:10:18 0.4 C 28 %
1634 26-03-2020 08:20:18 0.7 C 26 %
1635 26-03-2020 08:30:18 1.4 C 21 %
1636 26-03-2020 08:40:18 1.7 C 21 %
1637 26-03-2020 08:50:17 2.2 C 20 %
1638 26-03-2020 09:00:18 2.3 C 20 %
1639 26-03-2020 09:10:18 2.3 C 20 %
1640 26-03-2020 09:20:18 2.7 C 20 %
1641 26-03-2020 09:30:18 3.2 C 20 %
1642 26-03-2020 09:40:18 3.5 C 20 %
1643 26-03-2020 09:50:18 4.1 C 20 %
1644 26-03-2020 10:00:18 4.4 C 20 %
1645 26-03-2020 10:10:18 4.9 C 20 %
1646 26-03-2020 10:20:18 5 C 20 %
1647 26-03-2020 10:30:18 5.4 C 20 %
1648 26-03-2020 10:40:18 5.9 C 20 %
1649 26-03-2020 10:50:17 6 C 20 %
1650 26-03-2020 11:00:18 6.6 C 20 %
Sensor: Nr:Datum:Temp:Feuchte:
Aussen-T/F 1651 26-03-2020 11:10:18 6.9 C 20 %
1652 26-03-2020 11:20:18 7.3 C 20 %
1653 26-03-2020 11:30:18 8.5 C 20 %
1654 26-03-2020 11:40:18 8.3 C 20 %
1655 26-03-2020 11:50:18 7.3 C 20 %
1656 26-03-2020 12:00:18 8 C 20 %
1657 26-03-2020 12:10:18 9.1 C 20 %
1658 26-03-2020 12:20:17 9.6 C 20 %
1659 26-03-2020 12:30:17 9.6 C 20 %
1660 26-03-2020 12:40:17 9.6 C 20 %
1661 26-03-2020 12:50:17 9.7 C 20 %
1662 26-03-2020 13:00:17 10.4 C 20 %
1663 26-03-2020 13:10:17 10.8 C 20 %
1664 26-03-2020 13:20:18 11.5 C 20 %
1665 26-03-2020 13:30:18 11.5 C 20 %
1666 26-03-2020 13:40:18 12.1 C 20 %
1667 26-03-2020 13:50:18 13 C 20 %
1668 26-03-2020 14:00:18 12 C 20 %
1669 26-03-2020 14:10:18 12.2 C 20 %
1670 26-03-2020 14:20:18 11.9 C 20 %
1671 26-03-2020 14:30:18 14.3 C 20 %
1672 26-03-2020 14:40:18 14.2 C 20 %
1673 26-03-2020 14:50:17 14 C 20 %
1674 26-03-2020 15:00:17 15.3 C 20 %
1675 26-03-2020 15:10:18 14.2 C 20 %
Sensor: Nr:Datum:Temp:Feuchte:
Aussen-T/F 1676 26-03-2020 15:20:18 14 C 20 %
1677 26-03-2020 15:30:18 15.6 C 20 %
1678 26-03-2020 15:40:18 15.6 C 20 %
1679 26-03-2020 15:50:18 16.5 C 20 %
1680 26-03-2020 16:00:18 15.6 C 20 %
1681 26-03-2020 16:10:18 15.3 C 20 %
1682 26-03-2020 16:20:18 12.5 C 20 %
1683 26-03-2020 16:30:18 12.3 C 20 %
1684 26-03-2020 16:40:18 13.9 C 20 %
1685 26-03-2020 16:50:18 12.8 C 20 %
1686 26-03-2020 17:00:18 11.4 C 20 %
1687 26-03-2020 17:10:18 11 C 20 %
1688 26-03-2020 17:20:17 10.9 C 20 %
1689 26-03-2020 17:30:17 11 C 20 %
1690 26-03-2020 17:40:17 11.1 C 20 %
1691 26-03-2020 17:50:17 10.7 C 20 %
1692 26-03-2020 18:00:17 10.5 C 20 %
1693 26-03-2020 18:10:17 10.3 C 20 %
1694 26-03-2020 18:20:18 10.1 C 20 %
1695 26-03-2020 18:30:18 9.8 C 20 %
1696 26-03-2020 18:40:18 9.4 C 20 %
1697 26-03-2020 18:50:17 8.6 C 20 %
1698 26-03-2020 19:00:17 8 C 20 %
1699 26-03-2020 19:10:17 7.4 C 20 %
1700 26-03-2020 19:20:17 6.9 C 21 %
Sensor: Nr:Datum:Temp:Feuchte:
Aussen-T/F 1701 26-03-2020 19:30:17 6.7 C 21 %
1702 26-03-2020 19:40:17 6.4 C 21 %
1703 26-03-2020 19:50:17 6.5 C 21 %
1704 26-03-2020 20:00:17 6.2 C 23 %
1705 26-03-2020 20:10:18 6 C 23 %
1706 26-03-2020 20:20:18 5.7 C 25 %
1707 26-03-2020 20:30:17 5.4 C 26 %
1708 26-03-2020 20:40:17 4.9 C 28 %
1709 26-03-2020 20:50:17 4.9 C 28 %
1710 26-03-2020 21:00:17 4.7 C 29 %
1711 26-03-2020 21:10:17 4.5 C 29 %
1712 26-03-2020 21:20:17 4.5 C 30 %
1713 26-03-2020 21:30:18 4.1 C 30 %
1714 26-03-2020 21:40:18 4.6 C 30 %
1715 26-03-2020 21:50:18 4.6 C 30 %
1716 26-03-2020 22:00:18 4.6 C 30 %
1717 26-03-2020 22:10:18 4.6 C 30 %
1718 26-03-2020 22:20:17 4.5 C 30 %
1719 26-03-2020 22:30:17 4.5 C 30 %
1720 26-03-2020 22:40:17 4.5 C 30 %
1721 26-03-2020 22:50:17 4.4 C 30 %
1722 26-03-2020 23:00:18 4.5 C 30 %
1723 26-03-2020 23:10:18 4.2 C 30 %
1724 26-03-2020 23:20:17 4.2 C 30 %
1725 26-03-2020 23:30:18 3.9 C 31 %
Sensor: Nr:Datum:Temp:Feuchte:
Aussen-T/F 1726 26-03-2020 23:40:18 4 C 30 %
1727 26-03-2020 23:50:18 3.9 C 31 %
1728 27-03-2020 00:00:18 4 C 30 %
1729 27-03-2020 00:10:18 3.9 C 31 %
1730 27-03-2020 00:20:17 4 C 30 %
1731 27-03-2020 00:30:17 4 C 30 %
1732 27-03-2020 00:40:17 3.7 C 32 %
1733 27-03-2020 00:50:18 3.6 C 32 %
1734 27-03-2020 01:00:18 2.7 C 35 %
1735 27-03-2020 01:10:18 2.5 C 36 %
1736 27-03-2020 01:20:17 3 C 35 %
1737 27-03-2020 01:30:18 3.1 C 35 %
1738 27-03-2020 01:40:18 2.7 C 36 %
1739 27-03-2020 01:50:18 3 C 35 %
1740 27-03-2020 02:00:18 2.9 C 35 %
1741 27-03-2020 02:10:18 2.8 C 35 %
1742 27-03-2020 02:20:17 2.7 C 35 %
1743 27-03-2020 02:30:17 2.5 C 36 %
1744 27-03-2020 02:40:17 2.5 C 36 %
1745 27-03-2020 02:50:17 2.6 C 35 %
1746 27-03-2020 03:00:17 2.6 C 35 %
1747 27-03-2020 03:10:17 2.2 C 36 %
1748 27-03-2020 03:20:17 2.5 C 35 %
1749 27-03-2020 03:30:17 2.4 C 35 %
1750 27-03-2020 03:40:17 2.6 C 35 %
Sensor: Nr:Datum:Temp:Feuchte:
Aussen-T/F 1751 27-03-2020 03:50:17 2.4 C 36 %
1752 27-03-2020 04:00:18 2.4 C 35 %
1753 27-03-2020 04:10:18 2.4 C 35 %
1754 27-03-2020 04:20:18 1.4 C 38 %
1755 27-03-2020 04:30:18 1.3 C 38 %
1756 27-03-2020 04:40:18 1.6 C 38 %
1757 27-03-2020 04:50:17 1.8 C 37 %
1758 27-03-2020 05:00:18 1.5 C 38 %
1759 27-03-2020 05:10:18 0.7 C 40 %
1760 27-03-2020 05:20:18 0.4 C 40 %
1761 27-03-2020 05:30:18 0 C 41 %
1762 27-03-2020 05:40:18 0 C 42 %
1763 27-03-2020 05:50:18 -0.1 C 42 %
1764 27-03-2020 06:00:18 -0.5 C 42 %
1765 27-03-2020 06:10:18 -0.6 C 43 %
1766 27-03-2020 06:20:18 -0.4 C 43 %
1767 27-03-2020 06:30:18 -0.4 C 43 %
1768 27-03-2020 06:40:18 -0.3 C 43 %
1769 27-03-2020 06:50:17 -0.3 C 43 %
1770 27-03-2020 07:00:18 -0.2 C 43 %
1771 27-03-2020 07:10:18 -0.1 C 43 %
1772 27-03-2020 07:20:18 0.1 C 43 %
1773 27-03-2020 07:30:18 0.3 C 43 %
1774 27-03-2020 07:40:18 0.8 C 43 %
1775 27-03-2020 07:50:17 1.2 C 41 %
Sensor: Nr:Datum:Temp:Feuchte:
Aussen-T/F 1776 27-03-2020 08:00:17 1.1 C 41 %
1777 27-03-2020 08:10:18 1.9 C 40 %
1778 27-03-2020 08:20:18 1.7 C 40 %
1779 27-03-2020 08:30:18 1.6 C 41 %
1780 27-03-2020 08:40:18 1.9 C 41 %
1781 27-03-2020 08:50:17 2.6 C 39 %
1782 27-03-2020 09:00:18 3 C 38 %
1783 27-03-2020 09:10:18 3.3 C 37 %
1784 27-03-2020 09:20:17 3.6 C 37 %
1785 27-03-2020 09:30:18 4.1 C 36 %
1786 27-03-2020 09:40:18 4.5 C 35 %
1787 27-03-2020 09:50:18 5.3 C 35 %
1788 27-03-2020 10:00:18 5.8 C 34 %
1789 27-03-2020 10:10:18 6.5 C 32 %
1790 27-03-2020 10:20:17 7.6 C 30 %
1791 27-03-2020 10:30:17 8.1 C 28 %
1792 27-03-2020 10:40:17 9.1 C 25 %
1793 27-03-2020 10:50:17 9.3 C 25 %
1794 27-03-2020 11:00:17 10.2 C 20 %
1795 27-03-2020 11:10:17 11 C 20 %
1796 27-03-2020 11:20:17 12.4 C 20 %
1797 27-03-2020 11:30:17 14.5 C 20 %
1798 27-03-2020 11:40:17 14.2 C 20 %
1799 27-03-2020 11:50:17 12.5 C 20 %
1800 27-03-2020 12:00:17 13.4 C 20 %
Sensor: Nr:Datum:Temp:Feuchte:
Aussen-T/F 1801 27-03-2020 12:10:17 13.7 C 20 %
1802 27-03-2020 12:20:17 14.4 C 20 %
1803 27-03-2020 12:30:17 14.1 C 20 %
1804 27-03-2020 12:40:18 14.2 C 20 %
1805 27-03-2020 12:50:18 14.6 C 20 %
1806 27-03-2020 13:00:18 16.6 C 20 %
1807 27-03-2020 13:10:18 15.8 C 20 %
1808 27-03-2020 13:20:17 17.6 C 20 %
1809 27-03-2020 13:30:18 18.8 C 20 %
1810 27-03-2020 13:40:18 16.8 C 20 %
1811 27-03-2020 13:50:18 17.3 C 20 %
1812 27-03-2020 14:00:18 16.9 C 20 %
1813 27-03-2020 14:10:18 17.6 C 20 %
1814 27-03-2020 14:20:18 17.7 C 20 %
1815 27-03-2020 14:30:17 20.4 C 20 %
1816 27-03-2020 14:40:17 18.1 C 20 %
1817 27-03-2020 14:50:17 18.4 C 20 %
1818 27-03-2020 15:00:17 18.5 C 20 %
1819 27-03-2020 15:10:17 18.7 C 20 %
1820 27-03-2020 15:20:17 18.9 C 20 %
1821 27-03-2020 15:30:18 19.4 C 20 %
1822 27-03-2020 15:40:18 18.3 C 20 %
1823 27-03-2020 15:50:17 19.5 C 20 %
1824 27-03-2020 16:00:17 18.5 C 20 %
1825 27-03-2020 16:10:17 18.2 C 20 %
Sensor: Nr:Datum:Temp:Feuchte:
Aussen-T/F 1826 27-03-2020 16:20:17 19.2 C 20 %
1827 27-03-2020 16:30:17 18.3 C 20 %
1828 27-03-2020 16:40:17 18 C 20 %
1829 27-03-2020 16:50:17 17 C 20 %
1830 27-03-2020 17:00:18 16.4 C 20 %
1831 27-03-2020 17:10:18 16.3 C 20 %
1832 27-03-2020 17:20:18 16.1 C 20 %
1833 27-03-2020 17:30:18 16 C 20 %
1834 27-03-2020 17:40:18 15.8 C 20 %
1835 27-03-2020 17:50:18 15.7 C 20 %
1836 27-03-2020 18:00:17 15.4 C 20 %
1837 27-03-2020 18:10:17 15 C 20 %
1838 27-03-2020 18:20:17 14.1 C 20 %
1839 27-03-2020 18:30:18 13.5 C 20 %
1840 27-03-2020 18:40:18 12.9 C 20 %
1841 27-03-2020 18:50:18 12.3 C 20 %
1842 27-03-2020 19:00:18 11.8 C 20 %
1843 27-03-2020 19:10:18 11.5 C 20 %
1844 27-03-2020 19:20:17 11.4 C 20 %
1845 27-03-2020 19:30:17 10.7 C 20 %
1846 27-03-2020 19:40:17 10.7 C 21 %
1847 27-03-2020 19:50:17 10.4 C 23 %
1848 27-03-2020 20:00:18 10.4 C 22 %
1849 27-03-2020 20:10:18 9.2 C 26 %
1850 27-03-2020 20:20:17 8.9 C 28 %
Sensor: Nr:Datum:Temp:Feuchte:
Aussen-T/F 1851 27-03-2020 20:30:17 8.4 C 30 %
1852 27-03-2020 20:40:17 8.1 C 30 %
1853 27-03-2020 20:50:18 7.8 C 31 %
1854 27-03-2020 21:00:17 7.4 C 31 %
1855 27-03-2020 21:10:17 7.3 C 32 %
1856 27-03-2020 21:20:17 7.1 C 32 %
1857 27-03-2020 21:30:17 7 C 32 %
1858 27-03-2020 21:40:17 6.6 C 33 %
1859 27-03-2020 21:50:17 6.6 C 34 %
1860 27-03-2020 22:00:17 6.4 C 34 %
1861 27-03-2020 22:10:17 6.3 C 34 %
1862 27-03-2020 22:20:17 6 C 35 %
1863 27-03-2020 22:30:18 5.8 C 35 %
1864 27-03-2020 22:40:18 5.6 C 35 %
1865 27-03-2020 22:50:18 5.5 C 36 %
1866 27-03-2020 23:00:18 5.6 C 36 %
1867 27-03-2020 23:10:18 5.6 C 36 %
1868 27-03-2020 23:20:17 5.3 C 36 %
1869 27-03-2020 23:30:17 5.2 C 36 %
1870 27-03-2020 23:40:17 5.1 C 36 %
1871 27-03-2020 23:50:17 4.8 C 37 %
1872 28-03-2020 00:00:17 4.8 C 38 %
1873 28-03-2020 00:10:17 4.8 C 39 %
1874 28-03-2020 00:20:17 5 C 37 %
1875 28-03-2020 00:30:18 4.9 C 38 %
Sensor: Nr:Datum:Temp:Feuchte:
Aussen-T/F 1876 28-03-2020 00:40:18 4.7 C 38 %
1877 28-03-2020 00:50:17 4.7 C 38 %
1878 28-03-2020 01:00:17 4.6 C 38 %
1879 28-03-2020 01:10:17 4.4 C 39 %
1880 28-03-2020 01:20:17 4.3 C 39 %
1881 28-03-2020 01:30:17 4.1 C 39 %
1882 28-03-2020 01:40:18 3.9 C 40 %
1883 28-03-2020 01:50:17 3.7 C 41 %
1884 28-03-2020 02:00:18 3.6 C 41 %
1885 28-03-2020 02:10:18 3.3 C 41 %
1886 28-03-2020 02:20:18 3.1 C 41 %
1887 28-03-2020 02:30:17 3.7 C 42 %
1888 28-03-2020 02:40:17 3.7 C 41 %
1889 28-03-2020 02:50:18 3.4 C 41 %
1890 28-03-2020 03:00:18 3.1 C 41 %
1891 28-03-2020 03:10:18 2.9 C 42 %
1892 28-03-2020 03:20:17 2.8 C 43 %
1893 28-03-2020 03:30:18 2.6 C 43 %
1894 28-03-2020 03:40:18 2.1 C 43 %
1895 28-03-2020 03:50:17 2.1 C 44 %
1896 28-03-2020 04:00:18 2.2 C 44 %
1897 28-03-2020 04:10:18 2.1 C 44 %
1898 28-03-2020 04:20:18 1.9 C 45 %
1899 28-03-2020 04:30:18 1.7 C 45 %
1900 28-03-2020 04:40:18 1.8 C 46 %
Sensor: Nr:Datum:Temp:Feuchte:
Aussen-T/F 1901 28-03-2020 04:50:17 1.8 C 46 %
1902 28-03-2020 05:00:18 1.7 C 45 %
1903 28-03-2020 05:10:18 1.6 C 45 %
1904 28-03-2020 05:20:17 1.5 C 45 %
1905 28-03-2020 05:30:18 1.3 C 46 %
1906 28-03-2020 05:40:18 1.2 C 46 %
1907 28-03-2020 05:50:18 1.2 C 46 %
1908 28-03-2020 06:00:18 1.2 C 46 %
1909 28-03-2020 06:10:18 1.3 C 46 %
1910 28-03-2020 06:20:17 1.1 C 46 %
1911 28-03-2020 06:30:17 1.1 C 46 %
1912 28-03-2020 06:40:17 1 C 46 %
1913 28-03-2020 06:50:17 1.2 C 47 %
1914 28-03-2020 07:00:17 1.5 C 47 %
1915 28-03-2020 07:10:17 1.7 C 47 %
1916 28-03-2020 07:20:17 1.9 C 47 %
1917 28-03-2020 07:30:18 1.9 C 46 %
1918 28-03-2020 07:40:18 1.9 C 46 %
1919 28-03-2020 07:50:17 2 C 45 %
1920 28-03-2020 08:00:17 2.2 C 45 %
1921 28-03-2020 08:10:18 2.5 C 45 %
1922 28-03-2020 08:20:18 2.8 C 46 %
1923 28-03-2020 08:30:17 3.2 C 45 %
1924 28-03-2020 08:40:17 3.7 C 44 %
1925 28-03-2020 08:50:18 4 C 43 %
Sensor: Nr:Datum:Temp:Feuchte:
Aussen-T/F 1926 28-03-2020 09:00:18 4.6 C 43 %
1927 28-03-2020 09:10:18 5.1 C 41 %
1928 28-03-2020 09:20:17 5.7 C 41 %
1929 28-03-2020 09:30:18 6.3 C 40 %
1930 28-03-2020 09:40:18 6.9 C 40 %
1931 28-03-2020 09:50:18 7.8 C 38 %
1932 28-03-2020 10:00:18 8.4 C 37 %
1933 28-03-2020 10:10:18 9.5 C 35 %
1934 28-03-2020 10:20:17 10.2 C 32 %
1935 28-03-2020 10:30:17 10.9 C 31 %
1936 28-03-2020 10:40:17 11.6 C 30 %
1937 28-03-2020 10:50:18 12.2 C 29 %
1938 28-03-2020 11:00:18 13.4 C 26 %
1939 28-03-2020 11:10:18 13.6 C 25 %
1940 28-03-2020 11:20:17 15.8 C 20 %
1941 28-03-2020 11:30:17 16.7 C 20 %
1942 28-03-2020 11:40:17 16.4 C 20 %
1943 28-03-2020 11:50:18 15.9 C 20 %
1944 28-03-2020 12:00:17 16.6 C 20 %
1945 28-03-2020 12:10:17 17 C 20 %
1946 28-03-2020 12:20:17 17.7 C 20 %
1947 28-03-2020 12:30:17 17.8 C 20 %
1948 28-03-2020 12:40:17 18.1 C 20 %
1949 28-03-2020 12:50:18 18 C 20 %
1950 28-03-2020 13:00:18 18.6 C 20 %
Sensor: Nr:Datum:Temp:Feuchte:
Aussen-T/F 1951 28-03-2020 13:10:18 19.6 C 20 %
1952 28-03-2020 13:20:18 21.7 C 20 %
1953 28-03-2020 13:30:17 21.1 C 20 %
1954 28-03-2020 13:40:17 20.7 C 20 %
1955 28-03-2020 13:50:18 20.6 C 20 %
1956 28-03-2020 14:00:17 21.1 C 20 %
1957 28-03-2020 14:10:17 21.3 C 20 %
1958 28-03-2020 14:20:17 21.9 C 20 %
1959 28-03-2020 14:30:17 23.7 C 20 %
1960 28-03-2020 14:40:17 24.3 C 20 %
1961 28-03-2020 14:50:17 23.2 C 20 %
1962 28-03-2020 15:00:18 22.4 C 20 %
1963 28-03-2020 15:10:18 19.9 C 20 %
1964 28-03-2020 15:20:18 18.6 C 20 %
1965 28-03-2020 15:30:18 19.6 C 20 %
1966 28-03-2020 15:40:18 22.1 C 20 %
1967 28-03-2020 15:50:18 20.5 C 20 %
1968 28-03-2020 16:00:18 21.1 C 20 %
1969 28-03-2020 16:10:18 21.1 C 20 %
1970 28-03-2020 16:20:18 19.9 C 20 %
1971 28-03-2020 16:30:18 19.6 C 20 %
1972 28-03-2020 16:40:18 19.6 C 20 %
1973 28-03-2020 16:50:18 18.5 C 20 %
1974 28-03-2020 17:00:18 17.9 C 20 %
1975 28-03-2020 17:10:18 17 C 20 %
Sensor: Nr:Datum:Temp:Feuchte:
Aussen-T/F 1976 28-03-2020 17:20:18 16.6 C 20 %
1977 28-03-2020 17:30:18 16.2 C 20 %
1978 28-03-2020 17:40:18 16.2 C 20 %
1979 28-03-2020 17:50:17 15.4 C 20 %
1980 28-03-2020 18:00:18 14.9 C 20 %
1981 28-03-2020 18:10:18 14.6 C 20 %
1982 28-03-2020 18:20:17 14 C 20 %
1983 28-03-2020 18:30:17 13.5 C 20 %
1984 28-03-2020 18:40:17 13.1 C 20 %
1985 28-03-2020 18:50:18 12.6 C 20 %
1986 28-03-2020 19:00:18 12.3 C 20 %
1987 28-03-2020 19:10:18 11.7 C 20 %
1988 28-03-2020 19:20:18 11.7 C 20 %
1989 28-03-2020 19:30:18 11.4 C 20 %
1990 28-03-2020 19:40:18 11.2 C 20 %
1991 28-03-2020 19:50:17 10.8 C 20 %
1992 28-03-2020 20:00:18 10.3 C 20 %
1993 28-03-2020 20:10:18 10.7 C 20 %
1994 28-03-2020 20:20:17 10.5 C 20 %
1995 28-03-2020 20:30:18 10 C 20 %
1996 28-03-2020 20:40:18 9.2 C 20 %
1997 28-03-2020 20:50:17 8.7 C 20 %
1998 28-03-2020 21:00:17 8.8 C 20 %
1999 28-03-2020 21:10:17 9.2 C 20 %
2000 28-03-2020 21:20:17 8.7 C 23 %
Sensor: Nr:Datum:Temp:Feuchte:
Aussen-T/F 2001 28-03-2020 21:30:17 8.1 C 25 %
2002 28-03-2020 21:40:17 8.4 C 23 %
2003 28-03-2020 21:50:17 7.6 C 25 %
2004 28-03-2020 22:00:17 8.3 C 25 %
2005 28-03-2020 22:10:17 8.5 C 21 %
2006 28-03-2020 22:20:17 8.4 C 25 %
2007 28-03-2020 22:30:17 8.3 C 26 %
2008 28-03-2020 22:40:17 7.9 C 26 %
2009 28-03-2020 22:50:17 7.4 C 28 %
2010 28-03-2020 23:00:17 7.3 C 30 %
2011 28-03-2020 23:10:17 7.2 C 30 %
2012 28-03-2020 23:20:18 7.1 C 30 %
2013 28-03-2020 23:30:18 7.1 C 31 %
2014 28-03-2020 23:40:18 6.8 C 32 %
2015 28-03-2020 23:50:17 6.7 C 33 %
Sensor: Nr:Datum:Temp:Feuchte:
G-T/H 1 15-03-2020 00:09:18 10.4 C 71 %
2 15-03-2020 00:19:17 10.4 C 71 %
3 15-03-2020 00:29:17 10.4 C 71 %
4 15-03-2020 00:39:18 10.4 C 71 %
5 15-03-2020 00:49:18 10.4 C 71 %
6 15-03-2020 00:59:18 10.4 C 71 %
7 15-03-2020 01:09:17 10.4 C 71 %
8 15-03-2020 01:19:18 10.4 C 71 %
9 15-03-2020 01:29:18 10.4 C 71 %
10 15-03-2020 01:39:17 10.3 C 71 %
11 15-03-2020 01:49:17 10.3 C 71 %
12 15-03-2020 01:59:17 10.3 C 71 %
13 15-03-2020 02:09:17 10.3 C 71 %
14 15-03-2020 02:19:17 10.3 C 71 %
15 15-03-2020 02:29:17 10.4 C 71 %
16 15-03-2020 02:39:18 10.3 C 71 %
17 15-03-2020 02:49:17 10.3 C 71 %
18 15-03-2020 02:59:17 10.3 C 71 %
19 15-03-2020 03:09:17 10.3 C 71 %
20 15-03-2020 03:19:17 10.3 C 71 %
21 15-03-2020 03:29:17 10.3 C 71 %
22 15-03-2020 03:39:18 10.2 C 71 %
23 15-03-2020 03:49:17 10.2 C 71 %
24 15-03-2020 03:59:17 10.2 C 71 %
25 15-03-2020 04:09:18 10.2 C 71 %
Sensor: Nr:Datum:Temp:Feuchte:
G-T/H 26 15-03-2020 04:19:18 10.2 C 71 %
27 15-03-2020 04:29:18 10.2 C 71 %
28 15-03-2020 04:39:18 10.2 C 70 %
29 15-03-2020 04:49:17 10.1 C 70 %
30 15-03-2020 04:59:18 10.1 C 70 %
31 15-03-2020 05:09:18 10.1 C 70 %
32 15-03-2020 05:19:17 10.1 C 70 %
33 15-03-2020 05:29:18 10.1 C 70 %
34 15-03-2020 05:39:18 10.1 C 69 %
35 15-03-2020 05:49:17 10.1 C 69 %
36 15-03-2020 05:59:17 10.1 C 69 %
37 15-03-2020 06:09:18 10 C 69 %
38 15-03-2020 06:19:17 10 C 69 %
39 15-03-2020 06:29:17 10 C 69 %
40 15-03-2020 06:39:18 10 C 69 %
41 15-03-2020 06:49:18 10 C 69 %
42 15-03-2020 06:59:18 10 C 69 %
43 15-03-2020 07:09:18 10 C 69 %
44 15-03-2020 07:19:18 10 C 69 %
45 15-03-2020 07:29:18 10 C 69 %
46 15-03-2020 07:39:18 10 C 69 %
47 15-03-2020 07:49:18 10 C 69 %
48 15-03-2020 07:59:18 10 C 69 %
49 15-03-2020 08:09:18 10 C 70 %
50 15-03-2020 08:19:18 10 C 70 %
Sensor: Nr:Datum:Temp:Feuchte:
G-T/H 51 15-03-2020 08:29:18 10 C 70 %
52 15-03-2020 08:39:18 10 C 70 %
53 15-03-2020 08:49:17 10 C 70 %
54 15-03-2020 08:59:17 10 C 70 %
55 15-03-2020 09:09:18 10 C 70 %
56 15-03-2020 09:19:18 9.9 C 71 %
57 15-03-2020 09:29:18 9.9 C 71 %
58 15-03-2020 09:39:18 10 C 70 %
59 15-03-2020 09:49:18 9.9 C 71 %
60 15-03-2020 09:59:18 9.9 C 72 %
61 15-03-2020 10:09:18 10 C 71 %
62 15-03-2020 10:19:18 9.9 C 72 %
63 15-03-2020 10:29:18 10 C 71 %
64 15-03-2020 10:39:18 9.9 C 72 %
65 15-03-2020 10:49:17 10 C 71 %
66 15-03-2020 10:59:17 10 C 71 %
67 15-03-2020 11:09:17 10 C 71 %
68 15-03-2020 11:19:17 10 C 71 %
69 15-03-2020 11:29:17 10 C 71 %
70 15-03-2020 11:39:18 10 C 71 %
71 15-03-2020 11:49:17 10.3 C 71 %
72 15-03-2020 11:59:18 10.5 C 69 %
73 15-03-2020 12:09:18 10.5 C 68 %
74 15-03-2020 12:19:18 10.7 C 66 %
75 15-03-2020 12:29:18 10.7 C 65 %
Sensor: Nr:Datum:Temp:Feuchte:
G-T/H 76 15-03-2020 12:39:18 10.8 C 64 %
77 15-03-2020 12:49:17 10.9 C 64 %
78 15-03-2020 12:59:17 11 C 62 %
79 15-03-2020 13:09:18 11 C 61 %
80 15-03-2020 13:19:17 11.1 C 61 %
81 15-03-2020 13:29:17 11.3 C 60 %
82 15-03-2020 13:39:18 11.3 C 60 %
83 15-03-2020 13:49:17 11.4 C 59 %
84 15-03-2020 13:59:17 11.5 C 58 %
85 15-03-2020 14:09:17 11.5 C 58 %
86 15-03-2020 14:19:17 11.6 C 57 %
87 15-03-2020 14:29:17 11.7 C 57 %
88 15-03-2020 14:39:18 11.7 C 56 %
89 15-03-2020 14:49:17 11.8 C 56 %
90 15-03-2020 14:59:17 11.9 C 55 %
91 15-03-2020 15:09:17 11.9 C 55 %
92 15-03-2020 15:19:17 12 C 53 %
93 15-03-2020 15:29:18 12.1 C 53 %
94 15-03-2020 15:39:18 12.2 C 53 %
95 15-03-2020 15:49:17 12.2 C 52 %
96 15-03-2020 15:59:17 12.2 C 52 %
97 15-03-2020 16:09:17 12.2 C 51 %
98 15-03-2020 16:19:17 12.3 C 51 %
99 15-03-2020 16:29:17 12.4 C 51 %
100 15-03-2020 16:39:17 12.4 C 51 %
Sensor: Nr:Datum:Temp:Feuchte:
G-T/H 101 15-03-2020 16:49:18 12.3 C 51 %
102 15-03-2020 16:59:18 12.1 C 52 %
103 15-03-2020 17:09:18 12.1 C 53 %
104 15-03-2020 17:19:18 12 C 54 %
105 15-03-2020 17:29:18 11.9 C 56 %
106 15-03-2020 17:39:18 11.9 C 56 %
107 15-03-2020 17:49:18 11.9 C 57 %
108 15-03-2020 17:59:18 11.8 C 58 %
109 15-03-2020 18:09:18 11.8 C 58 %
110 15-03-2020 18:19:18 11.8 C 59 %
111 15-03-2020 18:29:18 11.7 C 60 %
112 15-03-2020 18:39:18 11.7 C 60 %
113 15-03-2020 18:49:17 11.7 C 60 %
114 15-03-2020 18:59:17 11.7 C 61 %
115 15-03-2020 19:09:18 11.7 C 61 %
116 15-03-2020 19:19:18 11.7 C 61 %
117 15-03-2020 19:29:18 11.6 C 62 %
118 15-03-2020 19:39:18 11.6 C 62 %
119 15-03-2020 19:49:17 11.6 C 62 %
120 15-03-2020 19:59:17 11.6 C 62 %
121 15-03-2020 20:09:18 11.6 C 63 %
122 15-03-2020 20:19:17 11.5 C 63 %
123 15-03-2020 20:29:17 11.6 C 63 %
124 15-03-2020 20:39:18 11.6 C 63 %
125 15-03-2020 20:49:18 11.5 C 63 %
Sensor: Nr:Datum:Temp:Feuchte:
G-T/H 126 15-03-2020 20:59:18 11.5 C 64 %
127 15-03-2020 21:09:18 11.5 C 64 %
128 15-03-2020 21:19:17 11.5 C 64 %
129 15-03-2020 21:29:17 11.5 C 64 %
130 15-03-2020 21:39:17 11.5 C 64 %
131 15-03-2020 21:49:17 11.5 C 64 %
132 15-03-2020 21:59:17 11.5 C 64 %
133 15-03-2020 22:09:17 11.5 C 64 %
134 15-03-2020 22:19:17 11.5 C 64 %
135 15-03-2020 22:29:18 11.5 C 65 %
136 15-03-2020 22:39:17 11.4 C 65 %
137 15-03-2020 22:49:17 11.4 C 65 %
138 15-03-2020 22:59:17 11.4 C 65 %
139 15-03-2020 23:09:17 11.4 C 65 %
140 15-03-2020 23:19:17 11.4 C 65 %
141 15-03-2020 23:29:17 11.4 C 65 %
142 15-03-2020 23:39:17 11.4 C 65 %
143 15-03-2020 23:49:17 11.4 C 65 %
144 15-03-2020 23:59:17 11.3 C 65 %
145 16-03-2020 00:09:17 11.3 C 65 %
146 16-03-2020 00:19:17 11.3 C 65 %
147 16-03-2020 00:29:17 11.3 C 65 %
148 16-03-2020 00:39:17 11.2 C 64 %
149 16-03-2020 00:49:17 11.2 C 64 %
150 16-03-2020 00:59:17 11.2 C 64 %
Sensor: Nr:Datum:Temp:Feuchte:
G-T/H 151 16-03-2020 01:09:18 11.2 C 64 %
152 16-03-2020 01:19:17 11.2 C 64 %
153 16-03-2020 01:29:17 11.1 C 64 %
154 16-03-2020 01:39:17 11.1 C 64 %
155 16-03-2020 01:49:18 11.1 C 64 %
156 16-03-2020 01:59:18 11.1 C 64 %
157 16-03-2020 02:09:17 11.1 C 63 %
158 16-03-2020 02:19:17 11.1 C 63 %
159 16-03-2020 02:29:17 11 C 63 %
160 16-03-2020 02:39:17 11 C 63 %
161 16-03-2020 02:49:17 11 C 63 %
162 16-03-2020 02:59:17 11 C 63 %
163 16-03-2020 03:09:18 10.9 C 64 %
164 16-03-2020 03:19:17 10.9 C 64 %
165 16-03-2020 03:29:17 10.9 C 64 %
166 16-03-2020 03:39:17 10.9 C 64 %
167 16-03-2020 03:49:18 10.9 C 64 %
168 16-03-2020 03:59:18 10.8 C 64 %
169 16-03-2020 04:09:18 10.8 C 64 %
170 16-03-2020 04:19:18 10.8 C 64 %
171 16-03-2020 04:29:18 10.8 C 64 %
172 16-03-2020 04:39:18 10.7 C 64 %
173 16-03-2020 04:49:17 10.7 C 64 %
174 16-03-2020 04:59:18 10.7 C 63 %
175 16-03-2020 05:09:18 10.7 C 63 %
Sensor: Nr:Datum:Temp:Feuchte:
G-T/H 176 16-03-2020 05:19:18 10.7 C 63 %
177 16-03-2020 05:29:18 10.6 C 63 %
178 16-03-2020 05:39:18 10.6 C 63 %
179 16-03-2020 05:49:17 10.6 C 63 %
180 16-03-2020 05:59:17 10.6 C 63 %
181 16-03-2020 06:09:18 10.5 C 63 %
182 16-03-2020 06:19:17 10.5 C 63 %
183 16-03-2020 06:29:17 10.5 C 63 %
184 16-03-2020 06:39:17 10.5 C 63 %
185 16-03-2020 06:49:17 10.4 C 63 %
186 16-03-2020 06:59:17 10.4 C 63 %
187 16-03-2020 07:09:17 10.4 C 63 %
188 16-03-2020 07:19:17 10.4 C 63 %
189 16-03-2020 07:29:17 10.4 C 63 %
190 16-03-2020 07:39:17 10.3 C 63 %
191 16-03-2020 07:49:17 10.3 C 63 %
192 16-03-2020 07:59:17 10.3 C 63 %
193 16-03-2020 08:09:18 10.3 C 63 %
194 16-03-2020 08:19:17 10.2 C 63 %
195 16-03-2020 08:29:18 10.2 C 63 %
196 16-03-2020 08:39:18 10.2 C 63 %
197 16-03-2020 08:49:17 10.2 C 64 %
198 16-03-2020 08:59:17 10.2 C 64 %
199 16-03-2020 09:09:18 10.2 C 64 %
200 16-03-2020 09:19:18 10.2 C 64 %
Sensor: Nr:Datum:Temp:Feuchte:
G-T/H 201 16-03-2020 09:29:18 10.2 C 64 %
202 16-03-2020 09:39:18 10.2 C 65 %
203 16-03-2020 09:49:18 10.2 C 65 %
204 16-03-2020 09:59:18 10.2 C 65 %
205 16-03-2020 10:09:18 10.2 C 65 %
206 16-03-2020 10:19:18 10.1 C 65 %
207 16-03-2020 10:29:18 10.1 C 66 %
208 16-03-2020 10:39:17 10.2 C 66 %
209 16-03-2020 10:49:18 10.1 C 66 %
210 16-03-2020 10:59:18 10.2 C 66 %
211 16-03-2020 11:09:17 10.1 C 66 %
212 16-03-2020 11:19:17 10.2 C 66 %
213 16-03-2020 11:29:17 10.2 C 66 %
214 16-03-2020 11:39:18 10.2 C 67 %
215 16-03-2020 11:49:17 10.2 C 67 %
216 16-03-2020 11:59:17 10.2 C 67 %
217 16-03-2020 12:09:17 10.2 C 67 %
218 16-03-2020 12:19:17 10.3 C 67 %
219 16-03-2020 12:29:17 10.2 C 67 %
220 16-03-2020 12:39:17 10.3 C 67 %
221 16-03-2020 12:49:17 10.3 C 67 %
222 16-03-2020 12:59:17 10.3 C 67 %
223 16-03-2020 13:09:17 10.3 C 67 %
224 16-03-2020 13:19:17 10.4 C 67 %
225 16-03-2020 13:29:17 10.4 C 67 %
Sensor: Nr:Datum:Temp:Feuchte:
G-T/H 226 16-03-2020 13:39:17 10.4 C 68 %
227 16-03-2020 13:49:17 10.4 C 68 %
228 16-03-2020 13:59:17 10.4 C 68 %
229 16-03-2020 14:09:17 10.4 C 68 %
230 16-03-2020 14:19:17 10.5 C 68 %
231 16-03-2020 14:29:17 10.5 C 68 %
232 16-03-2020 14:39:17 10.5 C 68 %
233 16-03-2020 14:49:17 10.5 C 68 %
234 16-03-2020 14:59:17 10.5 C 68 %
235 16-03-2020 15:09:17 10.6 C 68 %
236 16-03-2020 15:19:17 10.5 C 68 %
237 16-03-2020 15:29:17 10.6 C 68 %
238 16-03-2020 15:39:18 10.7 C 68 %
239 16-03-2020 15:49:17 10.6 C 68 %
240 16-03-2020 15:59:17 10.7 C 68 %
241 16-03-2020 16:09:18 10.7 C 69 %
242 16-03-2020 16:19:18 10.7 C 69 %
243 16-03-2020 16:29:18 10.7 C 69 %
244 16-03-2020 16:39:17 10.8 C 69 %
245 16-03-2020 16:49:17 10.8 C 69 %
246 16-03-2020 16:59:17 10.8 C 69 %
247 16-03-2020 17:09:17 10.8 C 69 %
248 16-03-2020 17:19:17 10.8 C 69 %
249 16-03-2020 17:29:18 10.8 C 69 %
250 16-03-2020 17:39:18 10.9 C 69 %
Sensor: Nr:Datum:Temp:Feuchte:
G-T/H 251 16-03-2020 17:49:17 10.9 C 69 %
252 16-03-2020 17:59:18 10.9 C 69 %
253 16-03-2020 18:09:18 10.9 C 69 %
254 16-03-2020 18:19:18 10.9 C 69 %
255 16-03-2020 18:29:18 11 C 69 %
256 16-03-2020 18:39:18 11 C 69 %
257 16-03-2020 18:49:18 11 C 69 %
258 16-03-2020 18:59:18 11 C 69 %
259 16-03-2020 19:09:18 11 C 69 %
260 16-03-2020 19:19:18 11 C 69 %
261 16-03-2020 19:29:18 11 C 69 %
262 16-03-2020 19:39:18 11 C 69 %
263 16-03-2020 19:49:17 11 C 69 %
264 16-03-2020 19:59:18 11 C 69 %
265 16-03-2020 20:09:18 11.1 C 69 %
266 16-03-2020 20:19:18 11.1 C 69 %
267 16-03-2020 20:29:18 11.1 C 69 %
268 16-03-2020 20:39:18 11.1 C 69 %
269 16-03-2020 20:49:18 11.1 C 69 %
270 16-03-2020 20:59:18 11.1 C 69 %
271 16-03-2020 21:09:18 11.1 C 69 %
272 16-03-2020 21:19:17 11.1 C 69 %
273 16-03-2020 21:29:17 11.1 C 69 %
274 16-03-2020 21:39:17 11.2 C 69 %
275 16-03-2020 21:49:18 11.1 C 70 %
Sensor: Nr:Datum:Temp:Feuchte:
G-T/H 276 16-03-2020 21:59:18 11.2 C 70 %
277 16-03-2020 22:09:18 11.2 C 70 %
278 16-03-2020 22:19:18 11.2 C 70 %
279 16-03-2020 22:29:18 11.2 C 70 %
280 16-03-2020 22:39:18 11.2 C 70 %
281 16-03-2020 22:49:18 11.2 C 70 %
282 16-03-2020 22:59:18 11.2 C 70 %
283 16-03-2020 23:09:18 11.2 C 70 %
284 16-03-2020 23:19:17 11.2 C 70 %
285 16-03-2020 23:29:17 11.2 C 70 %
286 16-03-2020 23:39:17 11.2 C 70 %
287 16-03-2020 23:49:17 11.2 C 70 %
288 16-03-2020 23:59:17 11.2 C 70 %
289 17-03-2020 00:09:17 11.2 C 70 %
290 17-03-2020 00:19:17 11.3 C 70 %
291 17-03-2020 00:29:17 11.2 C 70 %
292 17-03-2020 00:39:18 11.2 C 70 %
293 17-03-2020 00:49:18 11.3 C 70 %
294 17-03-2020 00:59:18 11.3 C 70 %
295 17-03-2020 01:09:18 11.3 C 70 %
296 17-03-2020 01:19:17 11.3 C 70 %
297 17-03-2020 01:29:17 11.3 C 70 %
298 17-03-2020 01:39:17 11.2 C 70 %
299 17-03-2020 01:49:18 11.2 C 70 %
300 17-03-2020 01:59:18 11.3 C 70 %
Sensor: Nr:Datum:Temp:Feuchte:
G-T/H 301 17-03-2020 02:09:18 11.2 C 70 %
302 17-03-2020 02:19:17 11.2 C 70 %
303 17-03-2020 02:29:17 11.3 C 70 %
304 17-03-2020 02:39:17 11.3 C 70 %
305 17-03-2020 02:49:17 11.3 C 70 %
306 17-03-2020 02:59:17 11.3 C 70 %
307 17-03-2020 03:09:18 11.3 C 70 %
308 17-03-2020 03:19:18 11.3 C 70 %
309 17-03-2020 03:29:18 11.3 C 70 %
310 17-03-2020 03:39:17 11.2 C 70 %
311 17-03-2020 03:49:18 11.2 C 70 %
312 17-03-2020 03:59:18 11.2 C 70 %
313 17-03-2020 04:09:18 11.2 C 70 %
314 17-03-2020 04:19:18 11.2 C 70 %
315 17-03-2020 04:29:18 11.2 C 70 %
316 17-03-2020 04:39:17 11.3 C 70 %
317 17-03-2020 04:49:18 11.2 C 70 %
318 17-03-2020 04:59:18 11.2 C 70 %
319 17-03-2020 05:09:17 11.2 C 70 %
320 17-03-2020 05:19:17 11.2 C 70 %
321 17-03-2020 05:29:17 11.2 C 70 %
322 17-03-2020 05:39:17 11.2 C 70 %
323 17-03-2020 05:49:17 11.2 C 70 %
324 17-03-2020 05:59:18 11.2 C 70 %
325 17-03-2020 06:09:18 11.2 C 70 %
Sensor: Nr:Datum:Temp:Feuchte:
G-T/H 326 17-03-2020 06:19:18 11.2 C 70 %
327 17-03-2020 06:29:18 11.2 C 71 %
328 17-03-2020 06:39:18 11.2 C 70 %
329 17-03-2020 06:49:18 11.2 C 71 %
330 17-03-2020 06:59:18 11.2 C 71 %
331 17-03-2020 07:09:17 11.2 C 71 %
332 17-03-2020 07:19:17 11.2 C 71 %
333 17-03-2020 07:29:17 11.2 C 71 %
334 17-03-2020 07:39:17 11.2 C 71 %
335 17-03-2020 07:49:18 11.2 C 71 %
336 17-03-2020 07:59:18 11.2 C 71 %
337 17-03-2020 08:09:18 11.2 C 71 %
338 17-03-2020 08:19:17 11.2 C 71 %
339 17-03-2020 08:29:17 11.2 C 71 %
340 17-03-2020 08:39:17 11.2 C 71 %
341 17-03-2020 08:49:17 11.2 C 71 %
342 17-03-2020 08:59:17 11.2 C 71 %
343 17-03-2020 09:09:17 11.2 C 71 %
344 17-03-2020 09:19:18 11.2 C 71 %
345 17-03-2020 09:29:18 11.2 C 71 %
346 17-03-2020 09:39:18 11.2 C 71 %
347 17-03-2020 09:49:17 11.2 C 71 %
348 17-03-2020 09:59:17 11.2 C 71 %
349 17-03-2020 10:09:17 11.2 C 71 %
350 17-03-2020 10:19:17 11.3 C 71 %
Sensor: Nr:Datum:Temp:Feuchte:
G-T/H 351 17-03-2020 10:29:17 11.3 C 71 %
352 17-03-2020 10:39:17 11.3 C 71 %
353 17-03-2020 10:49:17 11.3 C 71 %
354 17-03-2020 10:59:17 11.3 C 71 %
355 17-03-2020 11:09:17 11.3 C 71 %
356 17-03-2020 11:19:17 11.3 C 71 %
357 17-03-2020 11:29:17 11.4 C 71 %
358 17-03-2020 11:39:17 11.3 C 71 %
359 17-03-2020 11:49:17 11.3 C 71 %
360 17-03-2020 11:59:17 11.4 C 71 %
361 17-03-2020 12:09:17 11.4 C 71 %
362 17-03-2020 12:19:18 11.4 C 71 %
363 17-03-2020 12:29:18 11.4 C 71 %
364 17-03-2020 12:39:18 11.4 C 71 %
365 17-03-2020 12:49:18 11.5 C 71 %
366 17-03-2020 12:59:18 11.4 C 71 %
367 17-03-2020 13:09:17 11.4 C 71 %
368 17-03-2020 13:19:17 11.5 C 71 %
369 17-03-2020 13:29:17 11.5 C 71 %
370 17-03-2020 13:39:17 11.5 C 71 %
371 17-03-2020 13:49:18 11.5 C 71 %
372 17-03-2020 13:59:18 11.5 C 71 %
373 17-03-2020 14:09:17 11.5 C 71 %
374 17-03-2020 14:19:17 11.5 C 71 %
375 17-03-2020 14:29:17 11.6 C 71 %
Sensor: Nr:Datum:Temp:Feuchte:
G-T/H 376 17-03-2020 14:39:18 11.6 C 71 %
377 17-03-2020 14:49:18 11.6 C 71 %
378 17-03-2020 14:59:18 11.6 C 71 %
379 17-03-2020 15:09:17 11.6 C 71 %
380 17-03-2020 15:19:17 11.6 C 71 %
381 17-03-2020 15:29:17 11.6 C 71 %
382 17-03-2020 15:39:18 11.7 C 71 %
383 17-03-2020 15:49:17 11.6 C 71 %
384 17-03-2020 15:59:17 11.7 C 71 %
385 17-03-2020 16:09:18 11.7 C 71 %
386 17-03-2020 16:19:18 11.7 C 71 %
387 17-03-2020 16:29:18 11.7 C 71 %
388 17-03-2020 16:39:17 11.7 C 71 %
389 17-03-2020 16:49:17 11.7 C 71 %
390 17-03-2020 16:59:17 11.8 C 71 %
391 17-03-2020 17:09:17 11.8 C 71 %
392 17-03-2020 17:19:18 11.7 C 71 %
393 17-03-2020 17:29:18 11.8 C 71 %
394 17-03-2020 17:39:18 11.8 C 71 %
395 17-03-2020 17:49:17 11.8 C 71 %
396 17-03-2020 17:59:18 11.8 C 71 %
397 17-03-2020 18:09:18 11.8 C 71 %
398 17-03-2020 18:19:17 11.8 C 71 %
399 17-03-2020 18:29:17 11.8 C 71 %
400 17-03-2020 18:39:18 11.8 C 71 %
Sensor: Nr:Datum:Temp:Feuchte:
G-T/H 401 17-03-2020 18:49:18 11.8 C 71 %
402 17-03-2020 18:59:18 11.8 C 71 %
403 17-03-2020 19:09:18 11.8 C 71 %
404 17-03-2020 19:19:17 11.8 C 71 %
405 17-03-2020 19:29:17 11.8 C 71 %
406 17-03-2020 19:39:17 11.8 C 71 %
407 17-03-2020 19:49:17 11.8 C 71 %
408 17-03-2020 19:59:17 11.8 C 71 %
409 17-03-2020 20:09:17 11.8 C 71 %
410 17-03-2020 20:19:17 11.8 C 71 %
411 17-03-2020 20:29:17 11.9 C 71 %
412 17-03-2020 20:39:18 11.8 C 71 %
413 17-03-2020 20:49:18 11.9 C 71 %
414 17-03-2020 20:59:18 11.9 C 71 %
415 17-03-2020 21:09:18 11.8 C 71 %
416 17-03-2020 21:19:17 11.8 C 71 %
417 17-03-2020 21:29:17 11.8 C 71 %
418 17-03-2020 21:39:17 11.8 C 71 %
419 17-03-2020 21:49:18 11.8 C 71 %
420 17-03-2020 21:59:18 11.8 C 71 %
421 17-03-2020 22:09:18 11.8 C 71 %
422 17-03-2020 22:19:18 11.8 C 71 %
423 17-03-2020 22:29:18 11.8 C 71 %
424 17-03-2020 22:39:17 11.8 C 71 %
425 17-03-2020 22:49:17 11.8 C 71 %
Sensor: Nr:Datum:Temp:Feuchte:
G-T/H 426 17-03-2020 22:59:17 11.8 C 71 %
427 17-03-2020 23:09:17 11.8 C 71 %
428 17-03-2020 23:19:17 11.8 C 71 %
429 17-03-2020 23:29:17 11.8 C 71 %
430 17-03-2020 23:39:18 11.8 C 71 %
431 17-03-2020 23:49:18 11.8 C 71 %
432 17-03-2020 23:59:18 11.8 C 71 %
433 18-03-2020 00:09:17 11.7 C 71 %
434 18-03-2020 00:19:17 11.7 C 71 %
435 18-03-2020 00:29:17 11.7 C 71 %
436 18-03-2020 00:39:17 11.8 C 71 %
437 18-03-2020 00:49:17 11.8 C 71 %
438 18-03-2020 00:59:17 11.7 C 71 %
439 18-03-2020 01:09:17 11.8 C 71 %
440 18-03-2020 01:19:17 11.7 C 71 %
441 18-03-2020 01:29:17 11.7 C 71 %
442 18-03-2020 01:39:17 11.7 C 71 %
443 18-03-2020 01:49:17 11.7 C 71 %
444 18-03-2020 01:59:17 11.7 C 70 %
445 18-03-2020 02:09:17 11.7 C 70 %
446 18-03-2020 02:19:17 11.6 C 70 %
447 18-03-2020 02:29:17 11.6 C 70 %
448 18-03-2020 02:39:17 11.7 C 70 %
449 18-03-2020 02:49:18 11.6 C 70 %
450 18-03-2020 02:59:18 11.6 C 70 %
Sensor: Nr:Datum:Temp:Feuchte:
G-T/H 451 18-03-2020 03:09:18 11.6 C 70 %
452 18-03-2020 03:19:17 11.6 C 70 %
453 18-03-2020 03:29:17 11.6 C 70 %
454 18-03-2020 03:39:17 11.6 C 70 %
455 18-03-2020 03:49:17 11.5 C 70 %
456 18-03-2020 03:59:17 11.5 C 70 %
457 18-03-2020 04:09:17 11.5 C 70 %
458 18-03-2020 04:19:18 11.5 C 70 %
459 18-03-2020 04:29:18 11.5 C 70 %
460 18-03-2020 04:39:18 11.5 C 69 %
461 18-03-2020 04:49:18 11.4 C 69 %
462 18-03-2020 04:59:18 11.4 C 69 %
463 18-03-2020 05:09:18 11.4 C 69 %
464 18-03-2020 05:19:18 11.4 C 69 %
465 18-03-2020 05:29:18 11.4 C 69 %
466 18-03-2020 05:39:18 11.3 C 69 %
467 18-03-2020 05:49:18 11.3 C 68 %
468 18-03-2020 05:59:18 11.3 C 68 %
469 18-03-2020 06:09:18 11.3 C 68 %
470 18-03-2020 06:19:17 11.2 C 68 %
471 18-03-2020 06:29:18 11.2 C 68 %
472 18-03-2020 06:39:18 11.2 C 68 %
473 18-03-2020 06:49:17 11.2 C 68 %
474 18-03-2020 06:59:18 11.2 C 68 %
475 18-03-2020 07:09:18 11.2 C 68 %
Sensor: Nr:Datum:Temp:Feuchte:
G-T/H 476 18-03-2020 07:19:17 11.1 C 68 %
477 18-03-2020 07:29:17 11.1 C 68 %
478 18-03-2020 07:39:17 11.1 C 68 %
479 18-03-2020 07:49:18 11.1 C 68 %
480 18-03-2020 07:59:18 11.1 C 68 %
481 18-03-2020 08:09:18 11.1 C 68 %
482 18-03-2020 08:19:18 11.1 C 68 %
483 18-03-2020 08:29:18 11 C 68 %
484 18-03-2020 08:39:17 11 C 68 %
485 18-03-2020 08:49:18 11 C 68 %
486 18-03-2020 08:59:18 11 C 69 %
487 18-03-2020 09:09:17 11 C 69 %
488 18-03-2020 09:19:17 11 C 69 %
489 18-03-2020 09:29:17 11 C 69 %
490 18-03-2020 09:39:17 11 C 69 %
491 18-03-2020 09:49:18 11 C 69 %
492 18-03-2020 09:59:18 11 C 69 %
493 18-03-2020 10:09:18 11 C 69 %
494 18-03-2020 10:19:18 11 C 69 %
495 18-03-2020 10:29:18 11 C 69 %
496 18-03-2020 10:39:18 11 C 70 %
497 18-03-2020 10:49:18 11 C 70 %
498 18-03-2020 10:59:18 11 C 70 %
499 18-03-2020 11:09:18 11 C 70 %
500 18-03-2020 11:19:18 11 C 70 %
Sensor: Nr:Datum:Temp:Feuchte:
G-T/H 501 18-03-2020 11:29:18 11 C 70 %
502 18-03-2020 11:39:18 11 C 70 %
503 18-03-2020 11:49:17 11 C 70 %
504 18-03-2020 11:59:17 11 C 70 %
505 18-03-2020 12:09:18 11 C 70 %
506 18-03-2020 12:19:17 11 C 70 %
507 18-03-2020 12:29:18 11.1 C 70 %
508 18-03-2020 12:39:18 11.1 C 70 %
509 18-03-2020 12:49:17 11.1 C 70 %
510 18-03-2020 12:59:17 11.1 C 70 %
511 18-03-2020 13:09:17 11.1 C 70 %
512 18-03-2020 13:19:17 11.1 C 70 %
513 18-03-2020 13:29:17 11.1 C 71 %
514 18-03-2020 13:39:18 11.2 C 71 %
515 18-03-2020 13:49:17 11.2 C 71 %
516 18-03-2020 13:59:17 11.2 C 71 %
517 18-03-2020 14:09:17 11.2 C 71 %
518 18-03-2020 14:19:17 11.2 C 71 %
519 18-03-2020 14:29:17 11.2 C 71 %
520 18-03-2020 14:39:18 11.3 C 71 %
521 18-03-2020 14:49:17 11.3 C 71 %
522 18-03-2020 14:59:17 11.3 C 71 %
523 18-03-2020 15:09:17 11.3 C 71 %
524 18-03-2020 15:19:18 11.3 C 71 %
525 18-03-2020 15:29:18 11.4 C 71 %
Sensor: Nr:Datum:Temp:Feuchte:
G-T/H 526 18-03-2020 15:39:18 11.4 C 71 %
527 18-03-2020 15:49:17 11.4 C 71 %
528 18-03-2020 15:59:17 11.4 C 71 %
529 18-03-2020 16:09:17 11.4 C 71 %
530 18-03-2020 16:19:17 11.4 C 71 %
531 18-03-2020 16:29:17 11.5 C 71 %
532 18-03-2020 16:39:17 11.5 C 71 %
533 18-03-2020 16:49:18 11.5 C 71 %
534 18-03-2020 16:59:18 11.5 C 71 %
535 18-03-2020 17:09:17 11.5 C 71 %
536 18-03-2020 17:19:17 11.5 C 71 %
537 18-03-2020 17:29:17 11.6 C 71 %
538 18-03-2020 17:39:18 11.6 C 71 %
539 18-03-2020 17:49:17 11.6 C 71 %
540 18-03-2020 17:59:17 11.7 C 71 %
541 18-03-2020 18:09:17 11.6 C 71 %
542 18-03-2020 18:19:17 11.7 C 72 %
543 18-03-2020 18:29:17 11.6 C 72 %
544 18-03-2020 18:39:17 11.7 C 72 %
545 18-03-2020 18:49:17 11.7 C 71 %
546 18-03-2020 18:59:17 11.7 C 71 %
547 18-03-2020 19:09:17 11.7 C 71 %
548 18-03-2020 19:19:18 11.7 C 71 %
549 18-03-2020 19:29:18 11.7 C 71 %
550 18-03-2020 19:39:18 11.7 C 72 %
Sensor: Nr:Datum:Temp:Feuchte:
G-T/H 551 18-03-2020 19:49:18 11.7 C 72 %
552 18-03-2020 19:59:18 11.7 C 72 %
553 18-03-2020 20:09:18 11.7 C 72 %
554 18-03-2020 20:19:17 11.8 C 72 %
555 18-03-2020 20:29:17 11.7 C 72 %
556 18-03-2020 20:39:18 11.7 C 72 %
557 18-03-2020 20:49:17 11.7 C 72 %
558 18-03-2020 20:59:17 11.8 C 72 %
559 18-03-2020 21:09:18 11.8 C 72 %
560 18-03-2020 21:19:17 11.8 C 72 %
561 18-03-2020 21:29:17 11.8 C 72 %
562 18-03-2020 21:39:17 11.8 C 72 %
563 18-03-2020 21:49:17 11.8 C 72 %
564 18-03-2020 21:59:17 11.8 C 72 %
565 18-03-2020 22:09:17 11.8 C 72 %
566 18-03-2020 22:19:17 11.8 C 72 %
567 18-03-2020 22:29:17 11.8 C 72 %
568 18-03-2020 22:39:17 11.8 C 72 %
569 18-03-2020 22:49:17 11.8 C 72 %
570 18-03-2020 22:59:17 11.8 C 72 %
571 18-03-2020 23:09:18 11.8 C 72 %
572 18-03-2020 23:19:17 11.8 C 72 %
573 18-03-2020 23:29:17 11.8 C 72 %
574 18-03-2020 23:39:18 11.8 C 72 %
575 18-03-2020 23:49:18 11.8 C 72 %
Sensor: Nr:Datum:Temp:Feuchte:
G-T/H 576 18-03-2020 23:59:18 11.8 C 72 %
577 19-03-2020 00:09:17 11.8 C 72 %
578 19-03-2020 00:19:18 11.8 C 72 %
579 19-03-2020 00:29:18 11.8 C 72 %
580 19-03-2020 00:39:18 11.9 C 72 %
581 19-03-2020 00:49:17 11.9 C 72 %
582 19-03-2020 00:59:17 11.8 C 72 %
583 19-03-2020 01:09:18 11.8 C 72 %
584 19-03-2020 01:19:17 11.8 C 72 %
585 19-03-2020 01:29:17 11.8 C 72 %
586 19-03-2020 01:39:17 11.8 C 72 %
587 19-03-2020 01:49:17 11.8 C 72 %
588 19-03-2020 01:59:17 11.8 C 72 %
589 19-03-2020 02:09:18 11.8 C 72 %
590 19-03-2020 02:19:17 11.8 C 72 %
591 19-03-2020 02:29:17 11.8 C 72 %
592 19-03-2020 02:39:17 11.8 C 72 %
593 19-03-2020 02:49:18 11.8 C 72 %
594 19-03-2020 02:59:18 11.8 C 72 %
595 19-03-2020 03:09:18 11.8 C 72 %
596 19-03-2020 03:19:18 11.8 C 72 %
597 19-03-2020 03:29:18 11.8 C 72 %
598 19-03-2020 03:39:17 11.8 C 72 %
599 19-03-2020 03:49:18 11.8 C 72 %
600 19-03-2020 03:59:18 11.8 C 72 %
Sensor: Nr:Datum:Temp:Feuchte:
G-T/H 601 19-03-2020 04:09:18 11.8 C 71 %
602 19-03-2020 04:19:17 11.8 C 71 %
603 19-03-2020 04:29:17 11.8 C 71 %
604 19-03-2020 04:39:17 11.8 C 71 %
605 19-03-2020 04:49:18 11.8 C 71 %
606 19-03-2020 04:59:18 11.8 C 71 %
607 19-03-2020 05:09:18 11.8 C 71 %
608 19-03-2020 05:19:18 11.8 C 71 %
609 19-03-2020 05:29:18 11.8 C 71 %
610 19-03-2020 05:39:18 11.8 C 71 %
611 19-03-2020 05:49:17 11.8 C 71 %
612 19-03-2020 05:59:18 11.8 C 71 %
613 19-03-2020 06:09:18 11.8 C 71 %
614 19-03-2020 06:19:17 11.8 C 71 %
615 19-03-2020 06:29:17 11.8 C 71 %
616 19-03-2020 06:39:17 11.8 C 71 %
617 19-03-2020 06:49:17 11.8 C 71 %
618 19-03-2020 06:59:17 11.8 C 71 %
619 19-03-2020 07:09:17 11.8 C 71 %
620 19-03-2020 07:19:17 11.8 C 71 %
621 19-03-2020 07:29:17 11.8 C 71 %
622 19-03-2020 07:39:18 11.8 C 71 %
623 19-03-2020 07:49:18 11.8 C 71 %
624 19-03-2020 07:59:18 11.8 C 71 %
625 19-03-2020 08:09:18 11.8 C 71 %
Sensor: Nr:Datum:Temp:Feuchte:
G-T/H 626 19-03-2020 08:19:17 11.8 C 71 %
627 19-03-2020 08:29:17 11.8 C 71 %
628 19-03-2020 08:39:17 11.8 C 71 %
629 19-03-2020 08:49:18 11.8 C 71 %
630 19-03-2020 08:59:18 11.8 C 71 %
631 19-03-2020 09:09:17 11.8 C 72 %
632 19-03-2020 09:19:17 11.8 C 72 %
633 19-03-2020 09:29:17 11.8 C 72 %
634 19-03-2020 09:39:18 11.8 C 72 %
635 19-03-2020 09:49:17 11.8 C 72 %
636 19-03-2020 09:59:17 11.8 C 72 %
637 19-03-2020 10:09:18 11.8 C 72 %
638 19-03-2020 10:19:18 11.8 C 72 %
639 19-03-2020 10:29:18 11.8 C 72 %
640 19-03-2020 10:39:17 11.8 C 72 %
641 19-03-2020 10:49:17 11.8 C 72 %
642 19-03-2020 10:59:17 11.8 C 72 %
643 19-03-2020 11:09:17 11.8 C 72 %
644 19-03-2020 11:19:17 11.9 C 72 %
645 19-03-2020 11:29:17 11.9 C 72 %
646 19-03-2020 11:39:17 11.9 C 72 %
647 19-03-2020 11:49:17 11.9 C 72 %
648 19-03-2020 11:59:17 11.9 C 72 %
649 19-03-2020 12:09:17 11.9 C 72 %
650 19-03-2020 12:19:17 11.9 C 72 %
Sensor: Nr:Datum:Temp:Feuchte:
G-T/H 651 19-03-2020 12:29:17 11.9 C 72 %
652 19-03-2020 12:39:18 11.9 C 72 %
653 19-03-2020 12:49:17 11.9 C 72 %
654 19-03-2020 12:59:17 11.9 C 72 %
655 19-03-2020 13:09:18 12 C 71 %
656 19-03-2020 13:19:18 12 C 71 %
657 19-03-2020 13:29:18 12 C 71 %
658 19-03-2020 13:39:18 12 C 71 %
659 19-03-2020 13:49:17 12 C 71 %
660 19-03-2020 13:59:17 12.1 C 71 %
661 19-03-2020 14:09:17 12.1 C 71 %
662 19-03-2020 14:19:17 12.1 C 71 %
663 19-03-2020 14:29:17 12.2 C 71 %
664 19-03-2020 14:39:17 12.6 C 69 %
665 19-03-2020 14:49:17 12.8 C 67 %
666 19-03-2020 14:59:17 13 C 64 %
667 19-03-2020 15:09:18 13.2 C 63 %
668 19-03-2020 15:19:18 13.2 C 62 %
669 19-03-2020 15:29:18 13.3 C 61 %
670 19-03-2020 15:39:18 13.4 C 61 %
671 19-03-2020 15:49:17 13.4 C 60 %
672 19-03-2020 15:59:18 13.5 C 60 %
673 19-03-2020 16:09:18 13.5 C 60 %
674 19-03-2020 16:20:17 13.6 C 59 %
675 19-03-2020 16:29:17 13.7 C 58 %
Sensor: Nr:Datum:Temp:Feuchte:
G-T/H 676 19-03-2020 16:39:17 13.8 C 57 %
677 19-03-2020 16:49:17 13.8 C 57 %
678 19-03-2020 16:59:17 13.9 C 56 %
679 19-03-2020 17:09:18 13.8 C 56 %
680 19-03-2020 17:19:18 13.8 C 56 %
681 19-03-2020 17:29:18 13.8 C 56 %
682 19-03-2020 17:39:18 13.8 C 56 %
683 19-03-2020 17:49:18 13.8 C 56 %
684 19-03-2020 17:59:18 13.9 C 57 %
685 19-03-2020 18:09:18 13.9 C 57 %
686 19-03-2020 18:20:17 13.9 C 58 %
687 19-03-2020 18:30:17 13.8 C 58 %
688 19-03-2020 18:40:17 13.7 C 59 %
689 19-03-2020 18:50:17 13.6 C 59 %
690 19-03-2020 18:59:18 13.5 C 60 %
691 19-03-2020 19:09:18 13.4 C 60 %
692 19-03-2020 19:20:17 13.2 C 60 %
693 19-03-2020 19:30:17 13.1 C 60 %
694 19-03-2020 19:40:17 12.9 C 61 %
695 19-03-2020 19:50:17 12.8 C 61 %
696 19-03-2020 19:59:17 12.8 C 61 %
697 19-03-2020 20:09:17 12.7 C 61 %
698 19-03-2020 20:29:17 12.7 C 61 %
699 19-03-2020 20:29:17 12.7 C 62 %
700 19-03-2020 20:39:17 12.7 C 62 %
Sensor: Nr:Datum:Temp:Feuchte:
G-T/H 701 19-03-2020 20:49:17 12.7 C 62 %
702 19-03-2020 20:59:17 12.7 C 62 %
703 19-03-2020 21:09:18 12.7 C 63 %
704 19-03-2020 21:20:17 12.8 C 63 %
705 19-03-2020 21:30:17 12.8 C 63 %
706 19-03-2020 21:40:17 12.8 C 63 %
707 19-03-2020 21:50:17 12.8 C 63 %
708 19-03-2020 21:59:18 12.8 C 64 %
709 19-03-2020 22:09:18 12.8 C 64 %
710 19-03-2020 22:19:18 12.8 C 64 %
711 19-03-2020 22:29:18 12.8 C 64 %
712 19-03-2020 22:39:18 12.8 C 64 %
713 19-03-2020 22:49:18 12.8 C 64 %
714 19-03-2020 22:59:18 12.8 C 65 %
715 19-03-2020 23:09:18 12.8 C 65 %
716 19-03-2020 23:20:17 12.8 C 65 %
717 19-03-2020 23:30:17 12.8 C 65 %
718 19-03-2020 23:40:17 12.8 C 65 %
719 19-03-2020 23:50:17 12.8 C 65 %
720 19-03-2020 23:59:18 12.8 C 65 %
721 20-03-2020 00:09:18 12.8 C 66 %
722 20-03-2020 00:19:18 12.8 C 66 %
723 20-03-2020 00:29:18 12.8 C 66 %
724 20-03-2020 00:39:18 12.8 C 66 %
725 20-03-2020 00:59:17 12.8 C 66 %
Sensor: Nr:Datum:Temp:Feuchte:
G-T/H 726 20-03-2020 01:00:18 12.8 C 66 %
727 20-03-2020 01:10:18 12.8 C 66 %
728 20-03-2020 01:20:17 12.8 C 66 %
729 20-03-2020 01:30:18 12.8 C 66 %
730 20-03-2020 01:40:18 12.8 C 66 %
731 20-03-2020 01:50:17 12.8 C 66 %
732 20-03-2020 02:00:18 12.8 C 66 %
733 20-03-2020 02:10:18 12.8 C 66 %
734 20-03-2020 02:20:17 12.8 C 67 %
735 20-03-2020 02:30:17 12.8 C 67 %
736 20-03-2020 02:40:17 12.7 C 67 %
737 20-03-2020 02:50:17 12.8 C 67 %
738 20-03-2020 03:00:17 12.7 C 67 %
739 20-03-2020 03:10:17 12.7 C 67 %
740 20-03-2020 03:20:17 12.7 C 67 %
741 20-03-2020 03:30:18 12.7 C 67 %
742 20-03-2020 03:40:18 12.7 C 67 %
743 20-03-2020 03:50:17 12.7 C 67 %
744 20-03-2020 04:00:18 12.7 C 67 %
745 20-03-2020 04:10:18 12.7 C 67 %
746 20-03-2020 04:20:18 12.7 C 67 %
747 20-03-2020 04:30:18 12.7 C 67 %
748 20-03-2020 04:40:18 12.7 C 67 %
749 20-03-2020 04:50:17 12.6 C 67 %
750 20-03-2020 05:00:18 12.6 C 67 %
Sensor: Nr:Datum:Temp:Feuchte:
G-T/H 751 20-03-2020 05:10:18 12.7 C 67 %
752 20-03-2020 05:20:17 12.6 C 67 %
753 20-03-2020 05:30:17 12.6 C 67 %
754 20-03-2020 05:40:17 12.6 C 67 %
755 20-03-2020 05:50:17 12.5 C 67 %
756 20-03-2020 06:00:17 12.5 C 67 %
757 20-03-2020 06:10:17 12.5 C 67 %
758 20-03-2020 06:20:17 12.5 C 67 %
759 20-03-2020 06:30:17 12.5 C 67 %
760 20-03-2020 06:40:17 12.5 C 67 %
761 20-03-2020 06:50:17 12.5 C 67 %
762 20-03-2020 07:00:17 12.5 C 67 %
763 20-03-2020 07:10:17 12.5 C 67 %
764 20-03-2020 07:20:17 12.4 C 67 %
765 20-03-2020 07:30:17 12.5 C 67 %
766 20-03-2020 07:40:17 12.4 C 67 %
767 20-03-2020 07:50:18 12.4 C 67 %
768 20-03-2020 08:00:17 12.4 C 67 %
769 20-03-2020 08:10:17 12.4 C 67 %
770 20-03-2020 08:20:17 12.4 C 67 %
771 20-03-2020 08:30:17 12.4 C 67 %
772 20-03-2020 08:40:17 12.4 C 67 %
773 20-03-2020 08:50:17 12.4 C 67 %
774 20-03-2020 09:00:17 12.4 C 67 %
775 20-03-2020 09:10:17 12.3 C 67 %
Sensor: Nr:Datum:Temp:Feuchte:
G-T/H 776 20-03-2020 09:20:17 12.4 C 67 %
777 20-03-2020 09:30:17 12.4 C 67 %
778 20-03-2020 09:40:17 12.4 C 68 %
779 20-03-2020 09:50:17 12.4 C 68 %
780 20-03-2020 10:00:18 12.3 C 68 %
781 20-03-2020 10:10:18 12.3 C 68 %
782 20-03-2020 10:20:18 12.3 C 68 %
783 20-03-2020 10:30:18 12.3 C 68 %
784 20-03-2020 10:40:18 12.3 C 68 %
785 20-03-2020 10:50:18 12.3 C 68 %
786 20-03-2020 11:00:17 12.3 C 68 %
787 20-03-2020 11:10:18 12.3 C 68 %
788 20-03-2020 11:20:18 12.3 C 68 %
789 20-03-2020 11:30:18 12.3 C 68 %
790 20-03-2020 11:40:18 12.3 C 68 %
791 20-03-2020 11:50:18 12.3 C 68 %
792 20-03-2020 12:00:17 12.3 C 68 %
793 20-03-2020 12:10:17 12.3 C 68 %
794 20-03-2020 12:20:17 12.3 C 68 %
795 20-03-2020 12:30:18 12.3 C 68 %
796 20-03-2020 12:40:18 12.3 C 68 %
797 20-03-2020 12:50:18 12.3 C 68 %
798 20-03-2020 13:00:18 12.3 C 68 %
799 20-03-2020 13:10:18 12.4 C 68 %
800 20-03-2020 13:20:18 12.4 C 69 %
Sensor: Nr:Datum:Temp:Feuchte:
G-T/H 801 20-03-2020 13:30:18 12.4 C 69 %
802 20-03-2020 13:40:18 12.4 C 69 %
803 20-03-2020 13:50:17 12.4 C 69 %
804 20-03-2020 14:00:17 12.4 C 69 %
805 20-03-2020 14:10:17 12.4 C 69 %
806 20-03-2020 14:20:17 12.4 C 69 %
807 20-03-2020 14:30:18 12.4 C 69 %
808 20-03-2020 14:40:18 12.4 C 69 %
809 20-03-2020 14:50:18 12.4 C 69 %
810 20-03-2020 15:00:17 12.4 C 69 %
811 20-03-2020 15:10:17 12.4 C 69 %
812 20-03-2020 15:20:17 12.5 C 69 %
813 20-03-2020 15:30:18 12.5 C 69 %
814 20-03-2020 15:40:18 12.5 C 69 %
815 20-03-2020 15:50:18 12.4 C 69 %
816 20-03-2020 16:00:17 12.5 C 69 %
817 20-03-2020 16:10:17 12.5 C 69 %
818 20-03-2020 16:20:17 12.5 C 69 %
819 20-03-2020 16:30:18 12.5 C 69 %
820 20-03-2020 16:40:18 12.5 C 69 %
821 20-03-2020 16:50:18 12.5 C 69 %
822 20-03-2020 17:00:18 12.6 C 69 %
823 20-03-2020 17:10:18 12.7 C 69 %
824 20-03-2020 17:20:18 12.8 C 69 %
825 20-03-2020 17:30:18 12.8 C 68 %
Sensor: Nr:Datum:Temp:Feuchte:
G-T/H 826 20-03-2020 17:40:18 12.7 C 68 %
827 20-03-2020 17:50:17 12.7 C 68 %
828 20-03-2020 18:00:17 12.6 C 68 %
829 20-03-2020 18:10:17 12.7 C 68 %
830 20-03-2020 18:20:17 12.6 C 68 %
831 20-03-2020 18:30:17 12.6 C 68 %
832 20-03-2020 18:40:17 12.6 C 68 %
833 20-03-2020 18:50:18 12.6 C 68 %
834 20-03-2020 19:00:17 12.6 C 68 %
835 20-03-2020 19:10:17 12.6 C 68 %
836 20-03-2020 19:20:17 12.6 C 68 %
837 20-03-2020 19:30:17 12.6 C 68 %
838 20-03-2020 19:40:17 12.6 C 68 %
839 20-03-2020 19:50:17 12.6 C 68 %
840 20-03-2020 20:00:17 12.6 C 68 %
841 20-03-2020 20:10:17 12.6 C 68 %
842 20-03-2020 20:20:17 12.6 C 68 %
843 20-03-2020 20:30:17 12.6 C 68 %
844 20-03-2020 20:40:17 12.6 C 68 %
845 20-03-2020 20:50:18 12.6 C 68 %
846 20-03-2020 21:00:18 12.6 C 68 %
847 20-03-2020 21:10:18 12.6 C 68 %
848 20-03-2020 21:20:17 12.6 C 68 %
849 20-03-2020 21:30:17 12.6 C 68 %
850 20-03-2020 21:40:17 12.5 C 68 %
Sensor: Nr:Datum:Temp:Feuchte:
G-T/H 851 20-03-2020 21:50:17 12.5 C 68 %
852 20-03-2020 22:00:17 12.5 C 67 %
853 20-03-2020 22:10:17 12.5 C 67 %
854 20-03-2020 22:20:18 12.5 C 67 %
855 20-03-2020 22:30:17 12.5 C 67 %
856 20-03-2020 22:40:18 12.5 C 67 %
857 20-03-2020 22:50:17 12.5 C 67 %
858 20-03-2020 23:00:18 12.5 C 67 %
859 20-03-2020 23:10:18 12.5 C 67 %
860 20-03-2020 23:20:17 12.5 C 67 %
861 20-03-2020 23:30:18 12.5 C 67 %
862 20-03-2020 23:40:18 12.5 C 67 %
863 20-03-2020 23:50:18 12.4 C 66 %
864 21-03-2020 00:00:17 12.5 C 66 %
865 21-03-2020 00:10:17 12.4 C 66 %
866 21-03-2020 00:20:17 12.5 C 66 %
867 21-03-2020 00:30:17 12.4 C 66 %
868 21-03-2020 00:40:17 12.4 C 66 %
869 21-03-2020 00:50:17 12.4 C 66 %
870 21-03-2020 01:00:17 12.4 C 66 %
871 21-03-2020 01:10:17 12.4 C 66 %
872 21-03-2020 01:20:17 12.4 C 66 %
873 21-03-2020 01:30:18 12.4 C 66 %
874 21-03-2020 01:40:18 12.4 C 66 %
875 21-03-2020 01:50:17 12.4 C 66 %
Sensor: Nr:Datum:Temp:Feuchte:
G-T/H 876 21-03-2020 02:00:18 12.3 C 66 %
877 21-03-2020 02:10:18 12.3 C 66 %
878 21-03-2020 02:20:17 12.3 C 66 %
879 21-03-2020 02:30:18 12.3 C 66 %
880 21-03-2020 02:40:18 12.3 C 66 %
881 21-03-2020 02:50:18 12.3 C 66 %
882 21-03-2020 03:00:17 12.3 C 66 %
883 21-03-2020 03:10:17 12.3 C 66 %
884 21-03-2020 03:20:17 12.2 C 66 %
885 21-03-2020 03:30:18 12.2 C 66 %
886 21-03-2020 03:40:18 12.2 C 66 %
887 21-03-2020 03:50:17 12.2 C 66 %
888 21-03-2020 04:00:18 12.2 C 66 %
889 21-03-2020 04:10:18 12.2 C 66 %
890 21-03-2020 04:20:17 12.2 C 66 %
891 21-03-2020 04:30:18 12.1 C 66 %
892 21-03-2020 04:40:18 12.1 C 66 %
893 21-03-2020 04:50:18 12.1 C 66 %
894 21-03-2020 05:00:18 12.1 C 65 %
895 21-03-2020 05:10:18 12 C 65 %
896 21-03-2020 05:20:18 12 C 65 %
897 21-03-2020 05:30:18 12 C 65 %
898 21-03-2020 05:40:18 12 C 65 %
899 21-03-2020 05:50:17 11.9 C 66 %
900 21-03-2020 06:00:18 11.9 C 66 %
Sensor: Nr:Datum:Temp:Feuchte:
G-T/H 901 21-03-2020 06:10:18 12 C 65 %
902 21-03-2020 06:20:17 11.9 C 66 %
903 21-03-2020 06:30:18 11.9 C 66 %
904 21-03-2020 06:40:18 11.9 C 67 %
905 21-03-2020 06:50:17 11.9 C 67 %
906 21-03-2020 07:00:17 11.9 C 67 %
907 21-03-2020 07:10:18 11.9 C 67 %
908 21-03-2020 07:20:18 11.8 C 67 %
909 21-03-2020 07:30:18 11.8 C 66 %
910 21-03-2020 07:40:18 11.8 C 66 %
911 21-03-2020 07:50:17 11.8 C 66 %
912 21-03-2020 08:00:18 11.7 C 66 %
913 21-03-2020 08:10:18 11.7 C 66 %
914 21-03-2020 08:20:17 11.7 C 67 %
915 21-03-2020 08:30:17 11.7 C 67 %
916 21-03-2020 08:40:17 11.7 C 67 %
917 21-03-2020 08:50:18 11.7 C 67 %
918 21-03-2020 09:00:18 11.7 C 67 %
919 21-03-2020 09:10:18 11.7 C 67 %
920 21-03-2020 09:20:18 11.7 C 67 %
921 21-03-2020 09:30:18 11.7 C 67 %
922 21-03-2020 09:40:18 11.6 C 67 %
923 21-03-2020 09:50:17 11.6 C 67 %
924 21-03-2020 10:00:17 11.6 C 67 %
925 21-03-2020 10:10:18 11.6 C 67 %
Sensor: Nr:Datum:Temp:Feuchte:
G-T/H 926 21-03-2020 10:20:18 11.6 C 67 %
927 21-03-2020 10:30:18 11.5 C 67 %
928 21-03-2020 10:40:18 11.5 C 67 %
929 21-03-2020 10:50:17 11.5 C 67 %
930 21-03-2020 11:00:17 11.6 C 67 %
931 21-03-2020 11:10:18 11.5 C 67 %
932 21-03-2020 11:20:18 11.5 C 67 %
933 21-03-2020 11:30:18 11.5 C 67 %
934 21-03-2020 11:40:18 11.5 C 67 %
935 21-03-2020 11:50:18 11.5 C 67 %
936 21-03-2020 12:00:18 11.6 C 67 %
937 21-03-2020 12:10:18 11.5 C 67 %
938 21-03-2020 12:20:17 11.5 C 66 %
939 21-03-2020 12:30:17 11.5 C 66 %
940 21-03-2020 12:40:17 11.5 C 66 %
941 21-03-2020 12:50:17 11.4 C 65 %
942 21-03-2020 13:00:17 11.4 C 65 %
943 21-03-2020 13:10:17 11.4 C 65 %
944 21-03-2020 13:20:18 11.4 C 64 %
945 21-03-2020 13:30:18 11.4 C 64 %
946 21-03-2020 13:40:18 11.4 C 64 %
947 21-03-2020 13:50:17 11.3 C 63 %
948 21-03-2020 14:00:18 11.3 C 63 %
949 21-03-2020 14:10:18 11.3 C 63 %
950 21-03-2020 14:20:18 11.3 C 63 %
Sensor: Nr:Datum:Temp:Feuchte:
G-T/H 951 21-03-2020 14:30:18 11.3 C 62 %
952 21-03-2020 14:40:18 11.3 C 62 %
953 21-03-2020 14:50:17 11.3 C 62 %
954 21-03-2020 15:00:18 11.3 C 62 %
955 21-03-2020 15:10:18 11.3 C 62 %
956 21-03-2020 15:20:17 11.2 C 61 %
957 21-03-2020 15:30:17 11.3 C 61 %
958 21-03-2020 15:40:17 11.3 C 61 %
959 21-03-2020 15:50:17 11.2 C 61 %
960 21-03-2020 16:00:18 11.2 C 60 %
961 21-03-2020 16:10:18 11.2 C 60 %
962 21-03-2020 16:20:17 11.2 C 60 %
963 21-03-2020 16:30:17 11.2 C 60 %
964 21-03-2020 16:40:17 11.2 C 60 %
965 21-03-2020 16:50:17 11.2 C 61 %
966 21-03-2020 17:00:17 11.2 C 61 %
967 21-03-2020 17:10:17 11.2 C 61 %
968 21-03-2020 17:20:17 11.2 C 61 %
969 21-03-2020 17:30:18 11.2 C 61 %
970 21-03-2020 17:40:18 11.2 C 60 %
971 21-03-2020 17:50:17 11.2 C 60 %
972 21-03-2020 18:00:17 11.2 C 60 %
973 21-03-2020 18:10:17 11.2 C 60 %
974 21-03-2020 18:20:17 11.1 C 60 %
975 21-03-2020 18:30:17 11.1 C 60 %
Sensor: Nr:Datum:Temp:Feuchte:
G-T/H 976 21-03-2020 18:40:17 11.1 C 60 %
977 21-03-2020 18:50:17 11.1 C 61 %
978 21-03-2020 19:00:17 11.2 C 61 %
979 21-03-2020 19:10:17 11.1 C 61 %
980 21-03-2020 19:20:17 11.1 C 61 %
981 21-03-2020 19:30:18 11.1 C 61 %
982 21-03-2020 19:40:18 11.1 C 61 %
983 21-03-2020 19:50:17 11.1 C 61 %
984 21-03-2020 20:00:18 11.1 C 61 %
985 21-03-2020 20:10:18 11 C 60 %
986 21-03-2020 20:20:18 11.1 C 60 %
987 21-03-2020 20:30:18 11 C 60 %
988 21-03-2020 20:40:18 11 C 60 %
989 21-03-2020 20:50:17 11 C 60 %
990 21-03-2020 21:00:18 11 C 60 %
991 21-03-2020 21:10:18 11 C 60 %
992 21-03-2020 21:20:18 11 C 60 %
993 21-03-2020 21:30:18 11 C 61 %
994 21-03-2020 21:40:18 11 C 61 %
995 21-03-2020 21:50:17 11 C 61 %
996 21-03-2020 22:00:17 10.9 C 62 %
997 21-03-2020 22:10:17 10.9 C 61 %
998 21-03-2020 22:20:17 10.8 C 61 %
999 21-03-2020 22:30:18 10.8 C 61 %
1000 21-03-2020 22:40:18 10.8 C 61 %
Sensor: Nr:Datum:Temp:Feuchte:
G-T/H 1001 21-03-2020 22:50:18 10.8 C 61 %
1002 21-03-2020 23:00:18 10.8 C 61 %
1003 21-03-2020 23:10:18 10.8 C 60 %
1004 21-03-2020 23:20:18 10.8 C 61 %
1005 21-03-2020 23:30:18 10.7 C 60 %
1006 21-03-2020 23:40:18 10.7 C 60 %
1007 21-03-2020 23:50:17 10.7 C 60 %
1008 22-03-2020 00:00:18 10.7 C 60 %
1009 22-03-2020 00:10:18 10.6 C 60 %
1010 22-03-2020 00:20:17 10.6 C 60 %
1011 22-03-2020 00:30:17 10.6 C 60 %
1012 22-03-2020 00:40:17 10.5 C 60 %
1013 22-03-2020 00:50:17 10.5 C 60 %
1014 22-03-2020 01:00:18 10.5 C 59 %
1015 22-03-2020 01:10:18 10.5 C 59 %
1016 22-03-2020 01:20:18 10.4 C 59 %
1017 22-03-2020 01:30:18 10.4 C 59 %
1018 22-03-2020 01:40:18 10.4 C 59 %
1019 22-03-2020 01:50:18 10.4 C 59 %
1020 22-03-2020 02:00:18 10.4 C 59 %
1021 22-03-2020 02:10:18 10.3 C 59 %
1022 22-03-2020 02:20:17 10.3 C 58 %
1023 22-03-2020 02:30:18 10.3 C 58 %
1024 22-03-2020 02:40:18 10.2 C 58 %
1025 22-03-2020 02:50:18 10.2 C 58 %
Sensor: Nr:Datum:Temp:Feuchte:
G-T/H 1026 22-03-2020 03:00:18 10.2 C 58 %
1027 22-03-2020 03:10:18 10.2 C 58 %
1028 22-03-2020 03:20:18 10.1 C 58 %
1029 22-03-2020 03:30:18 10.1 C 58 %
1030 22-03-2020 03:40:18 10.1 C 58 %
1031 22-03-2020 03:50:17 10.1 C 58 %
1032 22-03-2020 04:00:17 10.1 C 58 %
1033 22-03-2020 04:10:17 10 C 58 %
1034 22-03-2020 04:20:17 10 C 58 %
1035 22-03-2020 04:30:17 10 C 58 %
1036 22-03-2020 04:40:17 10 C 59 %
1037 22-03-2020 04:50:17 10 C 59 %
1038 22-03-2020 05:00:18 10 C 59 %
1039 22-03-2020 05:10:18 10 C 59 %
1040 22-03-2020 05:20:17 9.9 C 60 %
1041 22-03-2020 05:30:18 9.9 C 60 %
1042 22-03-2020 05:40:18 9.9 C 61 %
1043 22-03-2020 05:50:17 9.8 C 61 %
1044 22-03-2020 06:00:17 9.9 C 61 %
1045 22-03-2020 06:10:17 9.8 C 61 %
1046 22-03-2020 06:20:17 9.8 C 61 %
1047 22-03-2020 06:30:17 9.8 C 61 %
1048 22-03-2020 06:40:17 9.8 C 61 %
1049 22-03-2020 06:50:18 9.8 C 61 %
1050 22-03-2020 07:00:18 9.8 C 61 %
Sensor: Nr:Datum:Temp:Feuchte:
G-T/H 1051 22-03-2020 07:10:18 9.7 C 61 %
1052 22-03-2020 07:20:18 9.7 C 61 %
1053 22-03-2020 07:30:18 9.7 C 61 %
1054 22-03-2020 07:40:18 9.7 C 61 %
1055 22-03-2020 07:50:17 9.7 C 61 %
1056 22-03-2020 08:00:18 9.7 C 61 %
1057 22-03-2020 08:10:18 9.6 C 61 %
1058 22-03-2020 08:20:18 9.6 C 61 %
1059 22-03-2020 08:30:18 9.6 C 61 %
1060 22-03-2020 08:40:18 9.6 C 61 %
1061 22-03-2020 08:50:18 9.5 C 61 %
1062 22-03-2020 09:00:18 9.5 C 61 %
1063 22-03-2020 09:10:18 9.5 C 62 %
1064 22-03-2020 09:20:18 9.5 C 62 %
1065 22-03-2020 09:30:18 9.5 C 61 %
1066 22-03-2020 09:40:18 9.5 C 61 %
1067 22-03-2020 09:50:17 9.5 C 61 %
1068 22-03-2020 10:00:18 9.4 C 61 %
1069 22-03-2020 10:10:18 9.4 C 62 %
1070 22-03-2020 10:20:18 9.4 C 62 %
1071 22-03-2020 10:30:18 9.4 C 61 %
1072 22-03-2020 10:40:18 9.4 C 61 %
1073 22-03-2020 10:50:17 9.4 C 61 %
1074 22-03-2020 11:00:18 9.4 C 61 %
1075 22-03-2020 11:10:18 9.4 C 61 %
Sensor: Nr:Datum:Temp:Feuchte:
G-T/H 1076 22-03-2020 11:20:17 9.3 C 61 %
1077 22-03-2020 11:30:18 9.3 C 61 %
1078 22-03-2020 11:40:18 9.3 C 61 %
1079 22-03-2020 11:50:17 9.3 C 61 %
1080 22-03-2020 12:00:18 9.4 C 61 %
1081 22-03-2020 12:10:18 9.3 C 61 %
1082 22-03-2020 12:20:18 9.3 C 61 %
1083 22-03-2020 12:30:17 9.3 C 61 %
1084 22-03-2020 12:40:17 9.3 C 61 %
1085 22-03-2020 12:50:18 9.3 C 61 %
1086 22-03-2020 13:00:18 9.3 C 61 %
1087 22-03-2020 13:10:18 9.3 C 61 %
1088 22-03-2020 13:20:17 9.3 C 61 %
1089 22-03-2020 13:30:18 9.3 C 61 %
1090 22-03-2020 13:40:18 9.3 C 61 %
1091 22-03-2020 13:50:18 9.3 C 61 %
1092 22-03-2020 14:00:17 9.3 C 61 %
1093 22-03-2020 14:10:17 9.3 C 61 %
1094 22-03-2020 14:20:17 9.3 C 61 %
1095 22-03-2020 14:30:17 9.3 C 61 %
1096 22-03-2020 14:40:17 9.3 C 61 %
1097 22-03-2020 14:50:17 9.3 C 61 %
1098 22-03-2020 15:00:18 9.3 C 61 %
1099 22-03-2020 15:10:18 9.4 C 61 %
1100 22-03-2020 15:20:17 9.4 C 61 %
Sensor: Nr:Datum:Temp:Feuchte:
G-T/H 1101 22-03-2020 15:30:17 9.4 C 61 %
1102 22-03-2020 15:40:17 9.4 C 61 %
1103 22-03-2020 15:50:18 9.4 C 62 %
1104 22-03-2020 16:00:18 9.4 C 62 %
1105 22-03-2020 16:10:18 9.4 C 62 %
1106 22-03-2020 16:20:18 9.4 C 62 %
1107 22-03-2020 16:30:18 9.5 C 62 %
1108 22-03-2020 16:40:18 9.5 C 62 %
1109 22-03-2020 16:50:17 9.4 C 62 %
1110 22-03-2020 17:00:17 9.5 C 62 %
1111 22-03-2020 17:10:17 9.4 C 62 %
1112 22-03-2020 17:20:17 9.5 C 62 %
1113 22-03-2020 17:30:17 9.5 C 62 %
1114 22-03-2020 17:40:17 9.5 C 62 %
1115 22-03-2020 17:50:17 9.5 C 62 %
1116 22-03-2020 18:00:18 9.5 C 62 %
1117 22-03-2020 18:10:18 9.5 C 62 %
1118 22-03-2020 18:20:17 9.5 C 62 %
1119 22-03-2020 18:30:17 9.5 C 62 %
1120 22-03-2020 18:40:17 9.5 C 63 %
1121 22-03-2020 18:50:17 9.5 C 63 %
1122 22-03-2020 19:00:17 9.5 C 63 %
1123 22-03-2020 19:10:17 9.5 C 63 %
1124 22-03-2020 19:20:17 9.5 C 63 %
1125 22-03-2020 19:30:17 9.5 C 63 %
Sensor: Nr:Datum:Temp:Feuchte:
G-T/H 1126 22-03-2020 19:40:17 9.5 C 63 %
1127 22-03-2020 19:50:18 9.5 C 63 %
1128 22-03-2020 20:00:18 9.5 C 63 %
1129 22-03-2020 20:10:18 9.5 C 64 %
1130 22-03-2020 20:20:17 9.5 C 64 %
1131 22-03-2020 20:30:17 9.5 C 64 %
1132 22-03-2020 20:40:17 9.5 C 64 %
1133 22-03-2020 20:50:17 9.5 C 64 %
1134 22-03-2020 21:00:17 9.5 C 64 %
1135 22-03-2020 21:10:17 9.5 C 64 %
1136 22-03-2020 21:20:17 9.5 C 64 %
1137 22-03-2020 21:30:17 9.5 C 64 %
1138 22-03-2020 21:40:17 9.5 C 64 %
1139 22-03-2020 21:50:18 9.5 C 64 %
1140 22-03-2020 22:00:18 9.5 C 64 %
1141 22-03-2020 22:10:18 9.5 C 64 %
1142 22-03-2020 22:20:17 9.5 C 64 %
1143 22-03-2020 22:30:17 9.5 C 64 %
1144 22-03-2020 22:40:17 9.5 C 64 %
1145 22-03-2020 22:50:17 9.5 C 64 %
1146 22-03-2020 23:00:17 9.5 C 64 %
1147 22-03-2020 23:10:17 9.4 C 64 %
1148 22-03-2020 23:20:17 9.4 C 64 %
1149 22-03-2020 23:30:18 9.4 C 64 %
1150 22-03-2020 23:40:18 9.4 C 64 %
Sensor: Nr:Datum:Temp:Feuchte:
G-T/H 1151 22-03-2020 23:50:18 9.4 C 63 %
1152 23-03-2020 00:00:18 9.4 C 63 %
1153 23-03-2020 00:10:18 9.4 C 63 %
1154 23-03-2020 00:20:17 9.4 C 63 %
1155 23-03-2020 00:30:17 9.4 C 63 %
1156 23-03-2020 00:40:17 9.3 C 63 %
1157 23-03-2020 00:50:18 9.3 C 63 %
1158 23-03-2020 01:00:17 9.3 C 63 %
1159 23-03-2020 01:10:17 9.3 C 63 %
1160 23-03-2020 01:20:17 9.3 C 63 %
1161 23-03-2020 01:30:18 9.3 C 63 %
1162 23-03-2020 01:40:18 9.2 C 63 %
1163 23-03-2020 01:50:18 9.2 C 63 %
1164 23-03-2020 02:00:18 9.2 C 63 %
1165 23-03-2020 02:10:18 9.2 C 63 %
1166 23-03-2020 02:20:17 9.2 C 63 %
1167 23-03-2020 02:30:17 9.2 C 63 %
1168 23-03-2020 02:40:17 9.1 C 63 %
1169 23-03-2020 02:50:17 9.1 C 63 %
1170 23-03-2020 03:00:17 9.1 C 63 %
1171 23-03-2020 03:10:18 9.1 C 63 %
1172 23-03-2020 03:20:18 9.1 C 63 %
1173 23-03-2020 03:30:18 9.1 C 63 %
1174 23-03-2020 03:40:18 9.1 C 63 %
1175 23-03-2020 03:50:18 9 C 62 %
Sensor: Nr:Datum:Temp:Feuchte:
G-T/H 1176 23-03-2020 04:00:18 9 C 62 %
1177 23-03-2020 04:10:18 9 C 62 %
1178 23-03-2020 04:20:17 9 C 62 %
1179 23-03-2020 04:30:17 9 C 62 %
1180 23-03-2020 04:40:17 9 C 62 %
1181 23-03-2020 04:50:17 8.9 C 63 %
1182 23-03-2020 05:00:18 8.9 C 63 %
1183 23-03-2020 05:10:18 8.9 C 63 %
1184 23-03-2020 05:20:17 8.9 C 63 %
1185 23-03-2020 05:30:18 8.9 C 63 %
1186 23-03-2020 05:40:18 8.8 C 63 %
1187 23-03-2020 05:50:17 8.8 C 63 %
1188 23-03-2020 06:00:18 8.8 C 63 %
1189 23-03-2020 06:10:18 8.8 C 63 %
1190 23-03-2020 06:20:17 8.8 C 63 %
1191 23-03-2020 06:30:18 8.7 C 63 %
1192 23-03-2020 06:40:18 8.7 C 63 %
1193 23-03-2020 06:50:18 8.7 C 63 %
1194 23-03-2020 07:00:18 8.7 C 62 %
1195 23-03-2020 07:10:18 8.6 C 62 %
1196 23-03-2020 07:20:18 8.6 C 62 %
1197 23-03-2020 07:30:18 8.6 C 62 %
1198 23-03-2020 07:40:18 8.6 C 62 %
1199 23-03-2020 07:50:18 8.6 C 62 %
1200 23-03-2020 08:00:18 8.6 C 62 %
Sensor: Nr:Datum:Temp:Feuchte:
G-T/H 1201 23-03-2020 08:10:18 8.5 C 62 %
1202 23-03-2020 08:20:17 8.5 C 62 %
1203 23-03-2020 08:30:18 8.5 C 62 %
1204 23-03-2020 08:40:18 8.5 C 62 %
1205 23-03-2020 08:50:18 8.5 C 62 %
1206 23-03-2020 09:00:18 8.5 C 62 %
1207 23-03-2020 09:10:18 8.5 C 62 %
1208 23-03-2020 09:20:18 8.5 C 62 %
1209 23-03-2020 09:30:17 8.4 C 62 %
1210 23-03-2020 09:40:17 8.4 C 62 %
1211 23-03-2020 09:50:18 8.4 C 62 %
1212 23-03-2020 10:00:18 8.4 C 62 %
1213 23-03-2020 10:10:18 8.4 C 62 %
1214 23-03-2020 10:20:18 8.4 C 62 %
1215 23-03-2020 10:30:17 8.4 C 62 %
1216 23-03-2020 10:40:17 8.4 C 62 %
1217 23-03-2020 10:50:17 8.4 C 62 %
1218 23-03-2020 11:00:17 8.4 C 62 %
1219 23-03-2020 11:10:17 8.4 C 62 %
1220 23-03-2020 11:20:17 8.4 C 62 %
1221 23-03-2020 11:30:18 8.4 C 62 %
1222 23-03-2020 11:40:18 8.4 C 62 %
1223 23-03-2020 11:50:17 8.4 C 62 %
1224 23-03-2020 12:00:18 8.4 C 62 %
1225 23-03-2020 12:10:18 8.4 C 62 %
Sensor: Nr:Datum:Temp:Feuchte:
G-T/H 1226 23-03-2020 12:20:18 8.4 C 62 %
1227 23-03-2020 12:30:18 8.4 C 62 %
1228 23-03-2020 12:40:18 8.4 C 62 %
1229 23-03-2020 12:50:18 8.4 C 62 %
1230 23-03-2020 13:00:17 8.4 C 62 %
1231 23-03-2020 13:10:17 8.4 C 62 %
1232 23-03-2020 13:20:17 8.4 C 62 %
1233 23-03-2020 13:30:17 8.4 C 62 %
1234 23-03-2020 13:40:17 8.4 C 62 %
1235 23-03-2020 13:50:17 8.4 C 62 %
1236 23-03-2020 14:00:18 8.4 C 62 %
1237 23-03-2020 14:10:18 8.4 C 62 %
1238 23-03-2020 14:20:18 8.4 C 62 %
1239 23-03-2020 14:30:18 8.4 C 62 %
1240 23-03-2020 14:40:18 8.4 C 63 %
1241 23-03-2020 14:50:18 8.4 C 63 %
1242 23-03-2020 15:00:18 8.4 C 63 %
1243 23-03-2020 15:10:18 8.4 C 63 %
1244 23-03-2020 15:20:17 8.4 C 63 %
1245 23-03-2020 15:30:17 8.5 C 63 %
1246 23-03-2020 15:40:17 8.5 C 63 %
1247 23-03-2020 15:50:17 8.5 C 63 %
1248 23-03-2020 16:00:17 8.5 C 63 %
1249 23-03-2020 16:10:17 8.5 C 63 %
1250 23-03-2020 16:20:17 8.5 C 63 %
Sensor: Nr:Datum:Temp:Feuchte:
G-T/H 1251 23-03-2020 16:30:18 8.5 C 63 %
1252 23-03-2020 16:40:18 8.6 C 63 %
1253 23-03-2020 16:50:17 8.5 C 63 %
1254 23-03-2020 17:00:18 8.5 C 63 %
1255 23-03-2020 17:10:18 8.5 C 63 %
1256 23-03-2020 17:20:18 8.6 C 63 %
1257 23-03-2020 17:30:18 8.6 C 63 %
1258 23-03-2020 17:40:18 8.6 C 63 %
1259 23-03-2020 17:50:17 8.6 C 63 %
1260 23-03-2020 18:00:18 8.6 C 63 %
1261 23-03-2020 18:10:18 8.6 C 64 %
1262 23-03-2020 18:20:17 8.6 C 64 %
1263 23-03-2020 18:30:18 8.6 C 64 %
1264 23-03-2020 18:40:18 8.6 C 64 %
1265 23-03-2020 18:50:18 8.6 C 64 %
1266 23-03-2020 19:00:18 8.6 C 64 %
1267 23-03-2020 19:10:18 8.6 C 64 %
1268 23-03-2020 19:20:17 8.6 C 64 %
1269 23-03-2020 19:30:18 8.6 C 64 %
1270 23-03-2020 19:40:18 8.6 C 64 %
1271 23-03-2020 19:50:18 8.6 C 64 %
1272 23-03-2020 20:00:17 8.6 C 64 %
1273 23-03-2020 20:10:17 8.6 C 64 %
1274 23-03-2020 20:20:17 8.6 C 64 %
1275 23-03-2020 20:30:18 8.6 C 64 %
Sensor: Nr:Datum:Temp:Feuchte:
G-T/H 1276 23-03-2020 20:40:18 8.6 C 64 %
1277 23-03-2020 20:50:18 8.6 C 64 %
1278 23-03-2020 21:00:18 8.6 C 64 %
1279 23-03-2020 21:10:18 8.6 C 64 %
1280 23-03-2020 21:20:17 8.6 C 64 %
1281 23-03-2020 21:30:18 8.6 C 64 %
1282 23-03-2020 21:40:18 8.6 C 64 %
1283 23-03-2020 21:50:18 8.6 C 64 %
1284 23-03-2020 22:00:17 8.6 C 64 %
1285 23-03-2020 22:10:18 8.6 C 64 %
1286 23-03-2020 22:20:18 8.6 C 64 %
1287 23-03-2020 22:30:18 8.6 C 64 %
1288 23-03-2020 22:40:18 8.6 C 64 %
1289 23-03-2020 22:50:18 8.6 C 64 %
1290 23-03-2020 23:00:18 8.6 C 64 %
1291 23-03-2020 23:10:18 8.6 C 64 %
1292 23-03-2020 23:20:17 8.6 C 64 %
1293 23-03-2020 23:30:17 8.6 C 64 %
1294 23-03-2020 23:40:17 8.6 C 64 %
1295 23-03-2020 23:50:18 8.5 C 64 %
1296 24-03-2020 00:00:18 8.5 C 64 %
1297 24-03-2020 00:10:18 8.5 C 64 %
1298 24-03-2020 00:20:17 8.5 C 64 %
1299 24-03-2020 00:30:18 8.5 C 64 %
1300 24-03-2020 00:40:18 8.5 C 64 %
Sensor: Nr:Datum:Temp:Feuchte:
G-T/H 1301 24-03-2020 00:50:18 8.5 C 64 %
1302 24-03-2020 01:00:18 8.5 C 64 %
1303 24-03-2020 01:10:18 8.5 C 64 %
1304 24-03-2020 01:20:18 8.4 C 64 %
1305 24-03-2020 01:30:18 8.4 C 64 %
1306 24-03-2020 01:40:18 8.4 C 64 %
1307 24-03-2020 01:50:18 8.4 C 64 %
1308 24-03-2020 02:00:18 8.4 C 64 %
1309 24-03-2020 02:10:18 8.4 C 63 %
1310 24-03-2020 02:20:17 8.4 C 63 %
1311 24-03-2020 02:30:17 8.4 C 63 %
1312 24-03-2020 02:40:17 8.3 C 63 %
1313 24-03-2020 02:50:17 8.3 C 63 %
1314 24-03-2020 03:00:17 8.3 C 63 %
1315 24-03-2020 03:10:17 8.2 C 63 %
1316 24-03-2020 03:20:17 8.3 C 63 %
1317 24-03-2020 03:30:17 8.3 C 63 %
1318 24-03-2020 03:40:17 8.3 C 63 %
1319 24-03-2020 03:50:17 8.2 C 63 %
1320 24-03-2020 04:00:18 8.2 C 63 %
1321 24-03-2020 04:10:18 8.2 C 63 %
1322 24-03-2020 04:20:18 8.2 C 63 %
1323 24-03-2020 04:30:18 8.1 C 63 %
1324 24-03-2020 04:40:18 8.1 C 63 %
1325 24-03-2020 04:50:17 8.1 C 63 %
Sensor: Nr:Datum:Temp:Feuchte:
G-T/H 1326 24-03-2020 05:00:17 8.1 C 63 %
1327 24-03-2020 05:10:17 8.1 C 63 %
1328 24-03-2020 05:20:17 8.1 C 63 %
1329 24-03-2020 05:30:18 8.1 C 63 %
1330 24-03-2020 05:40:18 8 C 63 %
1331 24-03-2020 05:50:18 8 C 63 %
1332 24-03-2020 06:00:17 8 C 63 %
1333 24-03-2020 06:10:18 8 C 63 %
1334 24-03-2020 06:20:17 8 C 62 %
1335 24-03-2020 06:30:18 7.9 C 63 %
1336 24-03-2020 06:40:18 7.9 C 63 %
1337 24-03-2020 06:50:18 8 C 62 %
1338 24-03-2020 07:00:18 7.9 C 63 %
1339 24-03-2020 07:10:18 7.9 C 63 %
1340 24-03-2020 07:20:18 7.9 C 63 %
1341 24-03-2020 07:30:18 7.9 C 63 %
1342 24-03-2020 07:40:18 7.9 C 63 %
1343 24-03-2020 07:50:17 7.8 C 63 %
1344 24-03-2020 08:00:17 7.8 C 63 %
1345 24-03-2020 08:10:17 7.8 C 63 %
1346 24-03-2020 08:20:17 7.8 C 63 %
1347 24-03-2020 08:30:17 7.8 C 63 %
1348 24-03-2020 08:40:17 7.8 C 63 %
1349 24-03-2020 08:50:17 7.8 C 63 %
1350 24-03-2020 09:00:17 7.8 C 63 %
Sensor: Nr:Datum:Temp:Feuchte:
G-T/H 1351 24-03-2020 09:10:17 7.8 C 63 %
1352 24-03-2020 09:20:17 7.8 C 63 %
1353 24-03-2020 09:30:17 7.8 C 63 %
1354 24-03-2020 09:40:17 7.8 C 63 %
1355 24-03-2020 09:50:18 7.8 C 63 %
1356 24-03-2020 10:00:18 7.8 C 64 %
1357 24-03-2020 10:10:18 7.8 C 64 %
1358 24-03-2020 10:20:17 7.8 C 64 %
1359 24-03-2020 10:30:17 7.7 C 64 %
1360 24-03-2020 10:40:17 7.7 C 64 %
1361 24-03-2020 10:50:17 7.7 C 64 %
1362 24-03-2020 11:00:18 7.7 C 64 %
1363 24-03-2020 11:10:18 7.8 C 64 %
1364 24-03-2020 11:20:17 7.7 C 64 %
1365 24-03-2020 11:30:17 7.7 C 64 %
1366 24-03-2020 11:40:17 7.7 C 64 %
1367 24-03-2020 11:50:18 7.7 C 64 %
1368 24-03-2020 12:00:18 7.7 C 64 %
1369 24-03-2020 12:10:18 7.7 C 64 %
1370 24-03-2020 12:20:17 7.7 C 64 %
1371 24-03-2020 12:30:17 7.8 C 64 %
1372 24-03-2020 12:40:17 7.8 C 64 %
1373 24-03-2020 12:50:17 7.8 C 64 %
1374 24-03-2020 13:00:18 7.8 C 65 %
1375 24-03-2020 13:10:18 7.8 C 65 %
Sensor: Nr:Datum:Temp:Feuchte:
G-T/H 1376 24-03-2020 13:20:17 7.8 C 64 %
1377 24-03-2020 13:30:17 7.8 C 64 %
1378 24-03-2020 13:40:17 7.8 C 64 %
1379 24-03-2020 13:50:18 7.8 C 64 %
1380 24-03-2020 14:00:17 7.8 C 64 %
1381 24-03-2020 14:10:17 7.8 C 65 %
1382 24-03-2020 14:20:17 7.8 C 65 %
1383 24-03-2020 14:30:17 7.8 C 65 %
1384 24-03-2020 14:40:17 7.9 C 64 %
1385 24-03-2020 14:50:18 7.9 C 64 %
1386 24-03-2020 15:00:18 7.8 C 64 %
1387 24-03-2020 15:10:18 7.9 C 64 %
1388 24-03-2020 15:20:18 7.9 C 64 %
1389 24-03-2020 15:30:18 7.9 C 64 %
1390 24-03-2020 15:40:18 7.9 C 64 %
1391 24-03-2020 15:50:18 7.9 C 64 %
1392 24-03-2020 16:00:18 7.9 C 64 %
1393 24-03-2020 16:10:18 7.9 C 64 %
1394 24-03-2020 16:20:18 7.9 C 64 %
1395 24-03-2020 16:30:18 7.9 C 64 %
1396 24-03-2020 16:40:18 7.9 C 64 %
1397 24-03-2020 16:50:18 7.9 C 64 %
1398 24-03-2020 17:00:18 8 C 63 %
1399 24-03-2020 17:10:18 8 C 63 %
1400 24-03-2020 17:20:18 8 C 63 %
Sensor: Nr:Datum:Temp:Feuchte:
G-T/H 1401 24-03-2020 17:30:18 8 C 64 %
1402 24-03-2020 17:40:18 8 C 64 %
1403 24-03-2020 17:50:17 8.1 C 64 %
1404 24-03-2020 18:00:17 8.1 C 64 %
1405 24-03-2020 18:10:17 8.1 C 64 %
1406 24-03-2020 18:20:17 8.1 C 64 %
1407 24-03-2020 18:30:17 8.1 C 64 %
1408 24-03-2020 18:40:18 8.2 C 65 %
1409 24-03-2020 18:50:17 8.1 C 65 %
1410 24-03-2020 19:00:18 8.2 C 65 %
1411 24-03-2020 19:10:18 8.2 C 65 %
1412 24-03-2020 19:20:18 8.1 C 65 %
1413 24-03-2020 19:30:18 8.1 C 65 %
1414 24-03-2020 19:40:18 8.2 C 65 %
1415 24-03-2020 19:50:17 8.2 C 65 %
1416 24-03-2020 20:00:18 8.2 C 65 %
1417 24-03-2020 20:10:18 8.2 C 65 %
1418 24-03-2020 20:20:17 8.2 C 65 %
1419 24-03-2020 20:30:18 8.2 C 65 %
1420 24-03-2020 20:40:18 8.2 C 65 %
1421 24-03-2020 20:50:18 8.2 C 65 %
1422 24-03-2020 21:00:18 8.2 C 65 %
1423 24-03-2020 21:10:18 8.2 C 65 %
1424 24-03-2020 21:20:17 8.2 C 65 %
1425 24-03-2020 21:30:17 8.2 C 65 %
Sensor: Nr:Datum:Temp:Feuchte:
G-T/H 1426 24-03-2020 21:40:17 8.2 C 65 %
1427 24-03-2020 21:50:17 8.2 C 65 %
1428 24-03-2020 22:00:18 8.2 C 65 %
1429 24-03-2020 22:10:18 8.2 C 65 %
1430 24-03-2020 22:20:17 8.2 C 65 %
1431 24-03-2020 22:30:18 8.2 C 65 %
1432 24-03-2020 22:40:18 8.2 C 65 %
1433 24-03-2020 22:50:17 8.2 C 65 %
1434 24-03-2020 23:00:18 8.2 C 65 %
1435 24-03-2020 23:10:18 8.2 C 64 %
1436 24-03-2020 23:20:17 8.2 C 64 %
1437 24-03-2020 23:30:18 8.2 C 64 %
1438 24-03-2020 23:40:18 8.2 C 64 %
1439 24-03-2020 23:50:18 8.2 C 64 %
1440 25-03-2020 00:00:17 8.2 C 64 %
1441 25-03-2020 00:10:17 8.2 C 64 %
1442 25-03-2020 00:20:17 8.1 C 64 %
1443 25-03-2020 00:30:17 8.1 C 64 %
1444 25-03-2020 00:40:18 8.1 C 64 %
1445 25-03-2020 00:50:17 8.1 C 64 %
1446 25-03-2020 01:00:17 8.1 C 64 %
1447 25-03-2020 01:10:18 8.1 C 64 %
1448 25-03-2020 01:20:17 8.1 C 64 %
1449 25-03-2020 01:30:18 8.1 C 64 %
1450 25-03-2020 01:40:18 8.1 C 64 %
Sensor: Nr:Datum:Temp:Feuchte:
G-T/H 1451 25-03-2020 01:50:17 8.1 C 64 %
1452 25-03-2020 02:00:17 8.1 C 64 %
1453 25-03-2020 02:10:18 8 C 64 %
1454 25-03-2020 02:20:18 8 C 64 %
1455 25-03-2020 02:30:18 8 C 64 %
1456 25-03-2020 02:40:18 8 C 64 %
1457 25-03-2020 02:50:18 8 C 63 %
1458 25-03-2020 03:00:18 8 C 63 %
1459 25-03-2020 03:10:18 8 C 63 %
1460 25-03-2020 03:20:17 8 C 63 %
1461 25-03-2020 03:30:17 7.9 C 64 %
1462 25-03-2020 03:40:17 7.9 C 64 %
1463 25-03-2020 03:50:17 7.9 C 64 %
1464 25-03-2020 04:00:17 7.9 C 64 %
1465 25-03-2020 04:10:17 7.9 C 64 %
1466 25-03-2020 04:20:17 7.9 C 64 %
1467 25-03-2020 04:30:18 7.9 C 64 %
1468 25-03-2020 04:40:18 7.8 C 64 %
1469 25-03-2020 04:50:17 7.8 C 64 %
1470 25-03-2020 05:00:18 7.8 C 64 %
1471 25-03-2020 05:10:18 7.8 C 64 %
1472 25-03-2020 05:20:17 7.8 C 64 %
1473 25-03-2020 05:30:17 7.8 C 64 %
1474 25-03-2020 05:40:17 7.7 C 64 %
1475 25-03-2020 05:50:17 7.8 C 64 %
Sensor: Nr:Datum:Temp:Feuchte:
G-T/H 1476 25-03-2020 06:00:17 7.7 C 64 %
1477 25-03-2020 06:10:17 7.7 C 64 %
1478 25-03-2020 06:20:17 7.7 C 64 %
1479 25-03-2020 06:30:17 7.7 C 64 %
1480 25-03-2020 06:40:17 7.7 C 64 %
1481 25-03-2020 06:50:17 7.6 C 63 %
1482 25-03-2020 07:00:17 7.6 C 63 %
1483 25-03-2020 07:10:17 7.6 C 63 %
1484 25-03-2020 07:20:17 7.6 C 63 %
1485 25-03-2020 07:30:17 7.6 C 63 %
1486 25-03-2020 07:40:17 7.6 C 63 %
1487 25-03-2020 07:50:17 7.6 C 63 %
1488 25-03-2020 08:00:17 7.5 C 63 %
1489 25-03-2020 08:10:17 7.6 C 63 %
1490 25-03-2020 08:20:17 7.6 C 63 %
1491 25-03-2020 08:30:17 7.5 C 63 %
1492 25-03-2020 08:40:17 7.5 C 63 %
1493 25-03-2020 08:50:17 7.5 C 63 %
1494 25-03-2020 09:00:17 7.5 C 63 %
1495 25-03-2020 09:10:17 7.5 C 63 %
1496 25-03-2020 09:20:17 7.5 C 64 %
1497 25-03-2020 09:30:17 7.5 C 64 %
1498 25-03-2020 09:40:18 7.5 C 64 %
1499 25-03-2020 09:50:17 7.5 C 64 %
1500 25-03-2020 10:00:18 7.4 C 64 %
Sensor: Nr:Datum:Temp:Feuchte:
G-T/H 1501 25-03-2020 10:10:18 7.4 C 64 %
1502 25-03-2020 10:20:17 7.5 C 64 %
1503 25-03-2020 10:30:17 7.5 C 64 %
1504 25-03-2020 10:40:17 7.4 C 64 %
1505 25-03-2020 10:50:17 7.4 C 64 %
1506 25-03-2020 11:00:17 7.4 C 64 %
1507 25-03-2020 11:10:17 7.4 C 64 %
1508 25-03-2020 11:20:17 7.5 C 64 %
1509 25-03-2020 11:30:18 7.5 C 64 %
1510 25-03-2020 11:40:18 7.4 C 64 %
1511 25-03-2020 11:50:17 7.4 C 64 %
1512 25-03-2020 12:00:17 7.5 C 64 %
1513 25-03-2020 12:10:17 7.4 C 64 %
1514 25-03-2020 12:20:17 7.4 C 64 %
1515 25-03-2020 12:30:17 7.5 C 64 %
1516 25-03-2020 12:40:17 7.5 C 64 %
1517 25-03-2020 12:50:17 7.5 C 64 %
1518 25-03-2020 13:00:17 7.5 C 64 %
1519 25-03-2020 13:10:17 7.5 C 64 %
1520 25-03-2020 13:20:18 7.5 C 64 %
1521 25-03-2020 13:30:18 7.5 C 64 %
1522 25-03-2020 13:40:18 7.5 C 64 %
1523 25-03-2020 13:50:18 7.5 C 64 %
1524 25-03-2020 14:00:18 7.5 C 64 %
1525 25-03-2020 14:10:18 7.6 C 64 %
Sensor: Nr:Datum:Temp:Feuchte:
G-T/H 1526 25-03-2020 14:20:17 7.6 C 64 %
1527 25-03-2020 14:30:17 7.6 C 64 %
1528 25-03-2020 14:40:17 7.6 C 64 %
1529 25-03-2020 14:50:17 7.7 C 63 %
1530 25-03-2020 15:00:17 7.6 C 62 %
1531 25-03-2020 15:10:17 7.7 C 62 %
1532 25-03-2020 15:20:18 7.6 C 62 %
1533 25-03-2020 15:30:18 7.7 C 62 %
1534 25-03-2020 15:40:18 7.7 C 62 %
1535 25-03-2020 15:50:17 7.7 C 62 %
1536 25-03-2020 16:00:18 7.7 C 62 %
1537 25-03-2020 16:10:18 7.8 C 62 %
1538 25-03-2020 16:20:17 7.7 C 62 %
1539 25-03-2020 16:30:17 7.8 C 62 %
1540 25-03-2020 16:40:17 7.8 C 62 %
1541 25-03-2020 16:50:18 7.8 C 62 %
1542 25-03-2020 17:00:18 7.8 C 62 %
1543 25-03-2020 17:10:18 7.8 C 62 %
1544 25-03-2020 17:20:17 7.9 C 62 %
1545 25-03-2020 17:30:17 7.9 C 62 %
1546 25-03-2020 17:40:17 7.9 C 62 %
1547 25-03-2020 17:50:17 7.9 C 62 %
1548 25-03-2020 18:00:18 7.9 C 62 %
1549 25-03-2020 18:10:18 7.9 C 62 %
1550 25-03-2020 18:20:17 8 C 62 %
Sensor: Nr:Datum:Temp:Feuchte:
G-T/H 1551 25-03-2020 18:30:18 8 C 62 %
1552 25-03-2020 18:40:18 8 C 62 %
1553 25-03-2020 18:50:18 8 C 62 %
1554 25-03-2020 19:00:18 8 C 62 %
1555 25-03-2020 19:10:18 8 C 63 %
1556 25-03-2020 19:20:17 8 C 63 %
1557 25-03-2020 19:30:18 8 C 63 %
1558 25-03-2020 19:40:18 8 C 63 %
1559 25-03-2020 19:50:17 8 C 63 %
1560 25-03-2020 20:00:17 8.1 C 63 %
1561 25-03-2020 20:10:17 8.1 C 64 %
1562 25-03-2020 20:20:17 8.1 C 64 %
1563 25-03-2020 20:30:18 8.1 C 64 %
1564 25-03-2020 20:40:18 8.1 C 64 %
1565 25-03-2020 20:50:17 8.1 C 64 %
1566 25-03-2020 21:00:18 8.1 C 64 %
1567 25-03-2020 21:10:18 8.1 C 64 %
1568 25-03-2020 21:20:17 8.1 C 64 %
1569 25-03-2020 21:30:17 8.1 C 64 %
1570 25-03-2020 21:40:17 8.1 C 64 %
1571 25-03-2020 21:50:17 8.1 C 64 %
1572 25-03-2020 22:00:17 8.1 C 64 %
1573 25-03-2020 22:10:17 8.1 C 64 %
1574 25-03-2020 22:20:17 8.1 C 64 %
1575 25-03-2020 22:30:18 8.1 C 64 %
Sensor: Nr:Datum:Temp:Feuchte:
G-T/H 1576 25-03-2020 22:40:18 8.2 C 64 %
1577 25-03-2020 22:50:18 8.2 C 64 %
1578 25-03-2020 23:00:18 8.2 C 64 %
1579 25-03-2020 23:10:18 8.2 C 64 %
1580 25-03-2020 23:20:17 8.2 C 64 %
1581 25-03-2020 23:30:18 8.2 C 64 %
1582 25-03-2020 23:40:18 8.2 C 64 %
1583 25-03-2020 23:50:18 8.2 C 64 %
1584 26-03-2020 00:00:18 8.2 C 64 %
1585 26-03-2020 00:10:18 8.1 C 64 %
1586 26-03-2020 00:20:18 8.1 C 64 %
1587 26-03-2020 00:30:18 8.1 C 64 %
1588 26-03-2020 00:40:18 8.1 C 64 %
1589 26-03-2020 00:50:18 8.1 C 64 %
1590 26-03-2020 01:00:18 8.1 C 64 %
1591 26-03-2020 01:10:18 8.1 C 64 %
1592 26-03-2020 01:20:17 8.1 C 64 %
1593 26-03-2020 01:30:17 8.1 C 64 %
1594 26-03-2020 01:40:17 8.1 C 64 %
1595 26-03-2020 01:50:17 8.1 C 64 %
1596 26-03-2020 02:00:17 8.1 C 64 %
1597 26-03-2020 02:10:17 8.1 C 64 %
1598 26-03-2020 02:20:17 8.1 C 64 %
1599 26-03-2020 02:30:17 8.1 C 64 %
1600 26-03-2020 02:40:18 8.1 C 64 %
Sensor: Nr:Datum:Temp:Feuchte:
G-T/H 1601 26-03-2020 02:50:17 8.1 C 63 %
1602 26-03-2020 03:00:17 8.1 C 63 %
1603 26-03-2020 03:10:18 8 C 63 %
1604 26-03-2020 03:20:18 8 C 63 %
1605 26-03-2020 03:30:18 8 C 63 %
1606 26-03-2020 03:40:18 8 C 63 %
1607 26-03-2020 03:50:17 8 C 63 %
1608 26-03-2020 04:00:17 8 C 63 %
1609 26-03-2020 04:10:17 8 C 63 %
1610 26-03-2020 04:20:17 8 C 63 %
1611 26-03-2020 04:30:18 8 C 63 %
1612 26-03-2020 04:40:18 8 C 63 %
1613 26-03-2020 04:50:17 8 C 63 %
1614 26-03-2020 05:00:18 7.9 C 64 %
1615 26-03-2020 05:10:18 7.9 C 64 %
1616 26-03-2020 05:20:17 7.9 C 64 %
1617 26-03-2020 05:30:17 7.9 C 64 %
1618 26-03-2020 05:40:18 7.9 C 64 %
1619 26-03-2020 05:50:17 7.9 C 64 %
1620 26-03-2020 06:00:18 7.9 C 64 %
1621 26-03-2020 06:10:18 7.8 C 64 %
1622 26-03-2020 06:20:18 7.8 C 64 %
1623 26-03-2020 06:30:18 7.8 C 64 %
1624 26-03-2020 06:40:18 7.8 C 64 %
1625 26-03-2020 06:50:18 7.8 C 64 %
Sensor: Nr:Datum:Temp:Feuchte:
G-T/H 1626 26-03-2020 07:00:18 7.8 C 64 %
1627 26-03-2020 07:10:18 7.8 C 64 %
1628 26-03-2020 07:20:18 7.8 C 64 %
1629 26-03-2020 07:30:18 7.7 C 64 %
1630 26-03-2020 07:40:18 7.7 C 64 %
1631 26-03-2020 07:50:17 7.7 C 64 %
1632 26-03-2020 08:00:18 7.7 C 64 %
1633 26-03-2020 08:10:18 7.7 C 64 %
1634 26-03-2020 08:20:18 7.7 C 64 %
1635 26-03-2020 08:30:18 7.7 C 64 %
1636 26-03-2020 08:40:18 7.7 C 64 %
1637 26-03-2020 08:50:17 7.7 C 64 %
1638 26-03-2020 09:00:18 7.7 C 64 %
1639 26-03-2020 09:10:18 7.7 C 64 %
1640 26-03-2020 09:20:18 7.7 C 64 %
1641 26-03-2020 09:30:18 7.7 C 64 %
1642 26-03-2020 09:40:18 7.7 C 64 %
1643 26-03-2020 09:50:18 7.6 C 64 %
1644 26-03-2020 10:00:18 7.7 C 64 %
1645 26-03-2020 10:10:18 7.7 C 64 %
1646 26-03-2020 10:20:18 7.6 C 64 %
1647 26-03-2020 10:30:18 7.7 C 64 %
1648 26-03-2020 10:40:18 7.7 C 64 %
1649 26-03-2020 10:50:17 7.6 C 64 %
1650 26-03-2020 11:00:18 7.6 C 64 %
Sensor: Nr:Datum:Temp:Feuchte:
G-T/H 1651 26-03-2020 11:10:18 7.6 C 64 %
1652 26-03-2020 11:20:18 7.6 C 64 %
1653 26-03-2020 11:30:18 7.6 C 64 %
1654 26-03-2020 11:40:18 7.6 C 64 %
1655 26-03-2020 11:50:18 7.7 C 64 %
1656 26-03-2020 12:00:18 7.6 C 64 %
1657 26-03-2020 12:10:18 7.7 C 64 %
1658 26-03-2020 12:20:17 7.7 C 64 %
1659 26-03-2020 12:30:17 7.7 C 64 %
1660 26-03-2020 12:40:17 7.7 C 64 %
1661 26-03-2020 12:50:17 7.7 C 64 %
1662 26-03-2020 13:00:17 7.7 C 64 %
1663 26-03-2020 13:10:17 7.7 C 63 %
1664 26-03-2020 13:20:18 7.8 C 63 %
1665 26-03-2020 13:30:18 7.8 C 63 %
1666 26-03-2020 13:40:18 7.8 C 63 %
1667 26-03-2020 13:50:18 7.8 C 63 %
1668 26-03-2020 14:00:18 7.8 C 63 %
1669 26-03-2020 14:10:18 7.8 C 63 %
1670 26-03-2020 14:20:18 7.8 C 63 %
1671 26-03-2020 14:30:18 7.9 C 63 %
1672 26-03-2020 14:40:18 7.9 C 64 %
1673 26-03-2020 14:50:17 7.9 C 64 %
1674 26-03-2020 15:00:17 7.9 C 64 %
1675 26-03-2020 15:10:18 7.9 C 64 %
Sensor: Nr:Datum:Temp:Feuchte:
G-T/H 1676 26-03-2020 15:20:18 8 C 63 %
1677 26-03-2020 15:30:18 8 C 63 %
1678 26-03-2020 15:40:18 8 C 63 %
1679 26-03-2020 15:50:18 8 C 63 %
1680 26-03-2020 16:00:18 8 C 63 %
1681 26-03-2020 16:10:18 8.1 C 63 %
1682 26-03-2020 16:20:18 8.1 C 63 %
1683 26-03-2020 16:30:18 8.1 C 63 %
1684 26-03-2020 16:40:18 8.1 C 64 %
1685 26-03-2020 16:50:18 8.1 C 64 %
1686 26-03-2020 17:00:18 8.1 C 64 %
1687 26-03-2020 17:10:18 8.2 C 64 %
1688 26-03-2020 17:20:17 8.2 C 64 %
1689 26-03-2020 17:30:17 8.2 C 63 %
1690 26-03-2020 17:40:17 8.3 C 63 %
1691 26-03-2020 17:50:17 8.3 C 63 %
1692 26-03-2020 18:00:17 8.3 C 64 %
1693 26-03-2020 18:10:17 8.3 C 63 %
1694 26-03-2020 18:20:18 8.3 C 63 %
1695 26-03-2020 18:30:18 8.3 C 63 %
1696 26-03-2020 18:40:18 8.4 C 64 %
1697 26-03-2020 18:50:17 8.4 C 64 %
1698 26-03-2020 19:00:17 8.4 C 64 %
1699 26-03-2020 19:10:17 8.4 C 64 %
1700 26-03-2020 19:20:17 8.4 C 64 %
Sensor: Nr:Datum:Temp:Feuchte:
G-T/H 1701 26-03-2020 19:30:17 8.4 C 64 %
1702 26-03-2020 19:40:17 8.4 C 65 %
1703 26-03-2020 19:50:17 8.4 C 65 %
1704 26-03-2020 20:00:17 8.4 C 65 %
1705 26-03-2020 20:10:18 8.5 C 65 %
1706 26-03-2020 20:20:18 8.5 C 65 %
1707 26-03-2020 20:30:17 8.5 C 65 %
1708 26-03-2020 20:40:17 8.5 C 65 %
1709 26-03-2020 20:50:17 8.5 C 65 %
1710 26-03-2020 21:00:17 8.5 C 65 %
1711 26-03-2020 21:10:17 8.5 C 65 %
1712 26-03-2020 21:20:17 8.5 C 65 %
1713 26-03-2020 21:30:18 8.5 C 65 %
1714 26-03-2020 21:40:18 8.6 C 65 %
1715 26-03-2020 21:50:18 8.5 C 66 %
1716 26-03-2020 22:00:18 8.6 C 66 %
1717 26-03-2020 22:10:18 8.6 C 66 %
1718 26-03-2020 22:20:17 8.6 C 66 %
1719 26-03-2020 22:30:17 8.6 C 66 %
1720 26-03-2020 22:40:17 8.6 C 66 %
1721 26-03-2020 22:50:17 8.6 C 66 %
1722 26-03-2020 23:00:18 8.6 C 66 %
1723 26-03-2020 23:10:18 8.6 C 66 %
1724 26-03-2020 23:20:17 8.6 C 66 %
1725 26-03-2020 23:30:18 8.6 C 66 %
Sensor: Nr:Datum:Temp:Feuchte:
G-T/H 1726 26-03-2020 23:40:18 8.6 C 66 %
1727 26-03-2020 23:50:18 8.6 C 66 %
1728 27-03-2020 00:00:18 8.6 C 66 %
1729 27-03-2020 00:10:18 8.6 C 66 %
1730 27-03-2020 00:20:17 8.6 C 66 %
1731 27-03-2020 00:30:17 8.6 C 66 %
1732 27-03-2020 00:40:17 8.6 C 66 %
1733 27-03-2020 00:50:18 8.6 C 66 %
1734 27-03-2020 01:00:18 8.6 C 66 %
1735 27-03-2020 01:10:18 8.6 C 66 %
1736 27-03-2020 01:20:17 8.6 C 66 %
1737 27-03-2020 01:30:18 8.6 C 66 %
1738 27-03-2020 01:40:18 8.6 C 66 %
1739 27-03-2020 01:50:18 8.6 C 66 %
1740 27-03-2020 02:00:18 8.6 C 66 %
1741 27-03-2020 02:10:18 8.6 C 66 %
1742 27-03-2020 02:20:17 8.6 C 66 %
1743 27-03-2020 02:30:17 8.6 C 66 %
1744 27-03-2020 02:40:17 8.6 C 66 %
1745 27-03-2020 02:50:17 8.5 C 66 %
1746 27-03-2020 03:00:17 8.6 C 66 %
1747 27-03-2020 03:10:17 8.6 C 66 %
1748 27-03-2020 03:20:17 8.6 C 66 %
1749 27-03-2020 03:30:17 8.5 C 66 %
1750 27-03-2020 03:40:17 8.5 C 66 %
Sensor: Nr:Datum:Temp:Feuchte:
G-T/H 1751 27-03-2020 03:50:17 8.5 C 66 %
1752 27-03-2020 04:00:18 8.5 C 66 %
1753 27-03-2020 04:10:18 8.5 C 66 %
1754 27-03-2020 04:20:18 8.5 C 66 %
1755 27-03-2020 04:30:18 8.5 C 66 %
1756 27-03-2020 04:40:18 8.5 C 66 %
1757 27-03-2020 04:50:17 8.5 C 66 %
1758 27-03-2020 05:00:18 8.5 C 66 %
1759 27-03-2020 05:10:18 8.5 C 66 %
1760 27-03-2020 05:20:18 8.5 C 66 %
1761 27-03-2020 05:30:18 8.5 C 66 %
1762 27-03-2020 05:40:18 8.5 C 66 %
1763 27-03-2020 05:50:18 8.4 C 66 %
1764 27-03-2020 06:00:18 8.5 C 66 %
1765 27-03-2020 06:10:18 8.4 C 66 %
1766 27-03-2020 06:20:18 8.4 C 66 %
1767 27-03-2020 06:30:18 8.4 C 66 %
1768 27-03-2020 06:40:18 8.4 C 66 %
1769 27-03-2020 06:50:17 8.4 C 66 %
1770 27-03-2020 07:00:18 8.4 C 66 %
1771 27-03-2020 07:10:18 8.4 C 66 %
1772 27-03-2020 07:20:18 8.4 C 65 %
1773 27-03-2020 07:30:18 8.3 C 65 %
1774 27-03-2020 07:40:18 8.4 C 66 %
1775 27-03-2020 07:50:17 8.3 C 66 %
Sensor: Nr:Datum:Temp:Feuchte:
G-T/H 1776 27-03-2020 08:00:17 8.3 C 66 %
1777 27-03-2020 08:10:18 8.3 C 66 %
1778 27-03-2020 08:20:18 8.3 C 66 %
1779 27-03-2020 08:30:18 8.3 C 66 %
1780 27-03-2020 08:40:18 8.3 C 66 %
1781 27-03-2020 08:50:17 8.3 C 66 %
1782 27-03-2020 09:00:18 8.3 C 66 %
1783 27-03-2020 09:10:18 8.3 C 66 %
1784 27-03-2020 09:20:17 8.2 C 66 %
1785 27-03-2020 09:30:18 8.2 C 66 %
1786 27-03-2020 09:40:18 8.3 C 66 %
1787 27-03-2020 09:50:18 8.3 C 66 %
1788 27-03-2020 10:00:18 8.2 C 66 %
1789 27-03-2020 10:10:18 8.2 C 66 %
1790 27-03-2020 10:20:17 8.3 C 66 %
1791 27-03-2020 10:30:17 8.3 C 66 %
1792 27-03-2020 10:40:17 8.3 C 66 %
1793 27-03-2020 10:50:17 8.3 C 67 %
1794 27-03-2020 11:00:17 8.3 C 67 %
1795 27-03-2020 11:10:17 8.3 C 67 %
1796 27-03-2020 11:20:17 8.3 C 67 %
1797 27-03-2020 11:30:17 8.3 C 67 %
1798 27-03-2020 11:40:17 8.3 C 67 %
1799 27-03-2020 11:50:17 8.3 C 67 %
1800 27-03-2020 12:00:17 8.3 C 67 %
Sensor: Nr:Datum:Temp:Feuchte:
G-T/H 1801 27-03-2020 12:10:17 8.3 C 67 %
1802 27-03-2020 12:20:17 8.4 C 67 %
1803 27-03-2020 12:30:17 8.4 C 67 %
1804 27-03-2020 12:40:18 8.4 C 67 %
1805 27-03-2020 12:50:18 8.5 C 67 %
1806 27-03-2020 13:00:18 8.4 C 67 %
1807 27-03-2020 13:10:18 8.5 C 67 %
1808 27-03-2020 13:20:17 8.5 C 67 %
1809 27-03-2020 13:30:18 8.6 C 67 %
1810 27-03-2020 13:40:18 8.6 C 67 %
1811 27-03-2020 13:50:18 8.6 C 67 %
1812 27-03-2020 14:00:18 8.7 C 67 %
1813 27-03-2020 14:10:18 8.7 C 67 %
1814 27-03-2020 14:20:18 8.7 C 67 %
1815 27-03-2020 14:30:17 8.8 C 67 %
1816 27-03-2020 14:40:17 8.8 C 67 %
1817 27-03-2020 14:50:17 8.8 C 67 %
1818 27-03-2020 15:00:17 8.9 C 67 %
1819 27-03-2020 15:10:17 9.4 C 64 %
1820 27-03-2020 15:20:17 9.7 C 61 %
1821 27-03-2020 15:30:18 9.9 C 59 %
1822 27-03-2020 15:40:18 10.1 C 56 %
1823 27-03-2020 15:50:17 10.2 C 55 %
1824 27-03-2020 16:00:17 10.4 C 54 %
1825 27-03-2020 16:10:17 10.5 C 53 %
Sensor: Nr:Datum:Temp:Feuchte:
G-T/H 1826 27-03-2020 16:20:17 10.6 C 53 %
1827 27-03-2020 16:30:17 10.7 C 52 %
1828 27-03-2020 16:40:17 10.8 C 52 %
1829 27-03-2020 16:50:17 10.9 C 51 %
1830 27-03-2020 17:00:18 11 C 50 %
1831 27-03-2020 17:10:18 11.1 C 50 %
1832 27-03-2020 17:20:18 11.2 C 49 %
1833 27-03-2020 17:30:18 11.2 C 49 %
1834 27-03-2020 17:40:18 11.3 C 49 %
1835 27-03-2020 17:50:18 11.4 C 48 %
1836 27-03-2020 18:00:17 11.4 C 49 %
1837 27-03-2020 18:10:17 11.5 C 48 %
1838 27-03-2020 18:20:17 11.5 C 49 %
1839 27-03-2020 18:30:18 11.4 C 49 %
1840 27-03-2020 18:40:18 11.3 C 50 %
1841 27-03-2020 18:50:18 11.2 C 51 %
1842 27-03-2020 19:00:18 11.1 C 52 %
1843 27-03-2020 19:10:18 11 C 52 %
1844 27-03-2020 19:20:17 11 C 52 %
1845 27-03-2020 19:30:17 10.9 C 53 %
1846 27-03-2020 19:40:17 10.8 C 53 %
1847 27-03-2020 19:50:17 10.6 C 53 %
1848 27-03-2020 20:00:18 10.6 C 53 %
1849 27-03-2020 20:10:18 10.5 C 53 %
1850 27-03-2020 20:20:17 10.5 C 53 %
Sensor: Nr:Datum:Temp:Feuchte:
G-T/H 1851 27-03-2020 20:30:17 10.4 C 53 %
1852 27-03-2020 20:40:17 10.4 C 54 %
1853 27-03-2020 20:50:18 10.4 C 54 %
1854 27-03-2020 21:00:17 10.2 C 54 %
1855 27-03-2020 21:10:17 10.2 C 54 %
1856 27-03-2020 21:20:17 10.1 C 54 %
1857 27-03-2020 21:30:17 10 C 54 %
1858 27-03-2020 21:40:17 9.9 C 54 %
1859 27-03-2020 21:50:17 9.8 C 54 %
1860 27-03-2020 22:00:17 9.7 C 54 %
1861 27-03-2020 22:10:17 9.6 C 54 %
1862 27-03-2020 22:20:17 9.6 C 54 %
1863 27-03-2020 22:30:18 9.5 C 54 %
1864 27-03-2020 22:40:18 9.4 C 54 %
1865 27-03-2020 22:50:18 9.7 C 55 %
1866 27-03-2020 23:00:18 9.8 C 55 %
1867 27-03-2020 23:10:18 9.9 C 56 %
1868 27-03-2020 23:20:17 9.9 C 56 %
1869 27-03-2020 23:30:17 9.9 C 56 %
1870 27-03-2020 23:40:17 10 C 56 %
1871 27-03-2020 23:50:17 10 C 56 %
1872 28-03-2020 00:00:17 10 C 57 %
1873 28-03-2020 00:10:17 10 C 57 %
1874 28-03-2020 00:20:17 10 C 58 %
1875 28-03-2020 00:30:18 10.1 C 58 %
Sensor: Nr:Datum:Temp:Feuchte:
G-T/H 1876 28-03-2020 00:40:18 10.1 C 58 %
1877 28-03-2020 00:50:17 10 C 58 %
1878 28-03-2020 01:00:17 10.1 C 59 %
1879 28-03-2020 01:10:17 10.1 C 59 %
1880 28-03-2020 01:20:17 10.1 C 59 %
1881 28-03-2020 01:30:17 10.1 C 59 %
1882 28-03-2020 01:40:18 10.1 C 59 %
1883 28-03-2020 01:50:17 10.1 C 60 %
1884 28-03-2020 02:00:18 10.1 C 60 %
1885 28-03-2020 02:10:18 10.1 C 60 %
1886 28-03-2020 02:20:18 10 C 60 %
1887 28-03-2020 02:30:17 10 C 60 %
1888 28-03-2020 02:40:17 10 C 60 %
1889 28-03-2020 02:50:18 10.1 C 60 %
1890 28-03-2020 03:00:18 10 C 60 %
1891 28-03-2020 03:10:18 10 C 60 %
1892 28-03-2020 03:20:17 10 C 60 %
1893 28-03-2020 03:30:18 10 C 61 %
1894 28-03-2020 03:40:18 10 C 61 %
1895 28-03-2020 03:50:17 10 C 61 %
1896 28-03-2020 04:00:18 10 C 61 %
1897 28-03-2020 04:10:18 10 C 61 %
1898 28-03-2020 04:20:18 10 C 61 %
1899 28-03-2020 04:30:18 10 C 61 %
1900 28-03-2020 04:40:18 10 C 61 %
Sensor: Nr:Datum:Temp:Feuchte:
G-T/H 1901 28-03-2020 04:50:17 10 C 61 %
1902 28-03-2020 05:00:18 9.9 C 62 %
1903 28-03-2020 05:10:18 9.9 C 62 %
1904 28-03-2020 05:20:17 9.9 C 62 %
1905 28-03-2020 05:30:18 9.9 C 62 %
1906 28-03-2020 05:40:18 9.8 C 62 %
1907 28-03-2020 05:50:18 9.8 C 62 %
1908 28-03-2020 06:00:18 9.8 C 62 %
1909 28-03-2020 06:10:18 9.8 C 62 %
1910 28-03-2020 06:20:17 9.8 C 62 %
1911 28-03-2020 06:30:17 9.8 C 62 %
1912 28-03-2020 06:40:17 9.8 C 62 %
1913 28-03-2020 06:50:17 9.8 C 62 %
1914 28-03-2020 07:00:17 9.8 C 62 %
1915 28-03-2020 07:10:17 9.8 C 62 %
1916 28-03-2020 07:20:17 9.7 C 62 %
1917 28-03-2020 07:30:18 9.7 C 62 %
1918 28-03-2020 07:40:18 9.7 C 62 %
1919 28-03-2020 07:50:17 9.7 C 62 %
1920 28-03-2020 08:00:17 9.7 C 62 %
1921 28-03-2020 08:10:18 9.7 C 63 %
1922 28-03-2020 08:20:18 9.7 C 63 %
1923 28-03-2020 08:30:17 9.7 C 63 %
1924 28-03-2020 08:40:17 9.6 C 63 %
1925 28-03-2020 08:50:18 9.7 C 63 %
Sensor: Nr:Datum:Temp:Feuchte:
G-T/H 1926 28-03-2020 09:00:18 9.6 C 63 %
1927 28-03-2020 09:10:18 9.7 C 63 %
1928 28-03-2020 09:20:17 9.6 C 63 %
1929 28-03-2020 09:30:18 9.6 C 63 %
1930 28-03-2020 09:40:18 9.6 C 63 %
1931 28-03-2020 09:50:18 9.6 C 63 %
1932 28-03-2020 10:00:18 9.6 C 63 %
1933 28-03-2020 10:10:18 9.6 C 63 %
1934 28-03-2020 10:20:17 9.6 C 64 %
1935 28-03-2020 10:30:17 9.6 C 64 %
1936 28-03-2020 10:40:17 9.6 C 64 %
1937 28-03-2020 10:50:18 9.6 C 64 %
1938 28-03-2020 11:00:18 9.6 C 64 %
1939 28-03-2020 11:10:18 9.6 C 64 %
1940 28-03-2020 11:20:17 9.6 C 64 %
1941 28-03-2020 11:30:17 9.6 C 64 %
1942 28-03-2020 11:40:17 9.6 C 64 %
1943 28-03-2020 11:50:18 9.6 C 64 %
1944 28-03-2020 12:00:17 9.7 C 64 %
1945 28-03-2020 12:10:17 9.8 C 64 %
1946 28-03-2020 12:20:17 9.8 C 64 %
1947 28-03-2020 12:30:17 9.8 C 64 %
1948 28-03-2020 12:40:17 9.8 C 64 %
1949 28-03-2020 12:50:18 9.8 C 64 %
1950 28-03-2020 13:00:18 9.8 C 64 %
Sensor: Nr:Datum:Temp:Feuchte:
G-T/H 1951 28-03-2020 13:10:18 9.9 C 64 %
1952 28-03-2020 13:20:18 10.6 C 62 %
1953 28-03-2020 13:30:17 11 C 59 %
1954 28-03-2020 13:40:17 11.2 C 57 %
1955 28-03-2020 13:50:18 11.4 C 56 %
1956 28-03-2020 14:00:17 11.5 C 56 %
1957 28-03-2020 14:10:17 11.7 C 55 %
1958 28-03-2020 14:20:17 11.9 C 54 %
1959 28-03-2020 14:30:17 11.9 C 53 %
1960 28-03-2020 14:40:17 12.1 C 52 %
1961 28-03-2020 14:50:17 12.2 C 52 %
1962 28-03-2020 15:00:18 12.3 C 51 %
1963 28-03-2020 15:10:18 12.4 C 49 %
1964 28-03-2020 15:20:18 12.4 C 49 %
1965 28-03-2020 15:30:18 11.9 C 50 %
1966 28-03-2020 15:40:18 11.9 C 51 %
1967 28-03-2020 15:50:18 12.1 C 50 %
1968 28-03-2020 16:00:18 11.8 C 51 %
1969 28-03-2020 16:10:18 11.6 C 52 %
1970 28-03-2020 16:20:18 11.5 C 53 %
1971 28-03-2020 16:30:18 11.4 C 54 %
1972 28-03-2020 16:40:18 11.4 C 55 %
1973 28-03-2020 16:50:18 11.3 C 55 %
1974 28-03-2020 17:00:18 11.3 C 56 %
1975 28-03-2020 17:10:18 11.3 C 56 %
Sensor: Nr:Datum:Temp:Feuchte:
G-T/H 1976 28-03-2020 17:20:18 11.2 C 56 %
1977 28-03-2020 17:30:18 11.2 C 57 %
1978 28-03-2020 17:40:18 11.2 C 57 %
1979 28-03-2020 17:50:17 11.2 C 57 %
1980 28-03-2020 18:00:18 11.2 C 57 %
1981 28-03-2020 18:10:18 11.2 C 57 %
1982 28-03-2020 18:20:17 11.2 C 58 %
1983 28-03-2020 18:30:17 11.1 C 58 %
1984 28-03-2020 18:40:17 11.1 C 58 %
1985 28-03-2020 18:50:18 11.1 C 58 %
1986 28-03-2020 19:00:18 11.1 C 58 %
1987 28-03-2020 19:10:18 11.1 C 58 %
1988 28-03-2020 19:20:18 11.1 C 58 %
1989 28-03-2020 19:30:18 11.1 C 58 %
1990 28-03-2020 19:40:18 11.1 C 58 %
1991 28-03-2020 19:50:17 11.1 C 59 %
1992 28-03-2020 20:00:18 11.1 C 59 %
1993 28-03-2020 20:10:18 11.1 C 59 %
1994 28-03-2020 20:20:17 11.1 C 59 %
1995 28-03-2020 20:30:18 11.1 C 59 %
1996 28-03-2020 20:40:18 11 C 59 %
1997 28-03-2020 20:50:17 11 C 59 %
1998 28-03-2020 21:00:17 11.1 C 60 %
1999 28-03-2020 21:10:17 11 C 60 %
2000 28-03-2020 21:20:17 11 C 60 %
Sensor: Nr:Datum:Temp:Feuchte:
G-T/H 2001 28-03-2020 21:30:17 11 C 60 %
2002 28-03-2020 21:40:17 11 C 60 %
2003 28-03-2020 21:50:17 11 C 60 %
2004 28-03-2020 22:00:17 11 C 60 %
2005 28-03-2020 22:10:17 11 C 60 %
2006 28-03-2020 22:20:17 11 C 61 %
2007 28-03-2020 22:30:17 11 C 61 %
2008 28-03-2020 22:40:17 11 C 61 %
2009 28-03-2020 22:50:17 11 C 61 %
2010 28-03-2020 23:00:17 11 C 61 %
2011 28-03-2020 23:10:17 11 C 61 %
2012 28-03-2020 23:20:18 11 C 61 %
2013 28-03-2020 23:30:18 10.9 C 62 %
2014 28-03-2020 23:40:18 10.9 C 62 %
2015 28-03-2020 23:50:17 10.9 C 62 %

Legende:
   Min
   Max


Maximal/Minimal-Werte vom 15.03.2020 - 28.03.2020

Sensor Min Max Avg
Temp
(Aussen-T/F)
-4.7 °C
24-03-2020  06:00:17
25.8 °C
19-03-2020  13:19:18
7.61 °C
Feuchte
(Aussen-T/F)
20 %
15-03-2020  11:29:17
49 %
16-03-2020  06:59:17
30.97 %
Temp
(G-T/H)
7.4 °C
25-03-2020  10:00:18
13.9 °C
19-03-2020  16:59:17
10.2 °C
Feuchte
(G-T/H)
48 %
27-03-2020  17:50:18
72 %
15-03-2020  09:59:18
64.87 %

Die Daten stammen von einer Davis Vantage Pro 2 Wetter-Station und werden unter Linux mit der Software wview2wettercgi und aufbereitet. Alle Angaben erfolgen ohne Gewähr für ihre Vollständigkeit oder Richtigkeit.
Kontakt: Rainer Krienke krienke@uni-koblenz.de . Meine Webseiten an der Uni Koblenz oder privat.
Version: $Revision: 0.78 $